<?xml version="1.0" encoding="UTF-8" standalone="no" ?><gpx xmlns="http://www.topografix.com/GPX/1/1" xmlns:gpxx="http://www.garmin.com/xmlschemas/GpxExtensions/v3" xmlns:wptx1="http://www.garmin.com/xmlschemas/WaypointExtension/v1" xmlns:gpxtpx="http://www.garmin.com/xmlschemas/TrackPointExtension/v1" creator="GuideVTT.com" version="1.1" xmlns:xsi="http://www.w3.org/2001/XMLSchema-instance" xsi:schemaLocation="http://www.topografix.com/GPX/1/1 http://www.topografix.com/GPX/1/1/gpx.xsd http://www.garmin.com/xmlschemas/GpxExtensions/v3 http://www8.garmin.com/xmlschemas/GpxExtensionsv3.xsd http://www.garmin.com/xmlschemas/WaypointExtension/v1 http://www8.garmin.com/xmlschemas/WaypointExtensionv1.xsd http://www.garmin.com/xmlschemas/TrackPointExtension/v1 http://www.garmin.com/xmlschemas/TrackPointExtensionv1.xsd">
<metadata><link href="http://www.garmin.com"><text>Garmin International</text></link><time>2013-06-22T15:13:50Z</time></metadata>
<trk><name>rp2016_52.gpx</name><extensions><gpxx:TrackExtension><gpxx:DisplayColor>Cyan</gpxx:DisplayColor></gpxx:TrackExtension></extensions><trkseg>
<trkpt lat="46.78994" lon="6.52455"><ele>633.4</ele><time>2016-11-01T10:17:40Z</time></trkpt>
<trkpt lat="46.79002" lon="6.52428"><ele>644.6</ele><time>2016-11-01T10:17:52Z</time></trkpt>
<trkpt lat="46.79004" lon="6.52428"><ele>644.6</ele><time>2016-11-01T10:17:53Z</time></trkpt>
<trkpt lat="46.79002" lon="6.52415"><ele>655</ele><time>2016-11-01T10:18:00Z</time></trkpt>
<trkpt lat="46.79" lon="6.52388"><ele>648.8</ele><time>2016-11-01T10:18:06Z</time></trkpt>
<trkpt lat="46.79001" lon="6.52359"><ele>637.4</ele><time>2016-11-01T10:18:16Z</time></trkpt>
<trkpt lat="46.79002" lon="6.52347"><ele>634.6</ele><time>2016-11-01T10:18:20Z</time></trkpt>
<trkpt lat="46.79003" lon="6.52334"><ele>633.4</ele><time>2016-11-01T10:18:24Z</time></trkpt>
<trkpt lat="46.79004" lon="6.52319"><ele>633.4</ele><time>2016-11-01T10:18:29Z</time></trkpt>
<trkpt lat="46.79006" lon="6.52312"><ele>633.8</ele><time>2016-11-01T10:18:31Z</time></trkpt>
<trkpt lat="46.79014" lon="6.52298"><ele>634</ele><time>2016-11-01T10:18:37Z</time></trkpt>
<trkpt lat="46.79015" lon="6.52296"><ele>633.8</ele><time>2016-11-01T10:18:38Z</time></trkpt>
<trkpt lat="46.79028" lon="6.52274"><ele>635.8</ele><time>2016-11-01T10:18:47Z</time></trkpt>
<trkpt lat="46.79041" lon="6.52254"><ele>637.8</ele><time>2016-11-01T10:18:56Z</time></trkpt>
<trkpt lat="46.79047" lon="6.52245"><ele>638.8</ele><time>2016-11-01T10:19:00Z</time></trkpt>
<trkpt lat="46.79052" lon="6.52235"><ele>639.8</ele><time>2016-11-01T10:19:04Z</time></trkpt>
<trkpt lat="46.79066" lon="6.52207"><ele>642.6</ele><time>2016-11-01T10:19:15Z</time></trkpt>
<trkpt lat="46.79075" lon="6.52182"><ele>645.4</ele><time>2016-11-01T10:19:24Z</time></trkpt>
<trkpt lat="46.79076" lon="6.5218"><ele>645.6</ele><time>2016-11-01T10:19:25Z</time></trkpt>
<trkpt lat="46.79086" lon="6.52157"><ele>648.2</ele><time>2016-11-01T10:19:34Z</time></trkpt>
<trkpt lat="46.79093" lon="6.52145"><ele>649.6</ele><time>2016-11-01T10:19:39Z</time></trkpt>
<trkpt lat="46.79097" lon="6.52135"><ele>651.4</ele><time>2016-11-01T10:19:43Z</time></trkpt>
<trkpt lat="46.79105" lon="6.52111"><ele>655.4</ele><time>2016-11-01T10:19:53Z</time></trkpt>
<trkpt lat="46.79111" lon="6.52084"><ele>658.6</ele><time>2016-11-01T10:20:04Z</time></trkpt>
<trkpt lat="46.79112" lon="6.52058"><ele>661.2</ele><time>2016-11-01T10:20:14Z</time></trkpt>
<trkpt lat="46.79113" lon="6.52031"><ele>665</ele><time>2016-11-01T10:20:24Z</time></trkpt>
<trkpt lat="46.79114" lon="6.52013"><ele>667.8</ele><time>2016-11-01T10:20:31Z</time></trkpt>
<trkpt lat="46.79116" lon="6.51984"><ele>670.6</ele><time>2016-11-01T10:20:42Z</time></trkpt>
<trkpt lat="46.79116" lon="6.51959"><ele>671.8</ele><time>2016-11-01T10:20:52Z</time></trkpt>
<trkpt lat="46.79117" lon="6.51945"><ele>672.4</ele><time>2016-11-01T10:20:57Z</time></trkpt>
<trkpt lat="46.79118" lon="6.51935"><ele>672.8</ele><time>2016-11-01T10:21:01Z</time></trkpt>
<trkpt lat="46.79119" lon="6.51916"><ele>673.8</ele><time>2016-11-01T10:21:08Z</time></trkpt>
<trkpt lat="46.79125" lon="6.51887"><ele>675.6</ele><time>2016-11-01T10:21:20Z</time></trkpt>
<trkpt lat="46.79128" lon="6.51883"><ele>676</ele><time>2016-11-01T10:21:22Z</time></trkpt>
<trkpt lat="46.79137" lon="6.51874"><ele>677.2</ele><time>2016-11-01T10:21:28Z</time></trkpt>
<trkpt lat="46.7914" lon="6.51872"><ele>677.4</ele><time>2016-11-01T10:21:30Z</time></trkpt>
<trkpt lat="46.79147" lon="6.51866"><ele>678.2</ele><time>2016-11-01T10:21:34Z</time></trkpt>
<trkpt lat="46.79158" lon="6.51845"><ele>680</ele><time>2016-11-01T10:21:44Z</time></trkpt>
<trkpt lat="46.79166" lon="6.51832"><ele>681.2</ele><time>2016-11-01T10:21:50Z</time></trkpt>
<trkpt lat="46.7918" lon="6.51811"><ele>682.2</ele><time>2016-11-01T10:21:59Z</time></trkpt>
<trkpt lat="46.79192" lon="6.51793"><ele>683.2</ele><time>2016-11-01T10:22:07Z</time></trkpt>
<trkpt lat="46.79206" lon="6.51772"><ele>684</ele><time>2016-11-01T10:22:16Z</time></trkpt>
<trkpt lat="46.79217" lon="6.51749"><ele>684.4</ele><time>2016-11-01T10:22:25Z</time></trkpt>
<trkpt lat="46.79217" lon="6.51721"><ele>685.2</ele><time>2016-11-01T10:22:34Z</time></trkpt>
<trkpt lat="46.79213" lon="6.51711"><ele>688</ele><time>2016-11-01T10:22:38Z</time></trkpt>
<trkpt lat="46.79212" lon="6.51708"><ele>688.4</ele><time>2016-11-01T10:22:39Z</time></trkpt>
<trkpt lat="46.79202" lon="6.51685"><ele>691.6</ele><time>2016-11-01T10:22:48Z</time></trkpt>
<trkpt lat="46.792" lon="6.51679"><ele>691.8</ele><time>2016-11-01T10:22:50Z</time></trkpt>
<trkpt lat="46.7919" lon="6.51656"><ele>694</ele><time>2016-11-01T10:23:00Z</time></trkpt>
<trkpt lat="46.79184" lon="6.5164"><ele>696.8</ele><time>2016-11-01T10:23:07Z</time></trkpt>
<trkpt lat="46.79172" lon="6.51619"><ele>698.8</ele><time>2016-11-01T10:23:16Z</time></trkpt>
<trkpt lat="46.79161" lon="6.51598"><ele>699.2</ele><time>2016-11-01T10:23:25Z</time></trkpt>
<trkpt lat="46.79149" lon="6.51575"><ele>699.6</ele><time>2016-11-01T10:23:35Z</time></trkpt>
<trkpt lat="46.79137" lon="6.51552"><ele>700.6</ele><time>2016-11-01T10:23:45Z</time></trkpt>
<trkpt lat="46.79126" lon="6.5153"><ele>700.2</ele><time>2016-11-01T10:23:54Z</time></trkpt>
<trkpt lat="46.79122" lon="6.51524"><ele>700</ele><time>2016-11-01T10:23:57Z</time></trkpt>
<trkpt lat="46.79114" lon="6.51516"><ele>700.8</ele><time>2016-11-01T10:24:02Z</time></trkpt>
<trkpt lat="46.79092" lon="6.51497"><ele>704</ele><time>2016-11-01T10:24:16Z</time></trkpt>
<trkpt lat="46.79074" lon="6.51484"><ele>705.6</ele><time>2016-11-01T10:24:25Z</time></trkpt>
<trkpt lat="46.79065" lon="6.51472"><ele>706</ele><time>2016-11-01T10:24:32Z</time></trkpt>
<trkpt lat="46.79055" lon="6.51457"><ele>706.4</ele><time>2016-11-01T10:24:39Z</time></trkpt>
<trkpt lat="46.79052" lon="6.51453"><ele>705.8</ele><time>2016-11-01T10:24:41Z</time></trkpt>
<trkpt lat="46.79043" lon="6.51443"><ele>705.8</ele><time>2016-11-01T10:24:47Z</time></trkpt>
<trkpt lat="46.79035" lon="6.51433"><ele>706.4</ele><time>2016-11-01T10:24:53Z</time></trkpt>
<trkpt lat="46.7902" lon="6.51414"><ele>707</ele><time>2016-11-01T10:25:04Z</time></trkpt>
<trkpt lat="46.79004" lon="6.51398"><ele>708</ele><time>2016-11-01T10:25:14Z</time></trkpt>
<trkpt lat="46.78988" lon="6.51384"><ele>710.2</ele><time>2016-11-01T10:25:24Z</time></trkpt>
<trkpt lat="46.78965" lon="6.51363"><ele>712.8</ele><time>2016-11-01T10:25:39Z</time></trkpt>
<trkpt lat="46.78956" lon="6.51353"><ele>713.8</ele><time>2016-11-01T10:25:45Z</time></trkpt>
<trkpt lat="46.78941" lon="6.51337"><ele>714.8</ele><time>2016-11-01T10:25:55Z</time></trkpt>
<trkpt lat="46.78927" lon="6.51322"><ele>717.2</ele><time>2016-11-01T10:26:05Z</time></trkpt>
<trkpt lat="46.78911" lon="6.51307"><ele>719</ele><time>2016-11-01T10:26:15Z</time></trkpt>
<trkpt lat="46.78895" lon="6.5129"><ele>721.6</ele><time>2016-11-01T10:26:26Z</time></trkpt>
<trkpt lat="46.78879" lon="6.51275"><ele>722.4</ele><time>2016-11-01T10:26:36Z</time></trkpt>
<trkpt lat="46.78863" lon="6.5126"><ele>724.8</ele><time>2016-11-01T10:26:46Z</time></trkpt>
<trkpt lat="46.7884" lon="6.51241"><ele>728.4</ele><time>2016-11-01T10:27:00Z</time></trkpt>
<trkpt lat="46.78824" lon="6.51227"><ele>730.4</ele><time>2016-11-01T10:27:10Z</time></trkpt>
<trkpt lat="46.78815" lon="6.51216"><ele>731.4</ele><time>2016-11-01T10:27:16Z</time></trkpt>
<trkpt lat="46.78802" lon="6.51201"><ele>732.2</ele><time>2016-11-01T10:27:25Z</time></trkpt>
<trkpt lat="46.78786" lon="6.51183"><ele>733.4</ele><time>2016-11-01T10:27:35Z</time></trkpt>
<trkpt lat="46.78775" lon="6.51171"><ele>733.6</ele><time>2016-11-01T10:27:42Z</time></trkpt>
<trkpt lat="46.7876" lon="6.51153"><ele>735.4</ele><time>2016-11-01T10:27:52Z</time></trkpt>
<trkpt lat="46.78739" lon="6.51128"><ele>739.2</ele><time>2016-11-01T10:28:06Z</time></trkpt>
<trkpt lat="46.78725" lon="6.5111"><ele>741.8</ele><time>2016-11-01T10:28:16Z</time></trkpt>
<trkpt lat="46.78713" lon="6.51089"><ele>743.6</ele><time>2016-11-01T10:28:26Z</time></trkpt>
<trkpt lat="46.78702" lon="6.51066"><ele>746.2</ele><time>2016-11-01T10:28:36Z</time></trkpt>
<trkpt lat="46.78697" lon="6.51039"><ele>749.6</ele><time>2016-11-01T10:28:46Z</time></trkpt>
<trkpt lat="46.78685" lon="6.51017"><ele>753.2</ele><time>2016-11-01T10:28:56Z</time></trkpt>
<trkpt lat="46.78674" lon="6.50995"><ele>755.4</ele><time>2016-11-01T10:29:06Z</time></trkpt>
<trkpt lat="46.7867" lon="6.50986"><ele>756</ele><time>2016-11-01T10:29:10Z</time></trkpt>
<trkpt lat="46.78666" lon="6.50979"><ele>756.6</ele><time>2016-11-01T10:29:13Z</time></trkpt>
<trkpt lat="46.78655" lon="6.50957"><ele>757.2</ele><time>2016-11-01T10:29:21Z</time></trkpt>
<trkpt lat="46.78645" lon="6.50934"><ele>758.6</ele><time>2016-11-01T10:29:29Z</time></trkpt>
<trkpt lat="46.78634" lon="6.50912"><ele>759.8</ele><time>2016-11-01T10:29:37Z</time></trkpt>
<trkpt lat="46.7862" lon="6.50894"><ele>760.6</ele><time>2016-11-01T10:29:45Z</time></trkpt>
<trkpt lat="46.78609" lon="6.50879"><ele>761.2</ele><time>2016-11-01T10:29:51Z</time></trkpt>
<trkpt lat="46.78598" lon="6.50864"><ele>762</ele><time>2016-11-01T10:29:57Z</time></trkpt>
<trkpt lat="46.78582" lon="6.50845"><ele>762.2</ele><time>2016-11-01T10:30:05Z</time></trkpt>
<trkpt lat="46.78576" lon="6.50834"><ele>762.4</ele><time>2016-11-01T10:30:09Z</time></trkpt>
<trkpt lat="46.78571" lon="6.5082"><ele>762.8</ele><time>2016-11-01T10:30:14Z</time></trkpt>
<trkpt lat="46.78566" lon="6.50811"><ele>763.2</ele><time>2016-11-01T10:30:18Z</time></trkpt>
<trkpt lat="46.78555" lon="6.50801"><ele>764.6</ele><time>2016-11-01T10:30:27Z</time></trkpt>
<trkpt lat="46.78551" lon="6.50798"><ele>765.2</ele><time>2016-11-01T10:30:30Z</time></trkpt>
<trkpt lat="46.7854" lon="6.50795"><ele>767.4</ele><time>2016-11-01T10:30:37Z</time></trkpt>
<trkpt lat="46.78525" lon="6.50781"><ele>772.8</ele><time>2016-11-01T10:30:50Z</time></trkpt>
<trkpt lat="46.7851" lon="6.50765"><ele>777.4</ele><time>2016-11-01T10:31:02Z</time></trkpt>
<trkpt lat="46.78496" lon="6.50747"><ele>780.6</ele><time>2016-11-01T10:31:14Z</time></trkpt>
<trkpt lat="46.78484" lon="6.50727"><ele>784</ele><time>2016-11-01T10:31:24Z</time></trkpt>
<trkpt lat="46.78478" lon="6.50713"><ele>786.8</ele><time>2016-11-01T10:31:30Z</time></trkpt>
<trkpt lat="46.78461" lon="6.50682"><ele>785.8</ele><time>2016-11-01T10:31:42Z</time></trkpt>
<trkpt lat="46.78451" lon="6.50666"><ele>784.6</ele><time>2016-11-01T10:31:49Z</time></trkpt>
<trkpt lat="46.78441" lon="6.5065"><ele>784.8</ele><time>2016-11-01T10:31:56Z</time></trkpt>
<trkpt lat="46.78431" lon="6.50627"><ele>785.4</ele><time>2016-11-01T10:32:05Z</time></trkpt>
<trkpt lat="46.78426" lon="6.50601"><ele>787.8</ele><time>2016-11-01T10:32:14Z</time></trkpt>
<trkpt lat="46.78425" lon="6.50573"><ele>789.2</ele><time>2016-11-01T10:32:24Z</time></trkpt>
<trkpt lat="46.78423" lon="6.50547"><ele>790.6</ele><time>2016-11-01T10:32:33Z</time></trkpt>
<trkpt lat="46.78418" lon="6.50519"><ele>794</ele><time>2016-11-01T10:32:43Z</time></trkpt>
<trkpt lat="46.78407" lon="6.50486"><ele>801.4</ele><time>2016-11-01T10:32:56Z</time></trkpt>
<trkpt lat="46.78398" lon="6.50463"><ele>806</ele><time>2016-11-01T10:33:05Z</time></trkpt>
<trkpt lat="46.78387" lon="6.50441"><ele>809.4</ele><time>2016-11-01T10:33:14Z</time></trkpt>
<trkpt lat="46.78378" lon="6.50417"><ele>812.6</ele><time>2016-11-01T10:33:23Z</time></trkpt>
<trkpt lat="46.78368" lon="6.50393"><ele>815</ele><time>2016-11-01T10:33:33Z</time></trkpt>
<trkpt lat="46.7836" lon="6.50383"><ele>818</ele><time>2016-11-01T10:33:39Z</time></trkpt>
<trkpt lat="46.7834" lon="6.50376"><ele>823.8</ele><time>2016-11-01T10:33:50Z</time></trkpt>
<trkpt lat="46.78322" lon="6.50365"><ele>822</ele><time>2016-11-01T10:33:58Z</time></trkpt>
<trkpt lat="46.78311" lon="6.50351"><ele>822.2</ele><time>2016-11-01T10:34:05Z</time></trkpt>
<trkpt lat="46.78306" lon="6.50343"><ele>823</ele><time>2016-11-01T10:34:09Z</time></trkpt>
<trkpt lat="46.78296" lon="6.50319"><ele>822</ele><time>2016-11-01T10:34:20Z</time></trkpt>
<trkpt lat="46.78285" lon="6.50298"><ele>819.6</ele><time>2016-11-01T10:34:29Z</time></trkpt>
<trkpt lat="46.78272" lon="6.50278"><ele>818.8</ele><time>2016-11-01T10:34:40Z</time></trkpt>
<trkpt lat="46.78262" lon="6.50263"><ele>819.6</ele><time>2016-11-01T10:34:48Z</time></trkpt>
<trkpt lat="46.7825" lon="6.50244"><ele>819.8</ele><time>2016-11-01T10:34:58Z</time></trkpt>
<trkpt lat="46.78235" lon="6.50225"><ele>820.2</ele><time>2016-11-01T10:35:09Z</time></trkpt>
<trkpt lat="46.78217" lon="6.50196"><ele>822.2</ele><time>2016-11-01T10:35:25Z</time></trkpt>
<trkpt lat="46.78207" lon="6.50181"><ele>823.6</ele><time>2016-11-01T10:35:33Z</time></trkpt>
<trkpt lat="46.78192" lon="6.50165"><ele>825.8</ele><time>2016-11-01T10:35:44Z</time></trkpt>
<trkpt lat="46.78176" lon="6.50151"><ele>828.6</ele><time>2016-11-01T10:35:55Z</time></trkpt>
<trkpt lat="46.7816" lon="6.50137"><ele>831.8</ele><time>2016-11-01T10:36:06Z</time></trkpt>
<trkpt lat="46.78145" lon="6.5012"><ele>834.8</ele><time>2016-11-01T10:36:17Z</time></trkpt>
<trkpt lat="46.78128" lon="6.50104"><ele>837</ele><time>2016-11-01T10:36:28Z</time></trkpt>
<trkpt lat="46.78113" lon="6.50089"><ele>839</ele><time>2016-11-01T10:36:39Z</time></trkpt>
<trkpt lat="46.78097" lon="6.50077"><ele>840.8</ele><time>2016-11-01T10:36:51Z</time></trkpt>
<trkpt lat="46.7809" lon="6.50071"><ele>842</ele><time>2016-11-01T10:36:56Z</time></trkpt>
<trkpt lat="46.78074" lon="6.50056"><ele>843.6</ele><time>2016-11-01T10:37:07Z</time></trkpt>
<trkpt lat="46.78061" lon="6.50037"><ele>844.2</ele><time>2016-11-01T10:37:18Z</time></trkpt>
<trkpt lat="46.78053" lon="6.50024"><ele>844.8</ele><time>2016-11-01T10:37:25Z</time></trkpt>
<trkpt lat="46.78045" lon="6.50011"><ele>845.8</ele><time>2016-11-01T10:37:32Z</time></trkpt>
<trkpt lat="46.78031" lon="6.49993"><ele>848</ele><time>2016-11-01T10:37:43Z</time></trkpt>
<trkpt lat="46.78016" lon="6.49978"><ele>850.2</ele><time>2016-11-01T10:37:54Z</time></trkpt>
<trkpt lat="46.77999" lon="6.49967"><ele>853.8</ele><time>2016-11-01T10:38:06Z</time></trkpt>
<trkpt lat="46.77982" lon="6.49957"><ele>857.2</ele><time>2016-11-01T10:38:17Z</time></trkpt>
<trkpt lat="46.77964" lon="6.49947"><ele>860</ele><time>2016-11-01T10:38:28Z</time></trkpt>
<trkpt lat="46.77952" lon="6.49925"><ele>864</ele><time>2016-11-01T10:38:40Z</time></trkpt>
<trkpt lat="46.7795" lon="6.49916"><ele>865.6</ele><time>2016-11-01T10:38:44Z</time></trkpt>
<trkpt lat="46.77942" lon="6.49893"><ele>867.4</ele><time>2016-11-01T10:38:55Z</time></trkpt>
<trkpt lat="46.77928" lon="6.49876"><ele>870.6</ele><time>2016-11-01T10:39:10Z</time></trkpt>
<trkpt lat="46.77921" lon="6.49868"><ele>870.8</ele><time>2016-11-01T10:39:16Z</time></trkpt>
<trkpt lat="46.77906" lon="6.49851"><ele>870.4</ele><time>2016-11-01T10:39:27Z</time></trkpt>
<trkpt lat="46.77896" lon="6.49838"><ele>870.2</ele><time>2016-11-01T10:39:34Z</time></trkpt>
<trkpt lat="46.77878" lon="6.4981"><ele>872</ele><time>2016-11-01T10:39:49Z</time></trkpt>
<trkpt lat="46.77865" lon="6.49789"><ele>872.2</ele><time>2016-11-01T10:40:00Z</time></trkpt>
<trkpt lat="46.77848" lon="6.49779"><ele>874</ele><time>2016-11-01T10:40:11Z</time></trkpt>
<trkpt lat="46.77831" lon="6.49764"><ele>875.8</ele><time>2016-11-01T10:40:22Z</time></trkpt>
<trkpt lat="46.77819" lon="6.49751"><ele>876.4</ele><time>2016-11-01T10:40:31Z</time></trkpt>
<trkpt lat="46.77817" lon="6.49747"><ele>876.6</ele><time>2016-11-01T10:40:33Z</time></trkpt>
<trkpt lat="46.77815" lon="6.49743"><ele>877</ele><time>2016-11-01T10:40:40Z</time></trkpt>
<trkpt lat="46.77815" lon="6.49743"><ele>876.8</ele><time>2016-11-01T10:40:50Z</time></trkpt>
<trkpt lat="46.77816" lon="6.4974"><ele>876.6</ele><time>2016-11-01T10:41:02Z</time></trkpt>
<trkpt lat="46.77817" lon="6.49741"><ele>876</ele><time>2016-11-01T10:41:26Z</time></trkpt>
<trkpt lat="46.77818" lon="6.49743"><ele>876.2</ele><time>2016-11-01T10:41:52Z</time></trkpt>
<trkpt lat="46.77813" lon="6.49747"><ele>876.2</ele><time>2016-11-01T10:42:09Z</time></trkpt>
<trkpt lat="46.77816" lon="6.49743"><ele>876</ele><time>2016-11-01T10:42:34Z</time></trkpt>
<trkpt lat="46.77817" lon="6.49742"><ele>875.8</ele><time>2016-11-01T10:42:39Z</time></trkpt>
<trkpt lat="46.77812" lon="6.49744"><ele>875</ele><time>2016-11-01T10:43:02Z</time></trkpt>
<trkpt lat="46.77817" lon="6.49742"><ele>874.6</ele><time>2016-11-01T10:43:15Z</time></trkpt>
<trkpt lat="46.77817" lon="6.49743"><ele>875</ele><time>2016-11-01T10:43:44Z</time></trkpt>
<trkpt lat="46.77817" lon="6.49742"><ele>874.8</ele><time>2016-11-01T10:43:59Z</time></trkpt>
<trkpt lat="46.77817" lon="6.49742"><ele>874.8</ele><time>2016-11-01T10:44:00Z</time></trkpt>
<trkpt lat="46.77817" lon="6.49741"><ele>874.8</ele><time>2016-11-01T10:44:01Z</time></trkpt>
<trkpt lat="46.77817" lon="6.49742"><ele>874.8</ele><time>2016-11-01T10:44:05Z</time></trkpt>
<trkpt lat="46.77817" lon="6.49741"><ele>874.8</ele><time>2016-11-01T10:44:07Z</time></trkpt>
<trkpt lat="46.77817" lon="6.49741"><ele>874.8</ele><time>2016-11-01T10:44:09Z</time></trkpt>
<trkpt lat="46.77817" lon="6.49741"><ele>874.8</ele><time>2016-11-01T10:44:11Z</time></trkpt>
<trkpt lat="46.77817" lon="6.49742"><ele>875.6</ele><time>2016-11-01T10:44:27Z</time></trkpt>
<trkpt lat="46.77817" lon="6.49742"><ele>875.6</ele><time>2016-11-01T10:44:33Z</time></trkpt>
<trkpt lat="46.77818" lon="6.49742"><ele>875.6</ele><time>2016-11-01T10:44:39Z</time></trkpt>
<trkpt lat="46.77818" lon="6.49743"><ele>875.6</ele><time>2016-11-01T10:44:46Z</time></trkpt>
<trkpt lat="46.77818" lon="6.49743"><ele>875.6</ele><time>2016-11-01T10:44:50Z</time></trkpt>
<trkpt lat="46.77818" lon="6.49741"><ele>876.4</ele><time>2016-11-01T10:45:06Z</time></trkpt>
<trkpt lat="46.77819" lon="6.49741"><ele>876.2</ele><time>2016-11-01T10:45:16Z</time></trkpt>
<trkpt lat="46.77819" lon="6.49742"><ele>876.2</ele><time>2016-11-01T10:45:22Z</time></trkpt>
<trkpt lat="46.77818" lon="6.49743"><ele>876</ele><time>2016-11-01T10:45:32Z</time></trkpt>
<trkpt lat="46.77818" lon="6.49743"><ele>875.8</ele><time>2016-11-01T10:45:48Z</time></trkpt>
<trkpt lat="46.77817" lon="6.49743"><ele>876</ele><time>2016-11-01T10:46:10Z</time></trkpt>
<trkpt lat="46.77816" lon="6.49744"><ele>876</ele><time>2016-11-01T10:46:13Z</time></trkpt>
<trkpt lat="46.77817" lon="6.49745"><ele>876</ele><time>2016-11-01T10:46:15Z</time></trkpt>
<trkpt lat="46.77816" lon="6.49745"><ele>875.6</ele><time>2016-11-01T10:46:29Z</time></trkpt>
<trkpt lat="46.77813" lon="6.49743"><ele>875.4</ele><time>2016-11-01T10:46:33Z</time></trkpt>
<trkpt lat="46.77809" lon="6.4974"><ele>875.2</ele><time>2016-11-01T10:46:36Z</time></trkpt>
<trkpt lat="46.77806" lon="6.49731"><ele>875.2</ele><time>2016-11-01T10:46:40Z</time></trkpt>
<trkpt lat="46.77805" lon="6.49727"><ele>875.4</ele><time>2016-11-01T10:46:42Z</time></trkpt>
<trkpt lat="46.77799" lon="6.49716"><ele>876.8</ele><time>2016-11-01T10:46:48Z</time></trkpt>
<trkpt lat="46.77797" lon="6.49712"><ele>877.2</ele><time>2016-11-01T10:46:50Z</time></trkpt>
<trkpt lat="46.77793" lon="6.49705"><ele>878.2</ele><time>2016-11-01T10:46:54Z</time></trkpt>
<trkpt lat="46.77792" lon="6.49703"><ele>878.6</ele><time>2016-11-01T10:46:55Z</time></trkpt>
<trkpt lat="46.77788" lon="6.49697"><ele>879.2</ele><time>2016-11-01T10:46:58Z</time></trkpt>
<trkpt lat="46.77779" lon="6.49685"><ele>880.2</ele><time>2016-11-01T10:47:05Z</time></trkpt>
<trkpt lat="46.77778" lon="6.49683"><ele>880.4</ele><time>2016-11-01T10:47:06Z</time></trkpt>
<trkpt lat="46.77776" lon="6.49679"><ele>880.8</ele><time>2016-11-01T10:47:08Z</time></trkpt>
<trkpt lat="46.77771" lon="6.49673"><ele>881.4</ele><time>2016-11-01T10:47:12Z</time></trkpt>
<trkpt lat="46.77767" lon="6.49666"><ele>881.8</ele><time>2016-11-01T10:47:16Z</time></trkpt>
<trkpt lat="46.77764" lon="6.49662"><ele>882.2</ele><time>2016-11-01T10:47:18Z</time></trkpt>
<trkpt lat="46.77753" lon="6.49639"><ele>883.8</ele><time>2016-11-01T10:47:29Z</time></trkpt>
<trkpt lat="46.77751" lon="6.49636"><ele>884</ele><time>2016-11-01T10:47:31Z</time></trkpt>
<trkpt lat="46.77748" lon="6.49632"><ele>884.2</ele><time>2016-11-01T10:47:33Z</time></trkpt>
<trkpt lat="46.77747" lon="6.4963"><ele>884.4</ele><time>2016-11-01T10:47:34Z</time></trkpt>
<trkpt lat="46.77738" lon="6.49607"><ele>886.8</ele><time>2016-11-01T10:47:46Z</time></trkpt>
<trkpt lat="46.77731" lon="6.49584"><ele>888.8</ele><time>2016-11-01T10:47:57Z</time></trkpt>
<trkpt lat="46.77726" lon="6.49552"><ele>891.2</ele><time>2016-11-01T10:48:11Z</time></trkpt>
<trkpt lat="46.7772" lon="6.49526"><ele>893.4</ele><time>2016-11-01T10:48:23Z</time></trkpt>
<trkpt lat="46.77715" lon="6.49501"><ele>895.2</ele><time>2016-11-01T10:48:34Z</time></trkpt>
<trkpt lat="46.77709" lon="6.49474"><ele>898.4</ele><time>2016-11-01T10:48:46Z</time></trkpt>
<trkpt lat="46.77703" lon="6.49447"><ele>902.4</ele><time>2016-11-01T10:48:58Z</time></trkpt>
<trkpt lat="46.77703" lon="6.49444"><ele>902.8</ele><time>2016-11-01T10:48:59Z</time></trkpt>
<trkpt lat="46.77702" lon="6.49442"><ele>903.2</ele><time>2016-11-01T10:49:00Z</time></trkpt>
<trkpt lat="46.77699" lon="6.49427"><ele>905</ele><time>2016-11-01T10:49:07Z</time></trkpt>
<trkpt lat="46.77691" lon="6.49411"><ele>908</ele><time>2016-11-01T10:49:16Z</time></trkpt>
<trkpt lat="46.77682" lon="6.49388"><ele>912.2</ele><time>2016-11-01T10:49:27Z</time></trkpt>
<trkpt lat="46.77675" lon="6.49362"><ele>916</ele><time>2016-11-01T10:49:38Z</time></trkpt>
<trkpt lat="46.7767" lon="6.49341"><ele>918.2</ele><time>2016-11-01T10:49:47Z</time></trkpt>
<trkpt lat="46.77663" lon="6.49316"><ele>921.2</ele><time>2016-11-01T10:49:58Z</time></trkpt>
<trkpt lat="46.77656" lon="6.49291"><ele>925</ele><time>2016-11-01T10:50:09Z</time></trkpt>
<trkpt lat="46.77646" lon="6.49267"><ele>928.2</ele><time>2016-11-01T10:50:20Z</time></trkpt>
<trkpt lat="46.77644" lon="6.49259"><ele>928.4</ele><time>2016-11-01T10:50:23Z</time></trkpt>
<trkpt lat="46.77638" lon="6.49232"><ele>929</ele><time>2016-11-01T10:50:34Z</time></trkpt>
<trkpt lat="46.77629" lon="6.49209"><ele>930.2</ele><time>2016-11-01T10:50:45Z</time></trkpt>
<trkpt lat="46.7762" lon="6.49186"><ele>931.8</ele><time>2016-11-01T10:50:56Z</time></trkpt>
<trkpt lat="46.77609" lon="6.49165"><ele>933.4</ele><time>2016-11-01T10:51:07Z</time></trkpt>
<trkpt lat="46.77594" lon="6.49148"><ele>936.8</ele><time>2016-11-01T10:51:19Z</time></trkpt>
<trkpt lat="46.77578" lon="6.49134"><ele>939.4</ele><time>2016-11-01T10:51:29Z</time></trkpt>
<trkpt lat="46.77565" lon="6.49114"><ele>941.6</ele><time>2016-11-01T10:51:39Z</time></trkpt>
<trkpt lat="46.77555" lon="6.49091"><ele>943.4</ele><time>2016-11-01T10:51:50Z</time></trkpt>
<trkpt lat="46.77536" lon="6.49063"><ele>944.2</ele><time>2016-11-01T10:52:04Z</time></trkpt>
<trkpt lat="46.77533" lon="6.49059"><ele>944.6</ele><time>2016-11-01T10:52:06Z</time></trkpt>
<trkpt lat="46.77529" lon="6.4905"><ele>944.4</ele><time>2016-11-01T10:52:10Z</time></trkpt>
<trkpt lat="46.77517" lon="6.49029"><ele>943.4</ele><time>2016-11-01T10:52:20Z</time></trkpt>
<trkpt lat="46.77505" lon="6.49006"><ele>944.2</ele><time>2016-11-01T10:52:31Z</time></trkpt>
<trkpt lat="46.77493" lon="6.48984"><ele>944.6</ele><time>2016-11-01T10:52:42Z</time></trkpt>
<trkpt lat="46.77485" lon="6.48973"><ele>945.6</ele><time>2016-11-01T10:52:48Z</time></trkpt>
<trkpt lat="46.77471" lon="6.48955"><ele>948.2</ele><time>2016-11-01T10:52:59Z</time></trkpt>
<trkpt lat="46.77459" lon="6.48938"><ele>949.6</ele><time>2016-11-01T10:53:09Z</time></trkpt>
<trkpt lat="46.77453" lon="6.48928"><ele>950.2</ele><time>2016-11-01T10:53:14Z</time></trkpt>
<trkpt lat="46.7744" lon="6.4891"><ele>950.6</ele><time>2016-11-01T10:53:23Z</time></trkpt>
<trkpt lat="46.77428" lon="6.48888"><ele>949.8</ele><time>2016-11-01T10:53:34Z</time></trkpt>
<trkpt lat="46.77418" lon="6.48869"><ele>950.6</ele><time>2016-11-01T10:53:43Z</time></trkpt>
<trkpt lat="46.77412" lon="6.48863"><ele>951.6</ele><time>2016-11-01T10:53:48Z</time></trkpt>
<trkpt lat="46.77407" lon="6.48851"><ele>953.4</ele><time>2016-11-01T10:53:56Z</time></trkpt>
<trkpt lat="46.77402" lon="6.48839"><ele>954.6</ele><time>2016-11-01T10:54:05Z</time></trkpt>
<trkpt lat="46.77393" lon="6.48816"><ele>956</ele><time>2016-11-01T10:54:20Z</time></trkpt>
<trkpt lat="46.77388" lon="6.4881"><ele>956.8</ele><time>2016-11-01T10:54:25Z</time></trkpt>
<trkpt lat="46.77384" lon="6.48795"><ele>957.8</ele><time>2016-11-01T10:54:35Z</time></trkpt>
<trkpt lat="46.77383" lon="6.4879"><ele>958.4</ele><time>2016-11-01T10:54:39Z</time></trkpt>
<trkpt lat="46.77381" lon="6.48783"><ele>958.8</ele><time>2016-11-01T10:54:43Z</time></trkpt>
<trkpt lat="46.77378" lon="6.48776"><ele>959.6</ele><time>2016-11-01T10:54:49Z</time></trkpt>
<trkpt lat="46.77377" lon="6.48775"><ele>959.8</ele><time>2016-11-01T10:54:50Z</time></trkpt>
<trkpt lat="46.77373" lon="6.48764"><ele>961.2</ele><time>2016-11-01T10:54:59Z</time></trkpt>
<trkpt lat="46.77361" lon="6.48744"><ele>964.8</ele><time>2016-11-01T10:55:19Z</time></trkpt>
<trkpt lat="46.77355" lon="6.48735"><ele>967.4</ele><time>2016-11-01T10:55:28Z</time></trkpt>
<trkpt lat="46.77342" lon="6.48716"><ele>971.4</ele><time>2016-11-01T10:55:48Z</time></trkpt>
<trkpt lat="46.7734" lon="6.48707"><ele>972.6</ele><time>2016-11-01T10:55:54Z</time></trkpt>
<trkpt lat="46.77331" lon="6.48683"><ele>976.4</ele><time>2016-11-01T10:56:10Z</time></trkpt>
<trkpt lat="46.77326" lon="6.48664"><ele>981.6</ele><time>2016-11-01T10:56:29Z</time></trkpt>
<trkpt lat="46.77318" lon="6.4866"><ele>985.6</ele><time>2016-11-01T10:57:16Z</time></trkpt>
<trkpt lat="46.77318" lon="6.4866"><ele>985.8</ele><time>2016-11-01T10:57:19Z</time></trkpt>
<trkpt lat="46.77318" lon="6.4866"><ele>985.8</ele><time>2016-11-01T10:57:21Z</time></trkpt>
<trkpt lat="46.77318" lon="6.48662"><ele>985.8</ele><time>2016-11-01T10:57:24Z</time></trkpt>
<trkpt lat="46.77314" lon="6.48652"><ele>986.2</ele><time>2016-11-01T10:57:38Z</time></trkpt>
<trkpt lat="46.77303" lon="6.4863"><ele>986.8</ele><time>2016-11-01T10:57:53Z</time></trkpt>
<trkpt lat="46.77297" lon="6.4862"><ele>987.2</ele><time>2016-11-01T10:58:01Z</time></trkpt>
<trkpt lat="46.77295" lon="6.48616"><ele>987.2</ele><time>2016-11-01T10:58:04Z</time></trkpt>
<trkpt lat="46.77291" lon="6.48608"><ele>987.2</ele><time>2016-11-01T10:58:09Z</time></trkpt>
<trkpt lat="46.77288" lon="6.48604"><ele>987.2</ele><time>2016-11-01T10:58:13Z</time></trkpt>
<trkpt lat="46.77283" lon="6.486"><ele>987.4</ele><time>2016-11-01T10:58:19Z</time></trkpt>
<trkpt lat="46.77271" lon="6.48591"><ele>989</ele><time>2016-11-01T10:58:31Z</time></trkpt>
<trkpt lat="46.77258" lon="6.48583"><ele>990.4</ele><time>2016-11-01T10:58:44Z</time></trkpt>
<trkpt lat="46.77244" lon="6.48566"><ele>991.4</ele><time>2016-11-01T10:58:59Z</time></trkpt>
<trkpt lat="46.77233" lon="6.48556"><ele>993.2</ele><time>2016-11-01T10:59:09Z</time></trkpt>
<trkpt lat="46.77215" lon="6.48547"><ele>996.4</ele><time>2016-11-01T10:59:24Z</time></trkpt>
<trkpt lat="46.77198" lon="6.4852"><ele>1000.6</ele><time>2016-11-01T10:59:40Z</time></trkpt>
<trkpt lat="46.77186" lon="6.48517"><ele>1002.4</ele><time>2016-11-01T10:59:47Z</time></trkpt>
<trkpt lat="46.77167" lon="6.4852"><ele>1005.4</ele><time>2016-11-01T10:59:58Z</time></trkpt>
<trkpt lat="46.77149" lon="6.48519"><ele>1009.2</ele><time>2016-11-01T11:00:10Z</time></trkpt>
<trkpt lat="46.7713" lon="6.48514"><ele>1012.2</ele><time>2016-11-01T11:00:21Z</time></trkpt>
<trkpt lat="46.77105" lon="6.48505"><ele>1017.4</ele><time>2016-11-01T11:00:35Z</time></trkpt>
<trkpt lat="46.77085" lon="6.48498"><ele>1021.4</ele><time>2016-11-01T11:00:45Z</time></trkpt>
<trkpt lat="46.77068" lon="6.48488"><ele>1023.8</ele><time>2016-11-01T11:00:55Z</time></trkpt>
<trkpt lat="46.7705" lon="6.48478"><ele>1027.4</ele><time>2016-11-01T11:01:05Z</time></trkpt>
<trkpt lat="46.77033" lon="6.48464"><ele>1030</ele><time>2016-11-01T11:01:16Z</time></trkpt>
<trkpt lat="46.77016" lon="6.48452"><ele>1031.6</ele><time>2016-11-01T11:01:27Z</time></trkpt>
<trkpt lat="46.76999" lon="6.4844"><ele>1033.4</ele><time>2016-11-01T11:01:38Z</time></trkpt>
<trkpt lat="46.76982" lon="6.48434"><ele>1036.4</ele><time>2016-11-01T11:01:49Z</time></trkpt>
<trkpt lat="46.7696" lon="6.48428"><ele>1039.6</ele><time>2016-11-01T11:02:02Z</time></trkpt>
<trkpt lat="46.76941" lon="6.48423"><ele>1042.6</ele><time>2016-11-01T11:02:13Z</time></trkpt>
<trkpt lat="46.76925" lon="6.48412"><ele>1045.2</ele><time>2016-11-01T11:02:24Z</time></trkpt>
<trkpt lat="46.76915" lon="6.48401"><ele>1048.2</ele><time>2016-11-01T11:02:33Z</time></trkpt>
<trkpt lat="46.76906" lon="6.48395"><ele>1050.4</ele><time>2016-11-01T11:02:39Z</time></trkpt>
<trkpt lat="46.76891" lon="6.48381"><ele>1053.6</ele><time>2016-11-01T11:02:49Z</time></trkpt>
<trkpt lat="46.76871" lon="6.48357"><ele>1054.4</ele><time>2016-11-01T11:03:03Z</time></trkpt>
<trkpt lat="46.76858" lon="6.48337"><ele>1054</ele><time>2016-11-01T11:03:14Z</time></trkpt>
<trkpt lat="46.76851" lon="6.48323"><ele>1054</ele><time>2016-11-01T11:03:21Z</time></trkpt>
<trkpt lat="46.7684" lon="6.483"><ele>1055</ele><time>2016-11-01T11:03:32Z</time></trkpt>
<trkpt lat="46.7683" lon="6.48278"><ele>1057.2</ele><time>2016-11-01T11:03:42Z</time></trkpt>
<trkpt lat="46.7682" lon="6.48254"><ele>1061</ele><time>2016-11-01T11:03:53Z</time></trkpt>
<trkpt lat="46.76811" lon="6.4823"><ele>1063.4</ele><time>2016-11-01T11:04:04Z</time></trkpt>
<trkpt lat="46.76796" lon="6.48199"><ele>1066.2</ele><time>2016-11-01T11:04:19Z</time></trkpt>
<trkpt lat="46.76784" lon="6.48177"><ele>1067</ele><time>2016-11-01T11:04:30Z</time></trkpt>
<trkpt lat="46.76772" lon="6.48155"><ele>1069.2</ele><time>2016-11-01T11:04:42Z</time></trkpt>
<trkpt lat="46.76759" lon="6.48135"><ele>1071.6</ele><time>2016-11-01T11:04:54Z</time></trkpt>
<trkpt lat="46.76754" lon="6.48128"><ele>1072.4</ele><time>2016-11-01T11:04:58Z</time></trkpt>
<trkpt lat="46.76749" lon="6.48122"><ele>1073.6</ele><time>2016-11-01T11:05:04Z</time></trkpt>
<trkpt lat="46.7674" lon="6.48117"><ele>1074.2</ele><time>2016-11-01T11:05:11Z</time></trkpt>
<trkpt lat="46.76723" lon="6.48105"><ele>1077.4</ele><time>2016-11-01T11:05:25Z</time></trkpt>
<trkpt lat="46.76705" lon="6.481"><ele>1080.6</ele><time>2016-11-01T11:05:39Z</time></trkpt>
<trkpt lat="46.76683" lon="6.48092"><ele>1081.6</ele><time>2016-11-01T11:05:55Z</time></trkpt>
<trkpt lat="46.76669" lon="6.48087"><ele>1083</ele><time>2016-11-01T11:06:04Z</time></trkpt>
<trkpt lat="46.76651" lon="6.48083"><ele>1086</ele><time>2016-11-01T11:06:17Z</time></trkpt>
<trkpt lat="46.76641" lon="6.48081"><ele>1087.8</ele><time>2016-11-01T11:06:24Z</time></trkpt>
<trkpt lat="46.76633" lon="6.48083"><ele>1088.8</ele><time>2016-11-01T11:06:30Z</time></trkpt>
<trkpt lat="46.76628" lon="6.48084"><ele>1089.4</ele><time>2016-11-01T11:06:34Z</time></trkpt>
<trkpt lat="46.76614" lon="6.48085"><ele>1090.8</ele><time>2016-11-01T11:06:44Z</time></trkpt>
<trkpt lat="46.76596" lon="6.48086"><ele>1091.8</ele><time>2016-11-01T11:06:57Z</time></trkpt>
<trkpt lat="46.76579" lon="6.48083"><ele>1091.4</ele><time>2016-11-01T11:07:10Z</time></trkpt>
<trkpt lat="46.76569" lon="6.48083"><ele>1091.4</ele><time>2016-11-01T11:07:16Z</time></trkpt>
<trkpt lat="46.76563" lon="6.48077"><ele>1091.6</ele><time>2016-11-01T11:07:21Z</time></trkpt>
<trkpt lat="46.7656" lon="6.48075"><ele>1091.4</ele><time>2016-11-01T11:07:25Z</time></trkpt>
<trkpt lat="46.7656" lon="6.48076"><ele>1090.4</ele><time>2016-11-01T11:07:38Z</time></trkpt>
<trkpt lat="46.7656" lon="6.48075"><ele>1089.4</ele><time>2016-11-01T11:07:45Z</time></trkpt>
<trkpt lat="46.76559" lon="6.48075"><ele>1089.8</ele><time>2016-11-01T11:07:50Z</time></trkpt>
<trkpt lat="46.76559" lon="6.48075"><ele>1090.2</ele><time>2016-11-01T11:07:53Z</time></trkpt>
<trkpt lat="46.76551" lon="6.48069"><ele>1091.8</ele><time>2016-11-01T11:08:03Z</time></trkpt>
<trkpt lat="46.76535" lon="6.48055"><ele>1093.6</ele><time>2016-11-01T11:08:16Z</time></trkpt>
<trkpt lat="46.76518" lon="6.48045"><ele>1095.4</ele><time>2016-11-01T11:08:28Z</time></trkpt>
<trkpt lat="46.76515" lon="6.48042"><ele>1096</ele><time>2016-11-01T11:08:31Z</time></trkpt>
<trkpt lat="46.76512" lon="6.48038"><ele>1096.4</ele><time>2016-11-01T11:08:34Z</time></trkpt>
<trkpt lat="46.7651" lon="6.48036"><ele>1096.8</ele><time>2016-11-01T11:08:36Z</time></trkpt>
<trkpt lat="46.76494" lon="6.48022"><ele>1098.8</ele><time>2016-11-01T11:08:47Z</time></trkpt>
<trkpt lat="46.76487" lon="6.48011"><ele>1100</ele><time>2016-11-01T11:08:53Z</time></trkpt>
<trkpt lat="46.76476" lon="6.47988"><ele>1101.2</ele><time>2016-11-01T11:09:05Z</time></trkpt>
<trkpt lat="46.76465" lon="6.47969"><ele>1103.4</ele><time>2016-11-01T11:09:15Z</time></trkpt>
<trkpt lat="46.76453" lon="6.47947"><ele>1106</ele><time>2016-11-01T11:09:27Z</time></trkpt>
<trkpt lat="46.76441" lon="6.47925"><ele>1108</ele><time>2016-11-01T11:09:39Z</time></trkpt>
<trkpt lat="46.76428" lon="6.47904"><ele>1110.4</ele><time>2016-11-01T11:09:51Z</time></trkpt>
<trkpt lat="46.76416" lon="6.47889"><ele>1113</ele><time>2016-11-01T11:10:01Z</time></trkpt>
<trkpt lat="46.76404" lon="6.4787"><ele>1115</ele><time>2016-11-01T11:10:12Z</time></trkpt>
<trkpt lat="46.7639" lon="6.47851"><ele>1117.2</ele><time>2016-11-01T11:10:23Z</time></trkpt>
<trkpt lat="46.76377" lon="6.47831"><ele>1120</ele><time>2016-11-01T11:10:34Z</time></trkpt>
<trkpt lat="46.76373" lon="6.47815"><ele>1121.2</ele><time>2016-11-01T11:10:41Z</time></trkpt>
<trkpt lat="46.76357" lon="6.47786"><ele>1125.6</ele><time>2016-11-01T11:10:57Z</time></trkpt>
<trkpt lat="46.76356" lon="6.47784"><ele>1125.8</ele><time>2016-11-01T11:10:58Z</time></trkpt>
<trkpt lat="46.76349" lon="6.47771"><ele>1128</ele><time>2016-11-01T11:11:05Z</time></trkpt>
<trkpt lat="46.76343" lon="6.4776"><ele>1130.2</ele><time>2016-11-01T11:11:11Z</time></trkpt>
<trkpt lat="46.76332" lon="6.47737"><ele>1133.8</ele><time>2016-11-01T11:11:23Z</time></trkpt>
<trkpt lat="46.76329" lon="6.4773"><ele>1134.6</ele><time>2016-11-01T11:11:26Z</time></trkpt>
<trkpt lat="46.76318" lon="6.47707"><ele>1137.8</ele><time>2016-11-01T11:11:37Z</time></trkpt>
<trkpt lat="46.7631" lon="6.47683"><ele>1139.8</ele><time>2016-11-01T11:11:48Z</time></trkpt>
<trkpt lat="46.76302" lon="6.47657"><ele>1143.2</ele><time>2016-11-01T11:12:01Z</time></trkpt>
<trkpt lat="46.7629" lon="6.47626"><ele>1145.8</ele><time>2016-11-01T11:12:16Z</time></trkpt>
<trkpt lat="46.76286" lon="6.47612"><ele>1146.4</ele><time>2016-11-01T11:12:22Z</time></trkpt>
<trkpt lat="46.7628" lon="6.47601"><ele>1147.4</ele><time>2016-11-01T11:12:27Z</time></trkpt>
<trkpt lat="46.76269" lon="6.47579"><ele>1148.6</ele><time>2016-11-01T11:12:38Z</time></trkpt>
<trkpt lat="46.76258" lon="6.47556"><ele>1149.2</ele><time>2016-11-01T11:12:50Z</time></trkpt>
<trkpt lat="46.76246" lon="6.47536"><ele>1150.2</ele><time>2016-11-01T11:13:01Z</time></trkpt>
<trkpt lat="46.76229" lon="6.47508"><ele>1152.6</ele><time>2016-11-01T11:13:16Z</time></trkpt>
<trkpt lat="46.76217" lon="6.47489"><ele>1154.8</ele><time>2016-11-01T11:13:26Z</time></trkpt>
<trkpt lat="46.76208" lon="6.47465"><ele>1156.4</ele><time>2016-11-01T11:13:37Z</time></trkpt>
<trkpt lat="46.76201" lon="6.47439"><ele>1158</ele><time>2016-11-01T11:13:49Z</time></trkpt>
<trkpt lat="46.76194" lon="6.47413"><ele>1159</ele><time>2016-11-01T11:14:00Z</time></trkpt>
<trkpt lat="46.76185" lon="6.47389"><ele>1161.2</ele><time>2016-11-01T11:14:11Z</time></trkpt>
<trkpt lat="46.76172" lon="6.4736"><ele>1163.4</ele><time>2016-11-01T11:14:25Z</time></trkpt>
<trkpt lat="46.76168" lon="6.47355"><ele>1164.2</ele><time>2016-11-01T11:14:28Z</time></trkpt>
<trkpt lat="46.76164" lon="6.47337"><ele>1166.8</ele><time>2016-11-01T11:14:36Z</time></trkpt>
<trkpt lat="46.76176" lon="6.47332"><ele>1167.8</ele><time>2016-11-01T11:14:43Z</time></trkpt>
<trkpt lat="46.76193" lon="6.4734"><ele>1167.4</ele><time>2016-11-01T11:14:54Z</time></trkpt>
<trkpt lat="46.7621" lon="6.47354"><ele>1168.6</ele><time>2016-11-01T11:15:05Z</time></trkpt>
<trkpt lat="46.76226" lon="6.47371"><ele>1170.8</ele><time>2016-11-01T11:15:16Z</time></trkpt>
<trkpt lat="46.7624" lon="6.47383"><ele>1173.2</ele><time>2016-11-01T11:15:26Z</time></trkpt>
<trkpt lat="46.76242" lon="6.47387"><ele>1174</ele><time>2016-11-01T11:15:29Z</time></trkpt>
<trkpt lat="46.76249" lon="6.4739"><ele>1174.4</ele><time>2016-11-01T11:15:34Z</time></trkpt>
<trkpt lat="46.76267" lon="6.47397"><ele>1175.2</ele><time>2016-11-01T11:15:46Z</time></trkpt>
<trkpt lat="46.76286" lon="6.47395"><ele>1176.4</ele><time>2016-11-01T11:15:58Z</time></trkpt>
<trkpt lat="46.76304" lon="6.47388"><ele>1178.6</ele><time>2016-11-01T11:16:10Z</time></trkpt>
<trkpt lat="46.76305" lon="6.47387"><ele>1178.8</ele><time>2016-11-01T11:16:11Z</time></trkpt>
<trkpt lat="46.76318" lon="6.47385"><ele>1180.2</ele><time>2016-11-01T11:16:19Z</time></trkpt>
<trkpt lat="46.76335" lon="6.47378"><ele>1182.4</ele><time>2016-11-01T11:16:30Z</time></trkpt>
<trkpt lat="46.76353" lon="6.47372"><ele>1184</ele><time>2016-11-01T11:16:41Z</time></trkpt>
<trkpt lat="46.76372" lon="6.47367"><ele>1186</ele><time>2016-11-01T11:16:52Z</time></trkpt>
<trkpt lat="46.7639" lon="6.4736"><ele>1188.2</ele><time>2016-11-01T11:17:03Z</time></trkpt>
<trkpt lat="46.76399" lon="6.47357"><ele>1189.4</ele><time>2016-11-01T11:17:09Z</time></trkpt>
<trkpt lat="46.764" lon="6.4735"><ele>1190.8</ele><time>2016-11-01T11:17:37Z</time></trkpt>
<trkpt lat="46.76399" lon="6.47351"><ele>1190.4</ele><time>2016-11-01T11:17:47Z</time></trkpt>
<trkpt lat="46.76399" lon="6.47351"><ele>1190.4</ele><time>2016-11-01T11:17:51Z</time></trkpt>
<trkpt lat="46.76399" lon="6.47351"><ele>1190.4</ele><time>2016-11-01T11:17:53Z</time></trkpt>
<trkpt lat="46.76399" lon="6.47351"><ele>1190.2</ele><time>2016-11-01T11:17:55Z</time></trkpt>
<trkpt lat="46.76399" lon="6.47351"><ele>1190.2</ele><time>2016-11-01T11:18:00Z</time></trkpt>
<trkpt lat="46.76398" lon="6.47351"><ele>1189.8</ele><time>2016-11-01T11:18:11Z</time></trkpt>
<trkpt lat="46.76398" lon="6.47351"><ele>1190.2</ele><time>2016-11-01T11:18:29Z</time></trkpt>
<trkpt lat="46.76398" lon="6.47352"><ele>1190</ele><time>2016-11-01T11:18:38Z</time></trkpt>
<trkpt lat="46.764" lon="6.47356"><ele>1189.4</ele><time>2016-11-01T11:18:53Z</time></trkpt>
<trkpt lat="46.76416" lon="6.47344"><ele>1190.6</ele><time>2016-11-01T11:19:04Z</time></trkpt>
<trkpt lat="46.76425" lon="6.47337"><ele>1191.4</ele><time>2016-11-01T11:19:11Z</time></trkpt>
<trkpt lat="46.76443" lon="6.47324"><ele>1193.4</ele><time>2016-11-01T11:19:24Z</time></trkpt>
<trkpt lat="46.76453" lon="6.47318"><ele>1194.8</ele><time>2016-11-01T11:19:31Z</time></trkpt>
<trkpt lat="46.76459" lon="6.47317"><ele>1195.4</ele><time>2016-11-01T11:19:35Z</time></trkpt>
<trkpt lat="46.76472" lon="6.47316"><ele>1197</ele><time>2016-11-01T11:19:43Z</time></trkpt>
<trkpt lat="46.76497" lon="6.47321"><ele>1200.2</ele><time>2016-11-01T11:19:59Z</time></trkpt>
<trkpt lat="46.76517" lon="6.47327"><ele>1203</ele><time>2016-11-01T11:20:11Z</time></trkpt>
<trkpt lat="46.76535" lon="6.47331"><ele>1205.8</ele><time>2016-11-01T11:20:22Z</time></trkpt>
<trkpt lat="46.76544" lon="6.47336"><ele>1207</ele><time>2016-11-01T11:20:28Z</time></trkpt>
<trkpt lat="46.7656" lon="6.47352"><ele>1209</ele><time>2016-11-01T11:20:39Z</time></trkpt>
<trkpt lat="46.76573" lon="6.47363"><ele>1210.8</ele><time>2016-11-01T11:20:48Z</time></trkpt>
<trkpt lat="46.76582" lon="6.47362"><ele>1212.6</ele><time>2016-11-01T11:20:54Z</time></trkpt>
<trkpt lat="46.76582" lon="6.47354"><ele>1213.8</ele><time>2016-11-01T11:20:58Z</time></trkpt>
<trkpt lat="46.7657" lon="6.47332"><ele>1215.8</ele><time>2016-11-01T11:21:10Z</time></trkpt>
<trkpt lat="46.76558" lon="6.4731"><ele>1218.4</ele><time>2016-11-01T11:21:22Z</time></trkpt>
<trkpt lat="46.76547" lon="6.47289"><ele>1221</ele><time>2016-11-01T11:21:34Z</time></trkpt>
<trkpt lat="46.76538" lon="6.47266"><ele>1224</ele><time>2016-11-01T11:21:46Z</time></trkpt>
<trkpt lat="46.76529" lon="6.47242"><ele>1226.2</ele><time>2016-11-01T11:21:58Z</time></trkpt>
<trkpt lat="46.76524" lon="6.47226"><ele>1227.6</ele><time>2016-11-01T11:22:06Z</time></trkpt>
<trkpt lat="46.76516" lon="6.47202"><ele>1228.4</ele><time>2016-11-01T11:22:17Z</time></trkpt>
<trkpt lat="46.76504" lon="6.47169"><ele>1231.2</ele><time>2016-11-01T11:22:33Z</time></trkpt>
<trkpt lat="46.76496" lon="6.47144"><ele>1233.2</ele><time>2016-11-01T11:22:45Z</time></trkpt>
<trkpt lat="46.76489" lon="6.4712"><ele>1234.8</ele><time>2016-11-01T11:22:56Z</time></trkpt>
<trkpt lat="46.76477" lon="6.47098"><ele>1236.2</ele><time>2016-11-01T11:23:07Z</time></trkpt>
<trkpt lat="46.76466" lon="6.47067"><ele>1238.6</ele><time>2016-11-01T11:23:21Z</time></trkpt>
<trkpt lat="46.7648" lon="6.47056"><ele>1240.2</ele><time>2016-11-01T11:23:32Z</time></trkpt>
<trkpt lat="46.76495" lon="6.47074"><ele>1242.4</ele><time>2016-11-01T11:23:43Z</time></trkpt>
<trkpt lat="46.76508" lon="6.47092"><ele>1244.2</ele><time>2016-11-01T11:23:53Z</time></trkpt>
<trkpt lat="46.7652" lon="6.47112"><ele>1245.8</ele><time>2016-11-01T11:24:04Z</time></trkpt>
<trkpt lat="46.76535" lon="6.47126"><ele>1248.6</ele><time>2016-11-01T11:24:16Z</time></trkpt>
<trkpt lat="46.76538" lon="6.47126"><ele>1249.6</ele><time>2016-11-01T11:24:20Z</time></trkpt>
<trkpt lat="46.76537" lon="6.47126"><ele>1249.2</ele><time>2016-11-01T11:24:25Z</time></trkpt>
<trkpt lat="46.76538" lon="6.47125"><ele>1250.2</ele><time>2016-11-01T11:24:56Z</time></trkpt>
<trkpt lat="46.76538" lon="6.47125"><ele>1250.4</ele><time>2016-11-01T11:24:57Z</time></trkpt>
<trkpt lat="46.76538" lon="6.47126"><ele>1250.4</ele><time>2016-11-01T11:24:59Z</time></trkpt>
<trkpt lat="46.76538" lon="6.47127"><ele>1250.8</ele><time>2016-11-01T11:25:04Z</time></trkpt>
<trkpt lat="46.76541" lon="6.47128"><ele>1252.2</ele><time>2016-11-01T11:25:16Z</time></trkpt>
<trkpt lat="46.76541" lon="6.47129"><ele>1253</ele><time>2016-11-01T11:25:25Z</time></trkpt>
<trkpt lat="46.76538" lon="6.47128"><ele>1253.6</ele><time>2016-11-01T11:25:45Z</time></trkpt>
<trkpt lat="46.76537" lon="6.47129"><ele>1253.4</ele><time>2016-11-01T11:25:52Z</time></trkpt>
<trkpt lat="46.76537" lon="6.47129"><ele>1253.4</ele><time>2016-11-01T11:26:06Z</time></trkpt>
<trkpt lat="46.7654" lon="6.47138"><ele>1253.2</ele><time>2016-11-01T11:26:32Z</time></trkpt>
<trkpt lat="46.76557" lon="6.47151"><ele>1252.8</ele><time>2016-11-01T11:26:45Z</time></trkpt>
<trkpt lat="46.76566" lon="6.4716"><ele>1255.6</ele><time>2016-11-01T11:26:53Z</time></trkpt>
<trkpt lat="46.76573" lon="6.47166"><ele>1256.2</ele><time>2016-11-01T11:26:59Z</time></trkpt>
<trkpt lat="46.76579" lon="6.47171"><ele>1257</ele><time>2016-11-01T11:27:04Z</time></trkpt>
<trkpt lat="46.76582" lon="6.47174"><ele>1257.6</ele><time>2016-11-01T11:27:07Z</time></trkpt>
<trkpt lat="46.76597" lon="6.4719"><ele>1260</ele><time>2016-11-01T11:27:20Z</time></trkpt>
<trkpt lat="46.76602" lon="6.47198"><ele>1261.2</ele><time>2016-11-01T11:27:25Z</time></trkpt>
<trkpt lat="46.76609" lon="6.47205"><ele>1262.6</ele><time>2016-11-01T11:27:31Z</time></trkpt>
<trkpt lat="46.76614" lon="6.47212"><ele>1263.8</ele><time>2016-11-01T11:27:36Z</time></trkpt>
<trkpt lat="46.76628" lon="6.47229"><ele>1266.4</ele><time>2016-11-01T11:27:49Z</time></trkpt>
<trkpt lat="46.76639" lon="6.47252"><ele>1269.2</ele><time>2016-11-01T11:28:02Z</time></trkpt>
<trkpt lat="46.76655" lon="6.47267"><ele>1271.6</ele><time>2016-11-01T11:28:15Z</time></trkpt>
<trkpt lat="46.76668" lon="6.47285"><ele>1272.8</ele><time>2016-11-01T11:28:26Z</time></trkpt>
<trkpt lat="46.76688" lon="6.47304"><ele>1275.8</ele><time>2016-11-01T11:28:40Z</time></trkpt>
<trkpt lat="46.76702" lon="6.4732"><ele>1279.2</ele><time>2016-11-01T11:28:51Z</time></trkpt>
<trkpt lat="46.76716" lon="6.47337"><ele>1282.8</ele><time>2016-11-01T11:29:02Z</time></trkpt>
<trkpt lat="46.76725" lon="6.47347"><ele>1284.2</ele><time>2016-11-01T11:29:09Z</time></trkpt>
<trkpt lat="46.7674" lon="6.47363"><ele>1286.8</ele><time>2016-11-01T11:29:20Z</time></trkpt>
<trkpt lat="46.76767" lon="6.47401"><ele>1295.8</ele><time>2016-11-01T11:29:44Z</time></trkpt>
<trkpt lat="46.76781" lon="6.47418"><ele>1298.4</ele><time>2016-11-01T11:29:55Z</time></trkpt>
<trkpt lat="46.76788" lon="6.47426"><ele>1299.8</ele><time>2016-11-01T11:30:00Z</time></trkpt>
<trkpt lat="46.76803" lon="6.47441"><ele>1302</ele><time>2016-11-01T11:30:11Z</time></trkpt>
<trkpt lat="46.76819" lon="6.47457"><ele>1304.4</ele><time>2016-11-01T11:30:22Z</time></trkpt>
<trkpt lat="46.76828" lon="6.47465"><ele>1307</ele><time>2016-11-01T11:30:29Z</time></trkpt>
<trkpt lat="46.7684" lon="6.47471"><ele>1310.2</ele><time>2016-11-01T11:30:38Z</time></trkpt>
<trkpt lat="46.76855" lon="6.47488"><ele>1314</ele><time>2016-11-01T11:30:50Z</time></trkpt>
<trkpt lat="46.76866" lon="6.47503"><ele>1315.6</ele><time>2016-11-01T11:30:58Z</time></trkpt>
<trkpt lat="46.76871" lon="6.47511"><ele>1316.6</ele><time>2016-11-01T11:31:02Z</time></trkpt>
<trkpt lat="46.76887" lon="6.47527"><ele>1319.6</ele><time>2016-11-01T11:31:15Z</time></trkpt>
<trkpt lat="46.76903" lon="6.47542"><ele>1322.2</ele><time>2016-11-01T11:31:27Z</time></trkpt>
<trkpt lat="46.76919" lon="6.47557"><ele>1325.4</ele><time>2016-11-01T11:31:39Z</time></trkpt>
<trkpt lat="46.76929" lon="6.47564"><ele>1327.4</ele><time>2016-11-01T11:31:46Z</time></trkpt>
<trkpt lat="46.76945" lon="6.47578"><ele>1329.2</ele><time>2016-11-01T11:31:57Z</time></trkpt>
<trkpt lat="46.76961" lon="6.47593"><ele>1333</ele><time>2016-11-01T11:32:10Z</time></trkpt>
<trkpt lat="46.76981" lon="6.47615"><ele>1336.2</ele><time>2016-11-01T11:32:25Z</time></trkpt>
<trkpt lat="46.76996" lon="6.4763"><ele>1335.6</ele><time>2016-11-01T11:32:34Z</time></trkpt>
<trkpt lat="46.77011" lon="6.47645"><ele>1336.6</ele><time>2016-11-01T11:32:44Z</time></trkpt>
<trkpt lat="46.77027" lon="6.4766"><ele>1338.6</ele><time>2016-11-01T11:32:55Z</time></trkpt>
<trkpt lat="46.77039" lon="6.47669"><ele>1339.8</ele><time>2016-11-01T11:33:03Z</time></trkpt>
<trkpt lat="46.77048" lon="6.47676"><ele>1339.2</ele><time>2016-11-01T11:33:08Z</time></trkpt>
<trkpt lat="46.77066" lon="6.47693"><ele>1338.2</ele><time>2016-11-01T11:33:20Z</time></trkpt>
<trkpt lat="46.77075" lon="6.47702"><ele>1338.4</ele><time>2016-11-01T11:33:26Z</time></trkpt>
<trkpt lat="46.77087" lon="6.47713"><ele>1338.4</ele><time>2016-11-01T11:33:34Z</time></trkpt>
<trkpt lat="46.77104" lon="6.47726"><ele>1337.8</ele><time>2016-11-01T11:33:44Z</time></trkpt>
<trkpt lat="46.77122" lon="6.47733"><ele>1337</ele><time>2016-11-01T11:33:54Z</time></trkpt>
<trkpt lat="46.77138" lon="6.47747"><ele>1336.6</ele><time>2016-11-01T11:34:06Z</time></trkpt>
<trkpt lat="46.77157" lon="6.47753"><ele>1338.2</ele><time>2016-11-01T11:34:20Z</time></trkpt>
<trkpt lat="46.77169" lon="6.47756"><ele>1339</ele><time>2016-11-01T11:34:29Z</time></trkpt>
<trkpt lat="46.77188" lon="6.47751"><ele>1338.2</ele><time>2016-11-01T11:34:45Z</time></trkpt>
<trkpt lat="46.77196" lon="6.47743"><ele>1339.2</ele><time>2016-11-01T11:34:52Z</time></trkpt>
<trkpt lat="46.77206" lon="6.47723"><ele>1340.4</ele><time>2016-11-01T11:35:05Z</time></trkpt>
<trkpt lat="46.77224" lon="6.47724"><ele>1341.8</ele><time>2016-11-01T11:35:18Z</time></trkpt>
<trkpt lat="46.7724" lon="6.47738"><ele>1342.2</ele><time>2016-11-01T11:35:30Z</time></trkpt>
<trkpt lat="46.77246" lon="6.47742"><ele>1342</ele><time>2016-11-01T11:35:35Z</time></trkpt>
<trkpt lat="46.77262" lon="6.47756"><ele>1343.6</ele><time>2016-11-01T11:35:47Z</time></trkpt>
<trkpt lat="46.77273" lon="6.47765"><ele>1345</ele><time>2016-11-01T11:35:57Z</time></trkpt>
<trkpt lat="46.77287" lon="6.47777"><ele>1347.6</ele><time>2016-11-01T11:36:08Z</time></trkpt>
<trkpt lat="46.77288" lon="6.47778"><ele>1347.6</ele><time>2016-11-01T11:36:09Z</time></trkpt>
<trkpt lat="46.77304" lon="6.47794"><ele>1350.2</ele><time>2016-11-01T11:36:22Z</time></trkpt>
<trkpt lat="46.77321" lon="6.47804"><ele>1353.6</ele><time>2016-11-01T11:36:34Z</time></trkpt>
<trkpt lat="46.77339" lon="6.4781"><ele>1356</ele><time>2016-11-01T11:36:47Z</time></trkpt>
<trkpt lat="46.77358" lon="6.47814"><ele>1357</ele><time>2016-11-01T11:37:00Z</time></trkpt>
<trkpt lat="46.77368" lon="6.47809"><ele>1357.2</ele><time>2016-11-01T11:37:06Z</time></trkpt>
<trkpt lat="46.77378" lon="6.47803"><ele>1358.6</ele><time>2016-11-01T11:37:13Z</time></trkpt>
<trkpt lat="46.77384" lon="6.47799"><ele>1358.8</ele><time>2016-11-01T11:37:17Z</time></trkpt>
<trkpt lat="46.77407" lon="6.47791"><ele>1361.2</ele><time>2016-11-01T11:37:32Z</time></trkpt>
<trkpt lat="46.77427" lon="6.47793"><ele>1362</ele><time>2016-11-01T11:37:44Z</time></trkpt>
<trkpt lat="46.77434" lon="6.47794"><ele>1363.2</ele><time>2016-11-01T11:37:49Z</time></trkpt>
<trkpt lat="46.77452" lon="6.47798"><ele>1366</ele><time>2016-11-01T11:38:00Z</time></trkpt>
<trkpt lat="46.7747" lon="6.47808"><ele>1368.4</ele><time>2016-11-01T11:38:11Z</time></trkpt>
<trkpt lat="46.77486" lon="6.47807"><ele>1369.4</ele><time>2016-11-01T11:38:22Z</time></trkpt>
<trkpt lat="46.77484" lon="6.47791"><ele>1370.6</ele><time>2016-11-01T11:38:30Z</time></trkpt>
<trkpt lat="46.77466" lon="6.4778"><ele>1372.6</ele><time>2016-11-01T11:38:41Z</time></trkpt>
<trkpt lat="46.7745" lon="6.47766"><ele>1375.8</ele><time>2016-11-01T11:38:53Z</time></trkpt>
<trkpt lat="46.77449" lon="6.47765"><ele>1376</ele><time>2016-11-01T11:38:54Z</time></trkpt>
<trkpt lat="46.77438" lon="6.47756"><ele>1377.2</ele><time>2016-11-01T11:39:03Z</time></trkpt>
<trkpt lat="46.77433" lon="6.47749"><ele>1378.2</ele><time>2016-11-01T11:39:09Z</time></trkpt>
<trkpt lat="46.77429" lon="6.47741"><ele>1379.2</ele><time>2016-11-01T11:39:15Z</time></trkpt>
<trkpt lat="46.77424" lon="6.4773"><ele>1380.2</ele><time>2016-11-01T11:39:23Z</time></trkpt>
<trkpt lat="46.7741" lon="6.47714"><ele>1382.2</ele><time>2016-11-01T11:39:37Z</time></trkpt>
<trkpt lat="46.77396" lon="6.47694"><ele>1385</ele><time>2016-11-01T11:39:52Z</time></trkpt>
<trkpt lat="46.7738" lon="6.47682"><ele>1386</ele><time>2016-11-01T11:40:04Z</time></trkpt>
<trkpt lat="46.77362" lon="6.47679"><ele>1388</ele><time>2016-11-01T11:40:18Z</time></trkpt>
<trkpt lat="46.77345" lon="6.47677"><ele>1389.4</ele><time>2016-11-01T11:40:30Z</time></trkpt>
<trkpt lat="46.77339" lon="6.47676"><ele>1390</ele><time>2016-11-01T11:40:34Z</time></trkpt>
<trkpt lat="46.77336" lon="6.47675"><ele>1390.4</ele><time>2016-11-01T11:40:36Z</time></trkpt>
<trkpt lat="46.77324" lon="6.47669"><ele>1390.8</ele><time>2016-11-01T11:40:45Z</time></trkpt>
<trkpt lat="46.77306" lon="6.4765"><ele>1392.6</ele><time>2016-11-01T11:40:58Z</time></trkpt>
<trkpt lat="46.77301" lon="6.47642"><ele>1393</ele><time>2016-11-01T11:41:03Z</time></trkpt>
<trkpt lat="46.77291" lon="6.47621"><ele>1395.2</ele><time>2016-11-01T11:41:15Z</time></trkpt>
<trkpt lat="46.77278" lon="6.47602"><ele>1398.2</ele><time>2016-11-01T11:41:27Z</time></trkpt>
<trkpt lat="46.77265" lon="6.47584"><ele>1402.4</ele><time>2016-11-01T11:41:38Z</time></trkpt>
<trkpt lat="46.7725" lon="6.47567"><ele>1405.2</ele><time>2016-11-01T11:41:49Z</time></trkpt>
<trkpt lat="46.7723" lon="6.47544"><ele>1409.2</ele><time>2016-11-01T11:42:04Z</time></trkpt>
<trkpt lat="46.77216" lon="6.47527"><ele>1412.2</ele><time>2016-11-01T11:42:15Z</time></trkpt>
<trkpt lat="46.77202" lon="6.47511"><ele>1415</ele><time>2016-11-01T11:42:26Z</time></trkpt>
<trkpt lat="46.7719" lon="6.47492"><ele>1418</ele><time>2016-11-01T11:42:37Z</time></trkpt>
<trkpt lat="46.77176" lon="6.47475"><ele>1422.4</ele><time>2016-11-01T11:42:49Z</time></trkpt>
<trkpt lat="46.77169" lon="6.47464"><ele>1424</ele><time>2016-11-01T11:42:56Z</time></trkpt>
<trkpt lat="46.77156" lon="6.47445"><ele>1424.4</ele><time>2016-11-01T11:43:09Z</time></trkpt>
<trkpt lat="46.77151" lon="6.47431"><ele>1425</ele><time>2016-11-01T11:43:17Z</time></trkpt>
<trkpt lat="46.77144" lon="6.47414"><ele>1424.6</ele><time>2016-11-01T11:43:26Z</time></trkpt>
<trkpt lat="46.77133" lon="6.4739"><ele>1426.2</ele><time>2016-11-01T11:43:37Z</time></trkpt>
<trkpt lat="46.7712" lon="6.47372"><ele>1428</ele><time>2016-11-01T11:43:48Z</time></trkpt>
<trkpt lat="46.77108" lon="6.47352"><ele>1431.2</ele><time>2016-11-01T11:43:59Z</time></trkpt>
<trkpt lat="46.77098" lon="6.47333"><ele>1432.4</ele><time>2016-11-01T11:44:10Z</time></trkpt>
<trkpt lat="46.77095" lon="6.47325"><ele>1431.8</ele><time>2016-11-01T11:44:15Z</time></trkpt>
<trkpt lat="46.77094" lon="6.47323"><ele>1431.6</ele><time>2016-11-01T11:44:17Z</time></trkpt>
<trkpt lat="46.77091" lon="6.47316"><ele>1431.4</ele><time>2016-11-01T11:44:22Z</time></trkpt>
<trkpt lat="46.7709" lon="6.47311"><ele>1431.8</ele><time>2016-11-01T11:44:26Z</time></trkpt>
<trkpt lat="46.77082" lon="6.47297"><ele>1432.6</ele><time>2016-11-01T11:44:39Z</time></trkpt>
<trkpt lat="46.77082" lon="6.47295"><ele>1432.8</ele><time>2016-11-01T11:44:40Z</time></trkpt>
<trkpt lat="46.7708" lon="6.47288"><ele>1433</ele><time>2016-11-01T11:44:45Z</time></trkpt>
<trkpt lat="46.77079" lon="6.47284"><ele>1432.8</ele><time>2016-11-01T11:44:47Z</time></trkpt>
<trkpt lat="46.77074" lon="6.47271"><ele>1433</ele><time>2016-11-01T11:44:54Z</time></trkpt>
<trkpt lat="46.77065" lon="6.47238"><ele>1434.6</ele><time>2016-11-01T11:45:11Z</time></trkpt>
<trkpt lat="46.7706" lon="6.47226"><ele>1435.2</ele><time>2016-11-01T11:45:17Z</time></trkpt>
<trkpt lat="46.77055" lon="6.47202"><ele>1435.8</ele><time>2016-11-01T11:45:28Z</time></trkpt>
<trkpt lat="46.77053" lon="6.47194"><ele>1435.8</ele><time>2016-11-01T11:45:32Z</time></trkpt>
<trkpt lat="46.77053" lon="6.47194"><ele>1434.2</ele><time>2016-11-01T11:45:45Z</time></trkpt>
<trkpt lat="46.7705" lon="6.47182"><ele>1434.2</ele><time>2016-11-01T11:45:55Z</time></trkpt>
<trkpt lat="46.77045" lon="6.47167"><ele>1435</ele><time>2016-11-01T11:46:02Z</time></trkpt>
<trkpt lat="46.77039" lon="6.47142"><ele>1437.2</ele><time>2016-11-01T11:46:14Z</time></trkpt>
<trkpt lat="46.77032" lon="6.47122"><ele>1438.4</ele><time>2016-11-01T11:46:24Z</time></trkpt>
<trkpt lat="46.77024" lon="6.47097"><ele>1440</ele><time>2016-11-01T11:46:34Z</time></trkpt>
<trkpt lat="46.77014" lon="6.47073"><ele>1442.4</ele><time>2016-11-01T11:46:44Z</time></trkpt>
<trkpt lat="46.77004" lon="6.47048"><ele>1444.4</ele><time>2016-11-01T11:46:54Z</time></trkpt>
<trkpt lat="46.76996" lon="6.47025"><ele>1446</ele><time>2016-11-01T11:47:04Z</time></trkpt>
<trkpt lat="46.76987" lon="6.47001"><ele>1448</ele><time>2016-11-01T11:47:15Z</time></trkpt>
<trkpt lat="46.7698" lon="6.46982"><ele>1450</ele><time>2016-11-01T11:47:24Z</time></trkpt>
<trkpt lat="46.76975" lon="6.46963"><ele>1451.8</ele><time>2016-11-01T11:47:32Z</time></trkpt>
<trkpt lat="46.76973" lon="6.46946"><ele>1453.2</ele><time>2016-11-01T11:47:39Z</time></trkpt>
<trkpt lat="46.76971" lon="6.46918"><ele>1455.4</ele><time>2016-11-01T11:47:51Z</time></trkpt>
<trkpt lat="46.76967" lon="6.46891"><ele>1457.4</ele><time>2016-11-01T11:48:03Z</time></trkpt>
<trkpt lat="46.7696" lon="6.46867"><ele>1459.6</ele><time>2016-11-01T11:48:15Z</time></trkpt>
<trkpt lat="46.76949" lon="6.46837"><ele>1462.4</ele><time>2016-11-01T11:48:30Z</time></trkpt>
<trkpt lat="46.76939" lon="6.46814"><ele>1464.6</ele><time>2016-11-01T11:48:42Z</time></trkpt>
<trkpt lat="46.76932" lon="6.46797"><ele>1466.2</ele><time>2016-11-01T11:48:51Z</time></trkpt>
<trkpt lat="46.76923" lon="6.46772"><ele>1468.4</ele><time>2016-11-01T11:49:03Z</time></trkpt>
<trkpt lat="46.76917" lon="6.46751"><ele>1470.4</ele><time>2016-11-01T11:49:14Z</time></trkpt>
<trkpt lat="46.76913" lon="6.46725"><ele>1473.2</ele><time>2016-11-01T11:49:28Z</time></trkpt>
<trkpt lat="46.76912" lon="6.46725"><ele>1472.6</ele><time>2016-11-01T11:49:45Z</time></trkpt>
<trkpt lat="46.7691" lon="6.46724"><ele>1472</ele><time>2016-11-01T11:49:51Z</time></trkpt>
<trkpt lat="46.7691" lon="6.46724"><ele>1472</ele><time>2016-11-01T11:49:54Z</time></trkpt>
<trkpt lat="46.7691" lon="6.46724"><ele>1471.8</ele><time>2016-11-01T11:49:57Z</time></trkpt>
<trkpt lat="46.7691" lon="6.46724"><ele>1471.8</ele><time>2016-11-01T11:49:58Z</time></trkpt>
<trkpt lat="46.7691" lon="6.46724"><ele>1472.2</ele><time>2016-11-01T11:50:06Z</time></trkpt>
<trkpt lat="46.76909" lon="6.467"><ele>1472.8</ele><time>2016-11-01T11:50:37Z</time></trkpt>
<trkpt lat="46.7691" lon="6.46674"><ele>1474.8</ele><time>2016-11-01T11:50:47Z</time></trkpt>
<trkpt lat="46.76913" lon="6.46646"><ele>1476.8</ele><time>2016-11-01T11:50:57Z</time></trkpt>
<trkpt lat="46.76914" lon="6.46626"><ele>1478.6</ele><time>2016-11-01T11:51:05Z</time></trkpt>
<trkpt lat="46.76915" lon="6.46598"><ele>1481</ele><time>2016-11-01T11:51:17Z</time></trkpt>
<trkpt lat="46.76914" lon="6.4659"><ele>1481.6</ele><time>2016-11-01T11:51:20Z</time></trkpt>
<trkpt lat="46.76908" lon="6.46569"><ele>1483.8</ele><time>2016-11-01T11:51:30Z</time></trkpt>
<trkpt lat="46.76901" lon="6.46555"><ele>1485.8</ele><time>2016-11-01T11:51:37Z</time></trkpt>
<trkpt lat="46.76887" lon="6.46538"><ele>1487.8</ele><time>2016-11-01T11:51:49Z</time></trkpt>
<trkpt lat="46.76884" lon="6.46536"><ele>1488.4</ele><time>2016-11-01T11:51:51Z</time></trkpt>
<trkpt lat="46.76867" lon="6.46522"><ele>1488.6</ele><time>2016-11-01T11:52:03Z</time></trkpt>
<trkpt lat="46.7686" lon="6.46515"><ele>1488.6</ele><time>2016-11-01T11:52:09Z</time></trkpt>
<trkpt lat="46.76862" lon="6.46513"><ele>1488.8</ele><time>2016-11-01T11:52:11Z</time></trkpt>
<trkpt lat="46.76868" lon="6.46521"><ele>1489.6</ele><time>2016-11-01T11:52:17Z</time></trkpt>
<trkpt lat="46.76868" lon="6.46521"><ele>1489.8</ele><time>2016-11-01T11:52:18Z</time></trkpt>
<trkpt lat="46.76867" lon="6.4652"><ele>1490</ele><time>2016-11-01T11:52:27Z</time></trkpt>
<trkpt lat="46.7687" lon="6.4652"><ele>1490.4</ele><time>2016-11-01T11:52:49Z</time></trkpt>
<trkpt lat="46.76868" lon="6.46519"><ele>1489.8</ele><time>2016-11-01T11:52:56Z</time></trkpt>
<trkpt lat="46.76868" lon="6.46521"><ele>1489.4</ele><time>2016-11-01T11:53:35Z</time></trkpt>
<trkpt lat="46.76868" lon="6.46521"><ele>1489.4</ele><time>2016-11-01T11:53:39Z</time></trkpt>
<trkpt lat="46.76867" lon="6.46521"><ele>1489.2</ele><time>2016-11-01T11:53:42Z</time></trkpt>
<trkpt lat="46.76867" lon="6.46521"><ele>1489.2</ele><time>2016-11-01T11:53:43Z</time></trkpt>
<trkpt lat="46.76867" lon="6.4652"><ele>1488.8</ele><time>2016-11-01T11:53:52Z</time></trkpt>
<trkpt lat="46.76867" lon="6.46519"><ele>1488.2</ele><time>2016-11-01T11:54:15Z</time></trkpt>
<trkpt lat="46.76868" lon="6.46519"><ele>1488</ele><time>2016-11-01T11:54:19Z</time></trkpt>
<trkpt lat="46.76868" lon="6.46519"><ele>1487.8</ele><time>2016-11-01T11:54:23Z</time></trkpt>
<trkpt lat="46.76868" lon="6.4652"><ele>1488</ele><time>2016-11-01T11:54:30Z</time></trkpt>
<trkpt lat="46.76868" lon="6.4652"><ele>1488</ele><time>2016-11-01T11:54:34Z</time></trkpt>
<trkpt lat="46.76868" lon="6.46522"><ele>1488</ele><time>2016-11-01T11:54:47Z</time></trkpt>
<trkpt lat="46.76864" lon="6.46509"><ele>1487.6</ele><time>2016-11-01T11:54:55Z</time></trkpt>
<trkpt lat="46.76857" lon="6.465"><ele>1486.2</ele><time>2016-11-01T11:55:16Z</time></trkpt>
<trkpt lat="46.7686" lon="6.4649"><ele>1486.4</ele><time>2016-11-01T11:55:40Z</time></trkpt>
<trkpt lat="46.76861" lon="6.46489"><ele>1486.8</ele><time>2016-11-01T11:55:45Z</time></trkpt>
<trkpt lat="46.76863" lon="6.46487"><ele>1487.2</ele><time>2016-11-01T11:55:48Z</time></trkpt>
<trkpt lat="46.76865" lon="6.46483"><ele>1487.8</ele><time>2016-11-01T11:55:54Z</time></trkpt>
<trkpt lat="46.7687" lon="6.46471"><ele>1489</ele><time>2016-11-01T11:56:08Z</time></trkpt>
<trkpt lat="46.76871" lon="6.46469"><ele>1490</ele><time>2016-11-01T11:56:17Z</time></trkpt>
<trkpt lat="46.7687" lon="6.46467"><ele>1490</ele><time>2016-11-01T11:56:23Z</time></trkpt>
<trkpt lat="46.76875" lon="6.46465"><ele>1490.6</ele><time>2016-11-01T11:56:32Z</time></trkpt>
<trkpt lat="46.76878" lon="6.4646"><ele>1491</ele><time>2016-11-01T11:56:39Z</time></trkpt>
<trkpt lat="46.76879" lon="6.46459"><ele>1491</ele><time>2016-11-01T11:56:41Z</time></trkpt>
<trkpt lat="46.76898" lon="6.46446"><ele>1494</ele><time>2016-11-01T11:57:12Z</time></trkpt>
<trkpt lat="46.76902" lon="6.46449"><ele>1495.4</ele><time>2016-11-01T11:57:20Z</time></trkpt>
<trkpt lat="46.76906" lon="6.46451"><ele>1497.2</ele><time>2016-11-01T11:57:30Z</time></trkpt>
<trkpt lat="46.76909" lon="6.46455"><ele>1498.6</ele><time>2016-11-01T11:57:37Z</time></trkpt>
<trkpt lat="46.76916" lon="6.46458"><ele>1503.2</ele><time>2016-11-01T11:58:02Z</time></trkpt>
<trkpt lat="46.76925" lon="6.46449"><ele>1508.4</ele><time>2016-11-01T11:58:30Z</time></trkpt>
<trkpt lat="46.76935" lon="6.46451"><ele>1512.8</ele><time>2016-11-01T11:58:57Z</time></trkpt>
<trkpt lat="46.76936" lon="6.46453"><ele>1513</ele><time>2016-11-01T11:58:59Z</time></trkpt>
<trkpt lat="46.76939" lon="6.4646"><ele>1514</ele><time>2016-11-01T11:59:05Z</time></trkpt>
<trkpt lat="46.76947" lon="6.46475"><ele>1515.4</ele><time>2016-11-01T11:59:19Z</time></trkpt>
<trkpt lat="46.76961" lon="6.46489"><ele>1516.4</ele><time>2016-11-01T11:59:34Z</time></trkpt>
<trkpt lat="46.76978" lon="6.46501"><ele>1518.6</ele><time>2016-11-01T11:59:51Z</time></trkpt>
<trkpt lat="46.76979" lon="6.46501"><ele>1518.8</ele><time>2016-11-01T11:59:52Z</time></trkpt>
<trkpt lat="46.76988" lon="6.46504"><ele>1520.6</ele><time>2016-11-01T12:00:01Z</time></trkpt>
<trkpt lat="46.77004" lon="6.46516"><ele>1526</ele><time>2016-11-01T12:00:15Z</time></trkpt>
<trkpt lat="46.77011" lon="6.4652"><ele>1527.2</ele><time>2016-11-01T12:00:21Z</time></trkpt>
<trkpt lat="46.77018" lon="6.46523"><ele>1528.4</ele><time>2016-11-01T12:00:28Z</time></trkpt>
<trkpt lat="46.77022" lon="6.46528"><ele>1528.8</ele><time>2016-11-01T12:00:34Z</time></trkpt>
<trkpt lat="46.77027" lon="6.4653"><ele>1529.2</ele><time>2016-11-01T12:00:39Z</time></trkpt>
<trkpt lat="46.77035" lon="6.46539"><ele>1529.8</ele><time>2016-11-01T12:00:49Z</time></trkpt>
<trkpt lat="46.77038" lon="6.46544"><ele>1529.8</ele><time>2016-11-01T12:00:52Z</time></trkpt>
<trkpt lat="46.77044" lon="6.46553"><ele>1529.6</ele><time>2016-11-01T12:00:59Z</time></trkpt>
<trkpt lat="46.77053" lon="6.4656"><ele>1530.8</ele><time>2016-11-01T12:01:08Z</time></trkpt>
<trkpt lat="46.77058" lon="6.46563"><ele>1531.6</ele><time>2016-11-01T12:01:14Z</time></trkpt>
<trkpt lat="46.77066" lon="6.46561"><ele>1532.8</ele><time>2016-11-01T12:01:23Z</time></trkpt>
<trkpt lat="46.7707" lon="6.46563"><ele>1534</ele><time>2016-11-01T12:01:29Z</time></trkpt>
<trkpt lat="46.77082" lon="6.46573"><ele>1534.8</ele><time>2016-11-01T12:01:44Z</time></trkpt>
<trkpt lat="46.77083" lon="6.46575"><ele>1535</ele><time>2016-11-01T12:01:46Z</time></trkpt>
<trkpt lat="46.77087" lon="6.4657"><ele>1536</ele><time>2016-11-01T12:01:51Z</time></trkpt>
<trkpt lat="46.77088" lon="6.46564"><ele>1536.6</ele><time>2016-11-01T12:01:56Z</time></trkpt>
<trkpt lat="46.7709" lon="6.46554"><ele>1538.2</ele><time>2016-11-01T12:02:04Z</time></trkpt>
<trkpt lat="46.77091" lon="6.46553"><ele>1538.4</ele><time>2016-11-01T12:02:05Z</time></trkpt>
<trkpt lat="46.77092" lon="6.46545"><ele>1539.4</ele><time>2016-11-01T12:02:11Z</time></trkpt>
<trkpt lat="46.77099" lon="6.46546"><ele>1541</ele><time>2016-11-01T12:02:18Z</time></trkpt>
<trkpt lat="46.77101" lon="6.46549"><ele>1541.6</ele><time>2016-11-01T12:02:22Z</time></trkpt>
<trkpt lat="46.77106" lon="6.46556"><ele>1542.6</ele><time>2016-11-01T12:02:30Z</time></trkpt>
<trkpt lat="46.77112" lon="6.46562"><ele>1544.4</ele><time>2016-11-01T12:02:38Z</time></trkpt>
<trkpt lat="46.77117" lon="6.46556"><ele>1546.2</ele><time>2016-11-01T12:02:45Z</time></trkpt>
<trkpt lat="46.77117" lon="6.46553"><ele>1546.6</ele><time>2016-11-01T12:02:48Z</time></trkpt>
<trkpt lat="46.77123" lon="6.46534"><ele>1549.2</ele><time>2016-11-01T12:03:05Z</time></trkpt>
<trkpt lat="46.77126" lon="6.46534"><ele>1550</ele><time>2016-11-01T12:03:08Z</time></trkpt>
<trkpt lat="46.77132" lon="6.46545"><ele>1551</ele><time>2016-11-01T12:03:18Z</time></trkpt>
<trkpt lat="46.7714" lon="6.46561"><ele>1553.4</ele><time>2016-11-01T12:03:34Z</time></trkpt>
<trkpt lat="46.77144" lon="6.46554"><ele>1554.6</ele><time>2016-11-01T12:03:40Z</time></trkpt>
<trkpt lat="46.77146" lon="6.46547"><ele>1555.6</ele><time>2016-11-01T12:03:45Z</time></trkpt>
<trkpt lat="46.7715" lon="6.46546"><ele>1556.6</ele><time>2016-11-01T12:03:49Z</time></trkpt>
<trkpt lat="46.77153" lon="6.4654"><ele>1557.6</ele><time>2016-11-01T12:03:54Z</time></trkpt>
<trkpt lat="46.77156" lon="6.46534"><ele>1558.6</ele><time>2016-11-01T12:03:59Z</time></trkpt>
<trkpt lat="46.77161" lon="6.46543"><ele>1560.2</ele><time>2016-11-01T12:04:06Z</time></trkpt>
<trkpt lat="46.77166" lon="6.4655"><ele>1561.4</ele><time>2016-11-01T12:04:15Z</time></trkpt>
<trkpt lat="46.77172" lon="6.4654"><ele>1563.2</ele><time>2016-11-01T12:04:25Z</time></trkpt>
<trkpt lat="46.77173" lon="6.46538"><ele>1563.6</ele><time>2016-11-01T12:04:27Z</time></trkpt>
<trkpt lat="46.77183" lon="6.46547"><ele>1566.4</ele><time>2016-11-01T12:04:40Z</time></trkpt>
<trkpt lat="46.77187" lon="6.46547"><ele>1567.2</ele><time>2016-11-01T12:04:44Z</time></trkpt>
<trkpt lat="46.77189" lon="6.46546"><ele>1567.6</ele><time>2016-11-01T12:04:46Z</time></trkpt>
<trkpt lat="46.77195" lon="6.46548"><ele>1569</ele><time>2016-11-01T12:04:54Z</time></trkpt>
<trkpt lat="46.77196" lon="6.46549"><ele>1569</ele><time>2016-11-01T12:04:55Z</time></trkpt>
<trkpt lat="46.77199" lon="6.46558"><ele>1570</ele><time>2016-11-01T12:05:03Z</time></trkpt>
<trkpt lat="46.77211" lon="6.46568"><ele>1572.6</ele><time>2016-11-01T12:05:19Z</time></trkpt>
<trkpt lat="46.7722" lon="6.46576"><ele>1575.4</ele><time>2016-11-01T12:05:32Z</time></trkpt>
<trkpt lat="46.77223" lon="6.46584"><ele>1576.4</ele><time>2016-11-01T12:05:40Z</time></trkpt>
<trkpt lat="46.7723" lon="6.46582"><ele>1577.6</ele><time>2016-11-01T12:05:49Z</time></trkpt>
<trkpt lat="46.77233" lon="6.46584"><ele>1578.6</ele><time>2016-11-01T12:05:54Z</time></trkpt>
<trkpt lat="46.77233" lon="6.4659"><ele>1579</ele><time>2016-11-01T12:05:58Z</time></trkpt>
<trkpt lat="46.77232" lon="6.46594"><ele>1579.4</ele><time>2016-11-01T12:06:01Z</time></trkpt>
<trkpt lat="46.77235" lon="6.46596"><ele>1580</ele><time>2016-11-01T12:06:05Z</time></trkpt>
<trkpt lat="46.77242" lon="6.46594"><ele>1581.2</ele><time>2016-11-01T12:06:12Z</time></trkpt>
<trkpt lat="46.77252" lon="6.46613"><ele>1584.4</ele><time>2016-11-01T12:06:26Z</time></trkpt>
<trkpt lat="46.7725" lon="6.46613"><ele>1583.8</ele><time>2016-11-01T12:06:56Z</time></trkpt>
<trkpt lat="46.7725" lon="6.46613"><ele>1583.8</ele><time>2016-11-01T12:07:00Z</time></trkpt>
<trkpt lat="46.7725" lon="6.46613"><ele>1583.8</ele><time>2016-11-01T12:07:03Z</time></trkpt>
<trkpt lat="46.7725" lon="6.46614"><ele>1583.8</ele><time>2016-11-01T12:07:05Z</time></trkpt>
<trkpt lat="46.7724" lon="6.46631"><ele>1585.4</ele><time>2016-11-01T12:07:44Z</time></trkpt>
<trkpt lat="46.77233" lon="6.46635"><ele>1584.2</ele><time>2016-11-01T12:08:05Z</time></trkpt>
<trkpt lat="46.77231" lon="6.46643"><ele>1583.6</ele><time>2016-11-01T12:08:12Z</time></trkpt>
<trkpt lat="46.77232" lon="6.46645"><ele>1583</ele><time>2016-11-01T12:08:32Z</time></trkpt>
<trkpt lat="46.77232" lon="6.46646"><ele>1583.2</ele><time>2016-11-01T12:08:43Z</time></trkpt>
<trkpt lat="46.77232" lon="6.46646"><ele>1583</ele><time>2016-11-01T12:08:51Z</time></trkpt>
<trkpt lat="46.77232" lon="6.46644"><ele>1582.2</ele><time>2016-11-01T12:09:30Z</time></trkpt>
<trkpt lat="46.77232" lon="6.46645"><ele>1582.2</ele><time>2016-11-01T12:09:51Z</time></trkpt>
<trkpt lat="46.77233" lon="6.46645"><ele>1582.2</ele><time>2016-11-01T12:09:56Z</time></trkpt>
<trkpt lat="46.7723" lon="6.46638"><ele>1582</ele><time>2016-11-01T12:10:06Z</time></trkpt>
<trkpt lat="46.77228" lon="6.46634"><ele>1581.4</ele><time>2016-11-01T12:10:13Z</time></trkpt>
<trkpt lat="46.77228" lon="6.46635"><ele>1581.4</ele><time>2016-11-01T12:10:16Z</time></trkpt>
<trkpt lat="46.77228" lon="6.46635"><ele>1581.4</ele><time>2016-11-01T12:10:18Z</time></trkpt>
<trkpt lat="46.77231" lon="6.4664"><ele>1581.6</ele><time>2016-11-01T12:10:25Z</time></trkpt>
<trkpt lat="46.77233" lon="6.46645"><ele>1582</ele><time>2016-11-01T12:10:43Z</time></trkpt>
<trkpt lat="46.77233" lon="6.46645"><ele>1582</ele><time>2016-11-01T12:10:44Z</time></trkpt>
<trkpt lat="46.77232" lon="6.46645"><ele>1581.8</ele><time>2016-11-01T12:10:47Z</time></trkpt>
<trkpt lat="46.77233" lon="6.46644"><ele>1582</ele><time>2016-11-01T12:11:15Z</time></trkpt>
<trkpt lat="46.77233" lon="6.46644"><ele>1582</ele><time>2016-11-01T12:11:16Z</time></trkpt>
<trkpt lat="46.77232" lon="6.46644"><ele>1581.8</ele><time>2016-11-01T12:11:30Z</time></trkpt>
<trkpt lat="46.77232" lon="6.46644"><ele>1582</ele><time>2016-11-01T12:11:49Z</time></trkpt>
<trkpt lat="46.77233" lon="6.46644"><ele>1582.2</ele><time>2016-11-01T12:12:11Z</time></trkpt>
<trkpt lat="46.77233" lon="6.46644"><ele>1582.2</ele><time>2016-11-01T12:12:20Z</time></trkpt>
<trkpt lat="46.77233" lon="6.46644"><ele>1582</ele><time>2016-11-01T12:12:29Z</time></trkpt>
<trkpt lat="46.77233" lon="6.46644"><ele>1581.4</ele><time>2016-11-01T12:12:41Z</time></trkpt>
<trkpt lat="46.77233" lon="6.46645"><ele>1580.8</ele><time>2016-11-01T12:12:58Z</time></trkpt>
<trkpt lat="46.77233" lon="6.46645"><ele>1580.8</ele><time>2016-11-01T12:13:00Z</time></trkpt>
<trkpt lat="46.77232" lon="6.46644"><ele>1581.2</ele><time>2016-11-01T12:13:28Z</time></trkpt>
<trkpt lat="46.77234" lon="6.46643"><ele>1581.4</ele><time>2016-11-01T12:13:47Z</time></trkpt>
<trkpt lat="46.77233" lon="6.46643"><ele>1581.8</ele><time>2016-11-01T12:13:52Z</time></trkpt>
<trkpt lat="46.77233" lon="6.46643"><ele>1582</ele><time>2016-11-01T12:13:55Z</time></trkpt>
<trkpt lat="46.77233" lon="6.46643"><ele>1582</ele><time>2016-11-01T12:13:59Z</time></trkpt>
<trkpt lat="46.77233" lon="6.46643"><ele>1581.8</ele><time>2016-11-01T12:14:03Z</time></trkpt>
<trkpt lat="46.77233" lon="6.46643"><ele>1582</ele><time>2016-11-01T12:14:06Z</time></trkpt>
<trkpt lat="46.77233" lon="6.46644"><ele>1582.4</ele><time>2016-11-01T12:14:25Z</time></trkpt>
<trkpt lat="46.77233" lon="6.46644"><ele>1582</ele><time>2016-11-01T12:14:39Z</time></trkpt>
<trkpt lat="46.77232" lon="6.46644"><ele>1582</ele><time>2016-11-01T12:14:44Z</time></trkpt>
<trkpt lat="46.77232" lon="6.46644"><ele>1582</ele><time>2016-11-01T12:14:45Z</time></trkpt>
<trkpt lat="46.77232" lon="6.46645"><ele>1581.8</ele><time>2016-11-01T12:14:55Z</time></trkpt>
<trkpt lat="46.77232" lon="6.46645"><ele>1581.8</ele><time>2016-11-01T12:14:59Z</time></trkpt>
<trkpt lat="46.77233" lon="6.46644"><ele>1581.8</ele><time>2016-11-01T12:15:05Z</time></trkpt>
<trkpt lat="46.77233" lon="6.46645"><ele>1581</ele><time>2016-11-01T12:15:22Z</time></trkpt>
<trkpt lat="46.77233" lon="6.46645"><ele>1581</ele><time>2016-11-01T12:15:24Z</time></trkpt>
<trkpt lat="46.77232" lon="6.46645"><ele>1581</ele><time>2016-11-01T12:15:29Z</time></trkpt>
<trkpt lat="46.77232" lon="6.46645"><ele>1581</ele><time>2016-11-01T12:15:34Z</time></trkpt>
<trkpt lat="46.77233" lon="6.46645"><ele>1581</ele><time>2016-11-01T12:15:36Z</time></trkpt>
<trkpt lat="46.77233" lon="6.46645"><ele>1581.2</ele><time>2016-11-01T12:15:37Z</time></trkpt>
<trkpt lat="46.77233" lon="6.46644"><ele>1581.2</ele><time>2016-11-01T12:15:46Z</time></trkpt>
<trkpt lat="46.77232" lon="6.46645"><ele>1581.4</ele><time>2016-11-01T12:16:02Z</time></trkpt>
<trkpt lat="46.77232" lon="6.46645"><ele>1581.4</ele><time>2016-11-01T12:16:05Z</time></trkpt>
<trkpt lat="46.77232" lon="6.46645"><ele>1581.6</ele><time>2016-11-01T12:16:26Z</time></trkpt>
<trkpt lat="46.77233" lon="6.46645"><ele>1581.6</ele><time>2016-11-01T12:16:28Z</time></trkpt>
<trkpt lat="46.77234" lon="6.46645"><ele>1581.4</ele><time>2016-11-01T12:16:55Z</time></trkpt>
<trkpt lat="46.77234" lon="6.46644"><ele>1582.2</ele><time>2016-11-01T12:17:12Z</time></trkpt>
<trkpt lat="46.77234" lon="6.46645"><ele>1581.8</ele><time>2016-11-01T12:17:17Z</time></trkpt>
<trkpt lat="46.77234" lon="6.46645"><ele>1582</ele><time>2016-11-01T12:17:24Z</time></trkpt>
<trkpt lat="46.77233" lon="6.46645"><ele>1581.2</ele><time>2016-11-01T12:17:36Z</time></trkpt>
<trkpt lat="46.77233" lon="6.46645"><ele>1581</ele><time>2016-11-01T12:17:43Z</time></trkpt>
<trkpt lat="46.77232" lon="6.46647"><ele>1580.8</ele><time>2016-11-01T12:17:45Z</time></trkpt>
<trkpt lat="46.77232" lon="6.46646"><ele>1580.6</ele><time>2016-11-01T12:17:49Z</time></trkpt>
<trkpt lat="46.77232" lon="6.46645"><ele>1580.8</ele><time>2016-11-01T12:18:00Z</time></trkpt>
<trkpt lat="46.77232" lon="6.46645"><ele>1580.8</ele><time>2016-11-01T12:18:04Z</time></trkpt>
<trkpt lat="46.77232" lon="6.46645"><ele>1580.8</ele><time>2016-11-01T12:18:07Z</time></trkpt>
<trkpt lat="46.77232" lon="6.46645"><ele>1581</ele><time>2016-11-01T12:18:09Z</time></trkpt>
<trkpt lat="46.77232" lon="6.46645"><ele>1581.2</ele><time>2016-11-01T12:18:16Z</time></trkpt>
<trkpt lat="46.77232" lon="6.46645"><ele>1581.2</ele><time>2016-11-01T12:18:18Z</time></trkpt>
<trkpt lat="46.77232" lon="6.46645"><ele>1581.2</ele><time>2016-11-01T12:18:20Z</time></trkpt>
<trkpt lat="46.77232" lon="6.46644"><ele>1581.4</ele><time>2016-11-01T12:18:29Z</time></trkpt>
<trkpt lat="46.77233" lon="6.46647"><ele>1581.6</ele><time>2016-11-01T12:18:50Z</time></trkpt>
<trkpt lat="46.77234" lon="6.46646"><ele>1581.6</ele><time>2016-11-01T12:19:01Z</time></trkpt>
<trkpt lat="46.77234" lon="6.46644"><ele>1581.2</ele><time>2016-11-01T12:19:19Z</time></trkpt>
<trkpt lat="46.77234" lon="6.46644"><ele>1581.2</ele><time>2016-11-01T12:19:20Z</time></trkpt>
<trkpt lat="46.77233" lon="6.46644"><ele>1581</ele><time>2016-11-01T12:19:29Z</time></trkpt>
<trkpt lat="46.77233" lon="6.46644"><ele>1581</ele><time>2016-11-01T12:19:32Z</time></trkpt>
<trkpt lat="46.77233" lon="6.46645"><ele>1581</ele><time>2016-11-01T12:19:35Z</time></trkpt>
<trkpt lat="46.77233" lon="6.46645"><ele>1581</ele><time>2016-11-01T12:19:37Z</time></trkpt>
<trkpt lat="46.77233" lon="6.46645"><ele>1581.2</ele><time>2016-11-01T12:19:42Z</time></trkpt>
<trkpt lat="46.77234" lon="6.46643"><ele>1581.4</ele><time>2016-11-01T12:19:53Z</time></trkpt>
<trkpt lat="46.77233" lon="6.46644"><ele>1581.6</ele><time>2016-11-01T12:20:01Z</time></trkpt>
<trkpt lat="46.77233" lon="6.46645"><ele>1581.6</ele><time>2016-11-01T12:20:14Z</time></trkpt>
<trkpt lat="46.77234" lon="6.46644"><ele>1581.8</ele><time>2016-11-01T12:20:25Z</time></trkpt>
<trkpt lat="46.77233" lon="6.46646"><ele>1582.4</ele><time>2016-11-01T12:20:56Z</time></trkpt>
<trkpt lat="46.77232" lon="6.46646"><ele>1582.4</ele><time>2016-11-01T12:21:04Z</time></trkpt>
<trkpt lat="46.77232" lon="6.46646"><ele>1582.2</ele><time>2016-11-01T12:21:14Z</time></trkpt>
<trkpt lat="46.77232" lon="6.46645"><ele>1582.4</ele><time>2016-11-01T12:21:22Z</time></trkpt>
<trkpt lat="46.77232" lon="6.46645"><ele>1582.4</ele><time>2016-11-01T12:21:31Z</time></trkpt>
<trkpt lat="46.77233" lon="6.46645"><ele>1582.6</ele><time>2016-11-01T12:22:00Z</time></trkpt>
<trkpt lat="46.77233" lon="6.46644"><ele>1582.4</ele><time>2016-11-01T12:22:05Z</time></trkpt>
<trkpt lat="46.77233" lon="6.46646"><ele>1582</ele><time>2016-11-01T12:22:24Z</time></trkpt>
<trkpt lat="46.77234" lon="6.46643"><ele>1582</ele><time>2016-11-01T12:23:00Z</time></trkpt>
<trkpt lat="46.77233" lon="6.46644"><ele>1582.4</ele><time>2016-11-01T12:23:20Z</time></trkpt>
<trkpt lat="46.77233" lon="6.46643"><ele>1582</ele><time>2016-11-01T12:23:25Z</time></trkpt>
<trkpt lat="46.77233" lon="6.46644"><ele>1581.6</ele><time>2016-11-01T12:23:33Z</time></trkpt>
<trkpt lat="46.77233" lon="6.46645"><ele>1581.6</ele><time>2016-11-01T12:23:35Z</time></trkpt>
<trkpt lat="46.77233" lon="6.46644"><ele>1581.6</ele><time>2016-11-01T12:23:36Z</time></trkpt>
<trkpt lat="46.77233" lon="6.46644"><ele>1581.6</ele><time>2016-11-01T12:23:38Z</time></trkpt>
<trkpt lat="46.77233" lon="6.46644"><ele>1581.6</ele><time>2016-11-01T12:23:41Z</time></trkpt>
<trkpt lat="46.77233" lon="6.46644"><ele>1581.2</ele><time>2016-11-01T12:23:58Z</time></trkpt>
<trkpt lat="46.77232" lon="6.46644"><ele>1581.2</ele><time>2016-11-01T12:24:16Z</time></trkpt>
<trkpt lat="46.77232" lon="6.46646"><ele>1582.2</ele><time>2016-11-01T12:24:44Z</time></trkpt>
<trkpt lat="46.77232" lon="6.46646"><ele>1582.2</ele><time>2016-11-01T12:24:48Z</time></trkpt>
<trkpt lat="46.77232" lon="6.46646"><ele>1582.2</ele><time>2016-11-01T12:24:52Z</time></trkpt>
<trkpt lat="46.77232" lon="6.46646"><ele>1582.2</ele><time>2016-11-01T12:24:56Z</time></trkpt>
<trkpt lat="46.77232" lon="6.46646"><ele>1582.2</ele><time>2016-11-01T12:25:07Z</time></trkpt>
<trkpt lat="46.77232" lon="6.46646"><ele>1582.2</ele><time>2016-11-01T12:25:09Z</time></trkpt>
<trkpt lat="46.77232" lon="6.46646"><ele>1582.2</ele><time>2016-11-01T12:25:11Z</time></trkpt>
<trkpt lat="46.77232" lon="6.46646"><ele>1582.2</ele><time>2016-11-01T12:25:15Z</time></trkpt>
<trkpt lat="46.77232" lon="6.46646"><ele>1582.2</ele><time>2016-11-01T12:25:18Z</time></trkpt>
<trkpt lat="46.77232" lon="6.46646"><ele>1582.2</ele><time>2016-11-01T12:25:20Z</time></trkpt>
<trkpt lat="46.77232" lon="6.46646"><ele>1582.2</ele><time>2016-11-01T12:25:21Z</time></trkpt>
<trkpt lat="46.77232" lon="6.46646"><ele>1582.2</ele><time>2016-11-01T12:25:25Z</time></trkpt>
<trkpt lat="46.77232" lon="6.46646"><ele>1582.2</ele><time>2016-11-01T12:25:27Z</time></trkpt>
<trkpt lat="46.77232" lon="6.46646"><ele>1582.4</ele><time>2016-11-01T12:25:31Z</time></trkpt>
<trkpt lat="46.77233" lon="6.46646"><ele>1582.4</ele><time>2016-11-01T12:25:41Z</time></trkpt>
<trkpt lat="46.77233" lon="6.46646"><ele>1582.6</ele><time>2016-11-01T12:25:45Z</time></trkpt>
<trkpt lat="46.77233" lon="6.46646"><ele>1582.6</ele><time>2016-11-01T12:25:48Z</time></trkpt>
<trkpt lat="46.77233" lon="6.46647"><ele>1582.8</ele><time>2016-11-01T12:26:06Z</time></trkpt>
<trkpt lat="46.77233" lon="6.46647"><ele>1582.8</ele><time>2016-11-01T12:26:12Z</time></trkpt>
<trkpt lat="46.77233" lon="6.46647"><ele>1583</ele><time>2016-11-01T12:26:16Z</time></trkpt>
<trkpt lat="46.77233" lon="6.46647"><ele>1583</ele><time>2016-11-01T12:26:18Z</time></trkpt>
<trkpt lat="46.77233" lon="6.46647"><ele>1583</ele><time>2016-11-01T12:26:21Z</time></trkpt>
<trkpt lat="46.77233" lon="6.46647"><ele>1583</ele><time>2016-11-01T12:26:23Z</time></trkpt>
<trkpt lat="46.77233" lon="6.46647"><ele>1583.2</ele><time>2016-11-01T12:26:30Z</time></trkpt>
<trkpt lat="46.77233" lon="6.46647"><ele>1583.2</ele><time>2016-11-01T12:26:35Z</time></trkpt>
<trkpt lat="46.77233" lon="6.46647"><ele>1583.4</ele><time>2016-11-01T12:26:48Z</time></trkpt>
<trkpt lat="46.77233" lon="6.46646"><ele>1583.2</ele><time>2016-11-01T12:26:59Z</time></trkpt>
<trkpt lat="46.77232" lon="6.46646"><ele>1583.4</ele><time>2016-11-01T12:27:12Z</time></trkpt>
<trkpt lat="46.77232" lon="6.46646"><ele>1583.4</ele><time>2016-11-01T12:27:13Z</time></trkpt>
<trkpt lat="46.77232" lon="6.46645"><ele>1583.4</ele><time>2016-11-01T12:27:18Z</time></trkpt>
<trkpt lat="46.77232" lon="6.46645"><ele>1583.8</ele><time>2016-11-01T12:27:48Z</time></trkpt>
<trkpt lat="46.77232" lon="6.46645"><ele>1583.6</ele><time>2016-11-01T12:27:52Z</time></trkpt>
<trkpt lat="46.77232" lon="6.46645"><ele>1583.4</ele><time>2016-11-01T12:27:55Z</time></trkpt>
<trkpt lat="46.77232" lon="6.46644"><ele>1583.2</ele><time>2016-11-01T12:28:00Z</time></trkpt>
<trkpt lat="46.77232" lon="6.46645"><ele>1583</ele><time>2016-11-01T12:28:12Z</time></trkpt>
<trkpt lat="46.77232" lon="6.46645"><ele>1583</ele><time>2016-11-01T12:28:15Z</time></trkpt>
<trkpt lat="46.77232" lon="6.46646"><ele>1582.8</ele><time>2016-11-01T12:28:36Z</time></trkpt>
<trkpt lat="46.77232" lon="6.46646"><ele>1582.8</ele><time>2016-11-01T12:28:39Z</time></trkpt>
<trkpt lat="46.77232" lon="6.46646"><ele>1582.8</ele><time>2016-11-01T12:28:50Z</time></trkpt>
<trkpt lat="46.77233" lon="6.46645"><ele>1582.6</ele><time>2016-11-01T12:29:02Z</time></trkpt>
<trkpt lat="46.77233" lon="6.46644"><ele>1582.4</ele><time>2016-11-01T12:29:08Z</time></trkpt>
<trkpt lat="46.77232" lon="6.46644"><ele>1582.2</ele><time>2016-11-01T12:29:15Z</time></trkpt>
<trkpt lat="46.77234" lon="6.46633"><ele>1582.4</ele><time>2016-11-01T12:29:34Z</time></trkpt>
<trkpt lat="46.77233" lon="6.46625"><ele>1582.6</ele><time>2016-11-01T12:29:42Z</time></trkpt>
<trkpt lat="46.77233" lon="6.46623"><ele>1582.8</ele><time>2016-11-01T12:29:44Z</time></trkpt>
<trkpt lat="46.77233" lon="6.46622"><ele>1583</ele><time>2016-11-01T12:29:45Z</time></trkpt>
<trkpt lat="46.77233" lon="6.46621"><ele>1582.6</ele><time>2016-11-01T12:30:00Z</time></trkpt>
<trkpt lat="46.77233" lon="6.46645"><ele>1580.8</ele><time>2016-11-01T12:30:23Z</time></trkpt>
<trkpt lat="46.77233" lon="6.46645"><ele>1580.4</ele><time>2016-11-01T12:30:30Z</time></trkpt>
<trkpt lat="46.77232" lon="6.46645"><ele>1580.4</ele><time>2016-11-01T12:30:38Z</time></trkpt>
<trkpt lat="46.77232" lon="6.46644"><ele>1580.8</ele><time>2016-11-01T12:30:48Z</time></trkpt>
<trkpt lat="46.77233" lon="6.46645"><ele>1581.2</ele><time>2016-11-01T12:31:08Z</time></trkpt>
<trkpt lat="46.77233" lon="6.46646"><ele>1581.6</ele><time>2016-11-01T12:31:17Z</time></trkpt>
<trkpt lat="46.77233" lon="6.46646"><ele>1581.6</ele><time>2016-11-01T12:31:21Z</time></trkpt>
<trkpt lat="46.77233" lon="6.46645"><ele>1581.8</ele><time>2016-11-01T12:31:34Z</time></trkpt>
<trkpt lat="46.77233" lon="6.46644"><ele>1581.6</ele><time>2016-11-01T12:31:57Z</time></trkpt>
<trkpt lat="46.77233" lon="6.46645"><ele>1581.4</ele><time>2016-11-01T12:32:09Z</time></trkpt>
<trkpt lat="46.77232" lon="6.46644"><ele>1581.6</ele><time>2016-11-01T12:32:27Z</time></trkpt>
<trkpt lat="46.77232" lon="6.46644"><ele>1582</ele><time>2016-11-01T12:32:35Z</time></trkpt>
<trkpt lat="46.77233" lon="6.46645"><ele>1582.2</ele><time>2016-11-01T12:32:48Z</time></trkpt>
<trkpt lat="46.77232" lon="6.46645"><ele>1583</ele><time>2016-11-01T12:33:21Z</time></trkpt>
<trkpt lat="46.77232" lon="6.46644"><ele>1583</ele><time>2016-11-01T12:33:24Z</time></trkpt>
<trkpt lat="46.77232" lon="6.46644"><ele>1583</ele><time>2016-11-01T12:33:26Z</time></trkpt>
<trkpt lat="46.77232" lon="6.46645"><ele>1583</ele><time>2016-11-01T12:33:34Z</time></trkpt>
<trkpt lat="46.77233" lon="6.46644"><ele>1583</ele><time>2016-11-01T12:33:39Z</time></trkpt>
<trkpt lat="46.77233" lon="6.46643"><ele>1582.8</ele><time>2016-11-01T12:33:42Z</time></trkpt>
<trkpt lat="46.77237" lon="6.46642"><ele>1582.6</ele><time>2016-11-01T12:33:49Z</time></trkpt>
<trkpt lat="46.77242" lon="6.46644"><ele>1582.8</ele><time>2016-11-01T12:33:54Z</time></trkpt>
<trkpt lat="46.77246" lon="6.46644"><ele>1583.4</ele><time>2016-11-01T12:33:58Z</time></trkpt>
<trkpt lat="46.77249" lon="6.46645"><ele>1583.2</ele><time>2016-11-01T12:34:02Z</time></trkpt>
<trkpt lat="46.77257" lon="6.46643"><ele>1580.6</ele><time>2016-11-01T12:34:11Z</time></trkpt>
<trkpt lat="46.77267" lon="6.46654"><ele>1579</ele><time>2016-11-01T12:34:25Z</time></trkpt>
<trkpt lat="46.77267" lon="6.46653"><ele>1579</ele><time>2016-11-01T12:34:29Z</time></trkpt>
<trkpt lat="46.77267" lon="6.46653"><ele>1579</ele><time>2016-11-01T12:34:32Z</time></trkpt>
<trkpt lat="46.77267" lon="6.46653"><ele>1578.8</ele><time>2016-11-01T12:34:37Z</time></trkpt>
<trkpt lat="46.77267" lon="6.46652"><ele>1579.2</ele><time>2016-11-01T12:35:26Z</time></trkpt>
<trkpt lat="46.7727" lon="6.4666"><ele>1577.6</ele><time>2016-11-01T12:35:37Z</time></trkpt>
<trkpt lat="46.7728" lon="6.46682"><ele>1577</ele><time>2016-11-01T12:35:46Z</time></trkpt>
<trkpt lat="46.77293" lon="6.46705"><ele>1577</ele><time>2016-11-01T12:35:53Z</time></trkpt>
<trkpt lat="46.77301" lon="6.46729"><ele>1576.4</ele><time>2016-11-01T12:36:00Z</time></trkpt>
<trkpt lat="46.77305" lon="6.46746"><ele>1575.4</ele><time>2016-11-01T12:36:04Z</time></trkpt>
<trkpt lat="46.77307" lon="6.46756"><ele>1574.8</ele><time>2016-11-01T12:36:06Z</time></trkpt>
<trkpt lat="46.77314" lon="6.46781"><ele>1573.2</ele><time>2016-11-01T12:36:10Z</time></trkpt>
<trkpt lat="46.7732" lon="6.46804"><ele>1571.8</ele><time>2016-11-01T12:36:13Z</time></trkpt>
<trkpt lat="46.77322" lon="6.46812"><ele>1571.6</ele><time>2016-11-01T12:36:14Z</time></trkpt>
<trkpt lat="46.77324" lon="6.46819"><ele>1571.6</ele><time>2016-11-01T12:36:15Z</time></trkpt>
<trkpt lat="46.77335" lon="6.46847"><ele>1572.2</ele><time>2016-11-01T12:36:21Z</time></trkpt>
<trkpt lat="46.77346" lon="6.46871"><ele>1572.8</ele><time>2016-11-01T12:36:28Z</time></trkpt>
<trkpt lat="46.77356" lon="6.46893"><ele>1572.4</ele><time>2016-11-01T12:36:34Z</time></trkpt>
<trkpt lat="46.77362" lon="6.46908"><ele>1571.8</ele><time>2016-11-01T12:36:37Z</time></trkpt>
<trkpt lat="46.77372" lon="6.46931"><ele>1570.6</ele><time>2016-11-01T12:36:41Z</time></trkpt>
<trkpt lat="46.77377" lon="6.46948"><ele>1569.6</ele><time>2016-11-01T12:36:44Z</time></trkpt>
<trkpt lat="46.7738" lon="6.46953"><ele>1569</ele><time>2016-11-01T12:36:45Z</time></trkpt>
<trkpt lat="46.77384" lon="6.4696"><ele>1568.2</ele><time>2016-11-01T12:36:47Z</time></trkpt>
<trkpt lat="46.7739" lon="6.46966"><ele>1567.4</ele><time>2016-11-01T12:36:51Z</time></trkpt>
<trkpt lat="46.77389" lon="6.46966"><ele>1567.8</ele><time>2016-11-01T12:36:54Z</time></trkpt>
<trkpt lat="46.77391" lon="6.46972"><ele>1567</ele><time>2016-11-01T12:37:04Z</time></trkpt>
<trkpt lat="46.77394" lon="6.46976"><ele>1565.4</ele><time>2016-11-01T12:37:10Z</time></trkpt>
<trkpt lat="46.77396" lon="6.46978"><ele>1564.8</ele><time>2016-11-01T12:37:13Z</time></trkpt>
<trkpt lat="46.77399" lon="6.46978"><ele>1564.2</ele><time>2016-11-01T12:37:16Z</time></trkpt>
<trkpt lat="46.77403" lon="6.46981"><ele>1563.4</ele><time>2016-11-01T12:37:20Z</time></trkpt>
<trkpt lat="46.77404" lon="6.46982"><ele>1563.2</ele><time>2016-11-01T12:37:22Z</time></trkpt>
<trkpt lat="46.77413" lon="6.46988"><ele>1561.6</ele><time>2016-11-01T12:37:27Z</time></trkpt>
<trkpt lat="46.77428" lon="6.46997"><ele>1559.6</ele><time>2016-11-01T12:37:32Z</time></trkpt>
<trkpt lat="46.77436" lon="6.47003"><ele>1558.2</ele><time>2016-11-01T12:37:35Z</time></trkpt>
<trkpt lat="46.77446" lon="6.47013"><ele>1555</ele><time>2016-11-01T12:37:41Z</time></trkpt>
<trkpt lat="46.77463" lon="6.47027"><ele>1552.4</ele><time>2016-11-01T12:37:47Z</time></trkpt>
<trkpt lat="46.77465" lon="6.47027"><ele>1552</ele><time>2016-11-01T12:37:48Z</time></trkpt>
<trkpt lat="46.77465" lon="6.47029"><ele>1552.2</ele><time>2016-11-01T12:37:56Z</time></trkpt>
<trkpt lat="46.77468" lon="6.47033"><ele>1552.2</ele><time>2016-11-01T12:38:07Z</time></trkpt>
<trkpt lat="46.77482" lon="6.47055"><ele>1551</ele><time>2016-11-01T12:38:17Z</time></trkpt>
<trkpt lat="46.77487" lon="6.47069"><ele>1548.8</ele><time>2016-11-01T12:38:20Z</time></trkpt>
<trkpt lat="46.77496" lon="6.47096"><ele>1545.8</ele><time>2016-11-01T12:38:24Z</time></trkpt>
<trkpt lat="46.77506" lon="6.47121"><ele>1543.6</ele><time>2016-11-01T12:38:28Z</time></trkpt>
<trkpt lat="46.77509" lon="6.47127"><ele>1543.4</ele><time>2016-11-01T12:38:29Z</time></trkpt>
<trkpt lat="46.77515" lon="6.47139"><ele>1542.6</ele><time>2016-11-01T12:38:32Z</time></trkpt>
<trkpt lat="46.7752" lon="6.47148"><ele>1541.8</ele><time>2016-11-01T12:38:34Z</time></trkpt>
<trkpt lat="46.77524" lon="6.4716"><ele>1541</ele><time>2016-11-01T12:38:38Z</time></trkpt>
<trkpt lat="46.77527" lon="6.47166"><ele>1540.2</ele><time>2016-11-01T12:38:41Z</time></trkpt>
<trkpt lat="46.77535" lon="6.47191"><ele>1538.4</ele><time>2016-11-01T12:39:01Z</time></trkpt>
<trkpt lat="46.77538" lon="6.47197"><ele>1538.6</ele><time>2016-11-01T12:39:04Z</time></trkpt>
<trkpt lat="46.77543" lon="6.47204"><ele>1539.6</ele><time>2016-11-01T12:39:12Z</time></trkpt>
<trkpt lat="46.77546" lon="6.4721"><ele>1539.6</ele><time>2016-11-01T12:39:17Z</time></trkpt>
<trkpt lat="46.77547" lon="6.4722"><ele>1538.8</ele><time>2016-11-01T12:39:27Z</time></trkpt>
<trkpt lat="46.77547" lon="6.47227"><ele>1537.8</ele><time>2016-11-01T12:39:39Z</time></trkpt>
<trkpt lat="46.77551" lon="6.47241"><ele>1537.2</ele><time>2016-11-01T12:39:47Z</time></trkpt>
<trkpt lat="46.77552" lon="6.47243"><ele>1537</ele><time>2016-11-01T12:39:48Z</time></trkpt>
<trkpt lat="46.77559" lon="6.47246"><ele>1537.4</ele><time>2016-11-01T12:39:55Z</time></trkpt>
<trkpt lat="46.77562" lon="6.47249"><ele>1538</ele><time>2016-11-01T12:39:59Z</time></trkpt>
<trkpt lat="46.77571" lon="6.47272"><ele>1536.2</ele><time>2016-11-01T12:40:14Z</time></trkpt>
<trkpt lat="46.77579" lon="6.47297"><ele>1532.6</ele><time>2016-11-01T12:40:30Z</time></trkpt>
<trkpt lat="46.77581" lon="6.47307"><ele>1532</ele><time>2016-11-01T12:40:35Z</time></trkpt>
<trkpt lat="46.77587" lon="6.47331"><ele>1527</ele><time>2016-11-01T12:40:53Z</time></trkpt>
<trkpt lat="46.7759" lon="6.47337"><ele>1526.2</ele><time>2016-11-01T12:40:58Z</time></trkpt>
<trkpt lat="46.77592" lon="6.4734"><ele>1526</ele><time>2016-11-01T12:41:01Z</time></trkpt>
<trkpt lat="46.77593" lon="6.47342"><ele>1525.8</ele><time>2016-11-01T12:41:02Z</time></trkpt>
<trkpt lat="46.77596" lon="6.47348"><ele>1525</ele><time>2016-11-01T12:41:07Z</time></trkpt>
<trkpt lat="46.77599" lon="6.47353"><ele>1524.4</ele><time>2016-11-01T12:41:13Z</time></trkpt>
<trkpt lat="46.77605" lon="6.47359"><ele>1522.8</ele><time>2016-11-01T12:41:20Z</time></trkpt>
<trkpt lat="46.77608" lon="6.47364"><ele>1521</ele><time>2016-11-01T12:41:27Z</time></trkpt>
<trkpt lat="46.77614" lon="6.47384"><ele>1519.4</ele><time>2016-11-01T12:41:36Z</time></trkpt>
<trkpt lat="46.77626" lon="6.47407"><ele>1515.2</ele><time>2016-11-01T12:41:43Z</time></trkpt>
<trkpt lat="46.77636" lon="6.4743"><ele>1508.4</ele><time>2016-11-01T12:41:51Z</time></trkpt>
<trkpt lat="46.7764" lon="6.47438"><ele>1506</ele><time>2016-11-01T12:41:55Z</time></trkpt>
<trkpt lat="46.77651" lon="6.47459"><ele>1500.4</ele><time>2016-11-01T12:42:03Z</time></trkpt>
<trkpt lat="46.7766" lon="6.47484"><ele>1495.4</ele><time>2016-11-01T12:42:10Z</time></trkpt>
<trkpt lat="46.77669" lon="6.47509"><ele>1490.4</ele><time>2016-11-01T12:42:17Z</time></trkpt>
<trkpt lat="46.77682" lon="6.47533"><ele>1487.6</ele><time>2016-11-01T12:42:24Z</time></trkpt>
<trkpt lat="46.77692" lon="6.47555"><ele>1484.6</ele><time>2016-11-01T12:42:33Z</time></trkpt>
<trkpt lat="46.777" lon="6.4758"><ele>1479.8</ele><time>2016-11-01T12:42:40Z</time></trkpt>
<trkpt lat="46.77708" lon="6.47603"><ele>1473</ele><time>2016-11-01T12:42:47Z</time></trkpt>
<trkpt lat="46.77718" lon="6.47627"><ele>1468</ele><time>2016-11-01T12:42:53Z</time></trkpt>
<trkpt lat="46.77729" lon="6.4765"><ele>1465.2</ele><time>2016-11-01T12:42:59Z</time></trkpt>
<trkpt lat="46.77742" lon="6.47676"><ele>1461.6</ele><time>2016-11-01T12:43:05Z</time></trkpt>
<trkpt lat="46.77753" lon="6.47702"><ele>1459.8</ele><time>2016-11-01T12:43:10Z</time></trkpt>
<trkpt lat="46.77755" lon="6.47707"><ele>1459.8</ele><time>2016-11-01T12:43:11Z</time></trkpt>
<trkpt lat="46.77759" lon="6.47714"><ele>1458.8</ele><time>2016-11-01T12:43:13Z</time></trkpt>
<trkpt lat="46.77775" lon="6.47741"><ele>1454.4</ele><time>2016-11-01T12:43:22Z</time></trkpt>
<trkpt lat="46.77785" lon="6.47764"><ele>1450.8</ele><time>2016-11-01T12:43:30Z</time></trkpt>
<trkpt lat="46.77794" lon="6.4779"><ele>1447.8</ele><time>2016-11-01T12:43:36Z</time></trkpt>
<trkpt lat="46.77803" lon="6.47804"><ele>1445.6</ele><time>2016-11-01T12:43:40Z</time></trkpt>
<trkpt lat="46.77808" lon="6.47813"><ele>1444</ele><time>2016-11-01T12:43:42Z</time></trkpt>
<trkpt lat="46.7781" lon="6.47817"><ele>1443.4</ele><time>2016-11-01T12:43:43Z</time></trkpt>
<trkpt lat="46.77814" lon="6.47827"><ele>1442</ele><time>2016-11-01T12:43:45Z</time></trkpt>
<trkpt lat="46.77826" lon="6.47853"><ele>1439.6</ele><time>2016-11-01T12:43:50Z</time></trkpt>
<trkpt lat="46.77832" lon="6.47864"><ele>1438.8</ele><time>2016-11-01T12:43:52Z</time></trkpt>
<trkpt lat="46.7784" lon="6.4788"><ele>1438</ele><time>2016-11-01T12:43:55Z</time></trkpt>
<trkpt lat="46.77847" lon="6.47894"><ele>1438.2</ele><time>2016-11-01T12:43:58Z</time></trkpt>
<trkpt lat="46.7785" lon="6.47902"><ele>1438</ele><time>2016-11-01T12:44:00Z</time></trkpt>
<trkpt lat="46.77851" lon="6.47906"><ele>1438</ele><time>2016-11-01T12:44:01Z</time></trkpt>
<trkpt lat="46.77852" lon="6.47909"><ele>1437.6</ele><time>2016-11-01T12:44:02Z</time></trkpt>
<trkpt lat="46.77853" lon="6.47912"><ele>1437.4</ele><time>2016-11-01T12:44:03Z</time></trkpt>
<trkpt lat="46.77862" lon="6.47927"><ele>1435.4</ele><time>2016-11-01T12:44:10Z</time></trkpt>
<trkpt lat="46.77867" lon="6.47939"><ele>1434.8</ele><time>2016-11-01T12:44:15Z</time></trkpt>
<trkpt lat="46.77871" lon="6.47945"><ele>1434.2</ele><time>2016-11-01T12:44:19Z</time></trkpt>
<trkpt lat="46.77871" lon="6.47946"><ele>1434.2</ele><time>2016-11-01T12:44:20Z</time></trkpt>
<trkpt lat="46.77876" lon="6.47956"><ele>1434</ele><time>2016-11-01T12:44:29Z</time></trkpt>
<trkpt lat="46.77881" lon="6.47964"><ele>1432.8</ele><time>2016-11-01T12:44:45Z</time></trkpt>
<trkpt lat="46.77883" lon="6.47965"><ele>1432.4</ele><time>2016-11-01T12:44:49Z</time></trkpt>
<trkpt lat="46.77889" lon="6.47975"><ele>1431.6</ele><time>2016-11-01T12:45:03Z</time></trkpt>
<trkpt lat="46.77893" lon="6.47983"><ele>1431</ele><time>2016-11-01T12:45:17Z</time></trkpt>
<trkpt lat="46.77898" lon="6.4799"><ele>1430.2</ele><time>2016-11-01T12:45:28Z</time></trkpt>
<trkpt lat="46.77899" lon="6.47991"><ele>1430.4</ele><time>2016-11-01T12:45:30Z</time></trkpt>
<trkpt lat="46.779" lon="6.47993"><ele>1430.2</ele><time>2016-11-01T12:45:33Z</time></trkpt>
<trkpt lat="46.77903" lon="6.47997"><ele>1429.6</ele><time>2016-11-01T12:45:42Z</time></trkpt>
<trkpt lat="46.77902" lon="6.47998"><ele>1429.2</ele><time>2016-11-01T12:45:45Z</time></trkpt>
<trkpt lat="46.77902" lon="6.48001"><ele>1428.8</ele><time>2016-11-01T12:45:51Z</time></trkpt>
<trkpt lat="46.77904" lon="6.48006"><ele>1428.2</ele><time>2016-11-01T12:45:56Z</time></trkpt>
<trkpt lat="46.77907" lon="6.48011"><ele>1427.6</ele><time>2016-11-01T12:46:00Z</time></trkpt>
<trkpt lat="46.77911" lon="6.48018"><ele>1426.6</ele><time>2016-11-01T12:46:04Z</time></trkpt>
<trkpt lat="46.77913" lon="6.48023"><ele>1425.8</ele><time>2016-11-01T12:46:07Z</time></trkpt>
<trkpt lat="46.77914" lon="6.48024"><ele>1425.4</ele><time>2016-11-01T12:46:08Z</time></trkpt>
<trkpt lat="46.77922" lon="6.48031"><ele>1421.6</ele><time>2016-11-01T12:46:18Z</time></trkpt>
<trkpt lat="46.77923" lon="6.48031"><ele>1421.2</ele><time>2016-11-01T12:46:19Z</time></trkpt>
<trkpt lat="46.77926" lon="6.48033"><ele>1419.6</ele><time>2016-11-01T12:46:23Z</time></trkpt>
<trkpt lat="46.77929" lon="6.4804"><ele>1417.8</ele><time>2016-11-01T12:46:27Z</time></trkpt>
<trkpt lat="46.77931" lon="6.48045"><ele>1416</ele><time>2016-11-01T12:46:31Z</time></trkpt>
<trkpt lat="46.7793" lon="6.48053"><ele>1414.6</ele><time>2016-11-01T12:46:35Z</time></trkpt>
<trkpt lat="46.77931" lon="6.48062"><ele>1412.8</ele><time>2016-11-01T12:46:40Z</time></trkpt>
<trkpt lat="46.77937" lon="6.48071"><ele>1410.8</ele><time>2016-11-01T12:46:46Z</time></trkpt>
<trkpt lat="46.7795" lon="6.48091"><ele>1407.4</ele><time>2016-11-01T12:46:59Z</time></trkpt>
<trkpt lat="46.77952" lon="6.48097"><ele>1406.6</ele><time>2016-11-01T12:47:02Z</time></trkpt>
<trkpt lat="46.77951" lon="6.481"><ele>1406</ele><time>2016-11-01T12:47:07Z</time></trkpt>
<trkpt lat="46.7796" lon="6.48113"><ele>1404.6</ele><time>2016-11-01T12:47:19Z</time></trkpt>
<trkpt lat="46.77969" lon="6.4813"><ele>1400.4</ele><time>2016-11-01T12:47:29Z</time></trkpt>
<trkpt lat="46.77972" lon="6.48139"><ele>1398</ele><time>2016-11-01T12:47:35Z</time></trkpt>
<trkpt lat="46.77973" lon="6.48142"><ele>1396.8</ele><time>2016-11-01T12:47:37Z</time></trkpt>
<trkpt lat="46.77977" lon="6.48166"><ele>1391.4</ele><time>2016-11-01T12:47:49Z</time></trkpt>
<trkpt lat="46.77977" lon="6.48168"><ele>1391.2</ele><time>2016-11-01T12:47:50Z</time></trkpt>
<trkpt lat="46.77978" lon="6.4817"><ele>1391.8</ele><time>2016-11-01T12:47:58Z</time></trkpt>
<trkpt lat="46.77991" lon="6.48189"><ele>1391.2</ele><time>2016-11-01T12:48:18Z</time></trkpt>
<trkpt lat="46.77994" lon="6.48195"><ele>1390.8</ele><time>2016-11-01T12:48:23Z</time></trkpt>
<trkpt lat="46.77999" lon="6.48209"><ele>1389.8</ele><time>2016-11-01T12:48:28Z</time></trkpt>
<trkpt lat="46.78002" lon="6.48217"><ele>1388.8</ele><time>2016-11-01T12:48:32Z</time></trkpt>
<trkpt lat="46.78008" lon="6.4822"><ele>1386.8</ele><time>2016-11-01T12:48:38Z</time></trkpt>
<trkpt lat="46.78013" lon="6.48235"><ele>1385</ele><time>2016-11-01T12:48:45Z</time></trkpt>
<trkpt lat="46.78022" lon="6.48255"><ele>1382</ele><time>2016-11-01T12:49:01Z</time></trkpt>
<trkpt lat="46.78024" lon="6.48261"><ele>1380.8</ele><time>2016-11-01T12:49:05Z</time></trkpt>
<trkpt lat="46.78029" lon="6.48281"><ele>1377.6</ele><time>2016-11-01T12:49:18Z</time></trkpt>
<trkpt lat="46.78031" lon="6.48287"><ele>1376.8</ele><time>2016-11-01T12:49:21Z</time></trkpt>
<trkpt lat="46.78032" lon="6.48289"><ele>1376.6</ele><time>2016-11-01T12:49:22Z</time></trkpt>
<trkpt lat="46.78038" lon="6.48308"><ele>1374.2</ele><time>2016-11-01T12:49:29Z</time></trkpt>
<trkpt lat="46.78038" lon="6.48311"><ele>1373.8</ele><time>2016-11-01T12:49:30Z</time></trkpt>
<trkpt lat="46.7804" lon="6.48321"><ele>1373</ele><time>2016-11-01T12:49:34Z</time></trkpt>
<trkpt lat="46.78047" lon="6.48322"><ele>1371</ele><time>2016-11-01T12:49:39Z</time></trkpt>
<trkpt lat="46.78055" lon="6.48319"><ele>1368.6</ele><time>2016-11-01T12:49:47Z</time></trkpt>
<trkpt lat="46.78058" lon="6.48328"><ele>1367</ele><time>2016-11-01T12:49:57Z</time></trkpt>
<trkpt lat="46.7807" lon="6.48338"><ele>1364.4</ele><time>2016-11-01T12:50:08Z</time></trkpt>
<trkpt lat="46.78075" lon="6.48352"><ele>1362.4</ele><time>2016-11-01T12:50:22Z</time></trkpt>
<trkpt lat="46.78081" lon="6.48357"><ele>1360.6</ele><time>2016-11-01T12:50:30Z</time></trkpt>
<trkpt lat="46.78083" lon="6.48368"><ele>1360</ele><time>2016-11-01T12:50:34Z</time></trkpt>
<trkpt lat="46.78086" lon="6.48374"><ele>1359.6</ele><time>2016-11-01T12:50:37Z</time></trkpt>
<trkpt lat="46.78093" lon="6.48386"><ele>1358.4</ele><time>2016-11-01T12:50:44Z</time></trkpt>
<trkpt lat="46.78094" lon="6.48387"><ele>1358.4</ele><time>2016-11-01T12:50:48Z</time></trkpt>
<trkpt lat="46.78099" lon="6.48396"><ele>1356.6</ele><time>2016-11-01T12:50:56Z</time></trkpt>
<trkpt lat="46.78106" lon="6.48409"><ele>1352.8</ele><time>2016-11-01T12:51:07Z</time></trkpt>
<trkpt lat="46.78107" lon="6.48411"><ele>1352.4</ele><time>2016-11-01T12:51:08Z</time></trkpt>
<trkpt lat="46.78109" lon="6.48417"><ele>1352.2</ele><time>2016-11-01T12:51:11Z</time></trkpt>
<trkpt lat="46.78114" lon="6.48426"><ele>1350.8</ele><time>2016-11-01T12:51:19Z</time></trkpt>
<trkpt lat="46.78114" lon="6.48427"><ele>1350.6</ele><time>2016-11-01T12:51:20Z</time></trkpt>
<trkpt lat="46.78119" lon="6.48437"><ele>1347.8</ele><time>2016-11-01T12:51:30Z</time></trkpt>
<trkpt lat="46.78121" lon="6.48441"><ele>1346.6</ele><time>2016-11-01T12:51:34Z</time></trkpt>
<trkpt lat="46.78128" lon="6.48462"><ele>1340.8</ele><time>2016-11-01T12:52:08Z</time></trkpt>
<trkpt lat="46.78129" lon="6.48462"><ele>1341</ele><time>2016-11-01T12:52:10Z</time></trkpt>
<trkpt lat="46.78129" lon="6.48463"><ele>1341</ele><time>2016-11-01T12:52:11Z</time></trkpt>
<trkpt lat="46.78132" lon="6.48471"><ele>1341.2</ele><time>2016-11-01T12:52:17Z</time></trkpt>
<trkpt lat="46.78132" lon="6.48471"><ele>1341.2</ele><time>2016-11-01T12:52:20Z</time></trkpt>
<trkpt lat="46.78131" lon="6.48478"><ele>1341.2</ele><time>2016-11-01T12:52:24Z</time></trkpt>
<trkpt lat="46.78132" lon="6.48485"><ele>1341.2</ele><time>2016-11-01T12:52:27Z</time></trkpt>
<trkpt lat="46.78136" lon="6.4849"><ele>1341.2</ele><time>2016-11-01T12:52:34Z</time></trkpt>
<trkpt lat="46.78138" lon="6.48499"><ele>1340.8</ele><time>2016-11-01T12:52:40Z</time></trkpt>
<trkpt lat="46.78138" lon="6.48501"><ele>1340.8</ele><time>2016-11-01T12:52:42Z</time></trkpt>
<trkpt lat="46.78136" lon="6.48512"><ele>1340.8</ele><time>2016-11-01T12:52:54Z</time></trkpt>
<trkpt lat="46.78138" lon="6.48518"><ele>1341</ele><time>2016-11-01T12:53:10Z</time></trkpt>
<trkpt lat="46.78138" lon="6.48519"><ele>1341.2</ele><time>2016-11-01T12:53:16Z</time></trkpt>
<trkpt lat="46.78141" lon="6.48527"><ele>1340.2</ele><time>2016-11-01T12:53:28Z</time></trkpt>
<trkpt lat="46.78144" lon="6.48529"><ele>1340</ele><time>2016-11-01T12:53:32Z</time></trkpt>
<trkpt lat="46.78146" lon="6.4853"><ele>1339.8</ele><time>2016-11-01T12:53:34Z</time></trkpt>
<trkpt lat="46.78147" lon="6.48531"><ele>1339.6</ele><time>2016-11-01T12:53:36Z</time></trkpt>
<trkpt lat="46.78148" lon="6.48533"><ele>1339.2</ele><time>2016-11-01T12:53:38Z</time></trkpt>
<trkpt lat="46.78151" lon="6.48541"><ele>1338.2</ele><time>2016-11-01T12:53:47Z</time></trkpt>
<trkpt lat="46.78156" lon="6.48551"><ele>1337</ele><time>2016-11-01T12:53:57Z</time></trkpt>
<trkpt lat="46.78157" lon="6.48553"><ele>1336.6</ele><time>2016-11-01T12:53:59Z</time></trkpt>
<trkpt lat="46.78166" lon="6.48572"><ele>1335.2</ele><time>2016-11-01T12:54:08Z</time></trkpt>
<trkpt lat="46.78171" lon="6.48577"><ele>1334.8</ele><time>2016-11-01T12:54:12Z</time></trkpt>
<trkpt lat="46.78174" lon="6.48582"><ele>1334.4</ele><time>2016-11-01T12:54:17Z</time></trkpt>
<trkpt lat="46.78175" lon="6.48585"><ele>1334.2</ele><time>2016-11-01T12:54:20Z</time></trkpt>
<trkpt lat="46.7818" lon="6.48602"><ele>1331.8</ele><time>2016-11-01T12:54:33Z</time></trkpt>
<trkpt lat="46.78179" lon="6.48607"><ele>1330.8</ele><time>2016-11-01T12:54:37Z</time></trkpt>
<trkpt lat="46.78179" lon="6.48608"><ele>1330.4</ele><time>2016-11-01T12:54:38Z</time></trkpt>
<trkpt lat="46.78181" lon="6.48614"><ele>1329.8</ele><time>2016-11-01T12:54:42Z</time></trkpt>
<trkpt lat="46.78182" lon="6.48617"><ele>1329</ele><time>2016-11-01T12:54:45Z</time></trkpt>
<trkpt lat="46.78183" lon="6.4862"><ele>1328</ele><time>2016-11-01T12:54:48Z</time></trkpt>
<trkpt lat="46.78186" lon="6.48625"><ele>1326.8</ele><time>2016-11-01T12:54:52Z</time></trkpt>
<trkpt lat="46.78187" lon="6.48629"><ele>1326.2</ele><time>2016-11-01T12:54:54Z</time></trkpt>
<trkpt lat="46.78187" lon="6.4863"><ele>1326</ele><time>2016-11-01T12:54:55Z</time></trkpt>
<trkpt lat="46.78188" lon="6.48631"><ele>1325.8</ele><time>2016-11-01T12:54:56Z</time></trkpt>
<trkpt lat="46.7819" lon="6.48635"><ele>1324.8</ele><time>2016-11-01T12:54:59Z</time></trkpt>
<trkpt lat="46.78191" lon="6.48636"><ele>1324.6</ele><time>2016-11-01T12:55:00Z</time></trkpt>
<trkpt lat="46.78198" lon="6.48652"><ele>1321.4</ele><time>2016-11-01T12:55:10Z</time></trkpt>
<trkpt lat="46.78198" lon="6.48653"><ele>1321</ele><time>2016-11-01T12:55:11Z</time></trkpt>
<trkpt lat="46.78202" lon="6.48661"><ele>1319.4</ele><time>2016-11-01T12:55:15Z</time></trkpt>
<trkpt lat="46.78203" lon="6.48662"><ele>1319</ele><time>2016-11-01T12:55:16Z</time></trkpt>
<trkpt lat="46.78206" lon="6.48672"><ele>1318</ele><time>2016-11-01T12:55:22Z</time></trkpt>
<trkpt lat="46.78211" lon="6.48682"><ele>1317.2</ele><time>2016-11-01T12:55:28Z</time></trkpt>
<trkpt lat="46.78211" lon="6.48695"><ele>1315.6</ele><time>2016-11-01T12:55:35Z</time></trkpt>
<trkpt lat="46.78218" lon="6.48718"><ele>1312.4</ele><time>2016-11-01T12:55:55Z</time></trkpt>
<trkpt lat="46.78218" lon="6.4872"><ele>1312.2</ele><time>2016-11-01T12:55:56Z</time></trkpt>
<trkpt lat="46.7822" lon="6.48722"><ele>1311.4</ele><time>2016-11-01T12:56:00Z</time></trkpt>
<trkpt lat="46.78221" lon="6.48723"><ele>1311</ele><time>2016-11-01T12:56:02Z</time></trkpt>
<trkpt lat="46.78229" lon="6.48732"><ele>1308.2</ele><time>2016-11-01T12:56:13Z</time></trkpt>
<trkpt lat="46.7823" lon="6.48734"><ele>1307.8</ele><time>2016-11-01T12:56:15Z</time></trkpt>
<trkpt lat="46.78231" lon="6.48736"><ele>1307.4</ele><time>2016-11-01T12:56:16Z</time></trkpt>
<trkpt lat="46.78233" lon="6.4874"><ele>1306.4</ele><time>2016-11-01T12:56:20Z</time></trkpt>
<trkpt lat="46.78237" lon="6.4875"><ele>1304.2</ele><time>2016-11-01T12:56:28Z</time></trkpt>
<trkpt lat="46.78239" lon="6.48753"><ele>1303.4</ele><time>2016-11-01T12:56:31Z</time></trkpt>
<trkpt lat="46.7824" lon="6.48758"><ele>1302.2</ele><time>2016-11-01T12:56:35Z</time></trkpt>
<trkpt lat="46.78246" lon="6.48772"><ele>1299</ele><time>2016-11-01T12:56:46Z</time></trkpt>
<trkpt lat="46.7825" lon="6.48774"><ele>1297</ele><time>2016-11-01T12:56:52Z</time></trkpt>
<trkpt lat="46.78254" lon="6.48787"><ele>1293.8</ele><time>2016-11-01T12:57:03Z</time></trkpt>
<trkpt lat="46.78263" lon="6.48797"><ele>1291</ele><time>2016-11-01T12:57:13Z</time></trkpt>
<trkpt lat="46.78265" lon="6.488"><ele>1290</ele><time>2016-11-01T12:57:16Z</time></trkpt>
<trkpt lat="46.7827" lon="6.48802"><ele>1289</ele><time>2016-11-01T12:57:19Z</time></trkpt>
<trkpt lat="46.7828" lon="6.48818"><ele>1285.4</ele><time>2016-11-01T12:57:31Z</time></trkpt>
<trkpt lat="46.7829" lon="6.48839"><ele>1280.6</ele><time>2016-11-01T12:57:50Z</time></trkpt>
<trkpt lat="46.78291" lon="6.48841"><ele>1279.8</ele><time>2016-11-01T12:57:53Z</time></trkpt>
<trkpt lat="46.78292" lon="6.48841"><ele>1279.6</ele><time>2016-11-01T12:57:54Z</time></trkpt>
<trkpt lat="46.78296" lon="6.48849"><ele>1277.4</ele><time>2016-11-01T12:58:09Z</time></trkpt>
<trkpt lat="46.78301" lon="6.48855"><ele>1276.6</ele><time>2016-11-01T12:58:17Z</time></trkpt>
<trkpt lat="46.78301" lon="6.48858"><ele>1276.2</ele><time>2016-11-01T12:58:19Z</time></trkpt>
<trkpt lat="46.78308" lon="6.4887"><ele>1274.6</ele><time>2016-11-01T12:58:31Z</time></trkpt>
<trkpt lat="46.7831" lon="6.48873"><ele>1274</ele><time>2016-11-01T12:58:35Z</time></trkpt>
<trkpt lat="46.78315" lon="6.4888"><ele>1272.8</ele><time>2016-11-01T12:58:43Z</time></trkpt>
<trkpt lat="46.7832" lon="6.489"><ele>1270</ele><time>2016-11-01T12:59:00Z</time></trkpt>
<trkpt lat="46.78321" lon="6.48901"><ele>1269.8</ele><time>2016-11-01T12:59:02Z</time></trkpt>
<trkpt lat="46.78322" lon="6.48902"><ele>1269.6</ele><time>2016-11-01T12:59:03Z</time></trkpt>
<trkpt lat="46.78324" lon="6.48908"><ele>1268.6</ele><time>2016-11-01T12:59:09Z</time></trkpt>
<trkpt lat="46.78326" lon="6.48916"><ele>1267.6</ele><time>2016-11-01T12:59:15Z</time></trkpt>
<trkpt lat="46.78329" lon="6.48921"><ele>1266.4</ele><time>2016-11-01T12:59:20Z</time></trkpt>
<trkpt lat="46.78329" lon="6.48922"><ele>1266.2</ele><time>2016-11-01T12:59:21Z</time></trkpt>
<trkpt lat="46.7833" lon="6.48923"><ele>1266</ele><time>2016-11-01T12:59:22Z</time></trkpt>
<trkpt lat="46.78331" lon="6.48924"><ele>1265.8</ele><time>2016-11-01T12:59:23Z</time></trkpt>
<trkpt lat="46.78333" lon="6.4893"><ele>1264.2</ele><time>2016-11-01T12:59:36Z</time></trkpt>
<trkpt lat="46.78333" lon="6.48934"><ele>1264</ele><time>2016-11-01T12:59:38Z</time></trkpt>
<trkpt lat="46.78337" lon="6.4894"><ele>1263.2</ele><time>2016-11-01T12:59:44Z</time></trkpt>
<trkpt lat="46.78339" lon="6.48944"><ele>1263</ele><time>2016-11-01T12:59:47Z</time></trkpt>
<trkpt lat="46.78339" lon="6.48945"><ele>1262.8</ele><time>2016-11-01T12:59:48Z</time></trkpt>
<trkpt lat="46.78348" lon="6.48969"><ele>1260.4</ele><time>2016-11-01T13:00:06Z</time></trkpt>
<trkpt lat="46.78353" lon="6.48985"><ele>1259.2</ele><time>2016-11-01T13:00:14Z</time></trkpt>
<trkpt lat="46.78354" lon="6.48991"><ele>1258.6</ele><time>2016-11-01T13:00:19Z</time></trkpt>
<trkpt lat="46.78359" lon="6.49009"><ele>1257</ele><time>2016-11-01T13:00:28Z</time></trkpt>
<trkpt lat="46.78363" lon="6.49017"><ele>1256.2</ele><time>2016-11-01T13:00:33Z</time></trkpt>
<trkpt lat="46.78361" lon="6.4902"><ele>1255.2</ele><time>2016-11-01T13:00:37Z</time></trkpt>
<trkpt lat="46.78363" lon="6.49028"><ele>1253.8</ele><time>2016-11-01T13:00:42Z</time></trkpt>
<trkpt lat="46.7837" lon="6.49034"><ele>1252.4</ele><time>2016-11-01T13:00:48Z</time></trkpt>
<trkpt lat="46.7838" lon="6.49036"><ele>1250.4</ele><time>2016-11-01T13:00:58Z</time></trkpt>
<trkpt lat="46.7838" lon="6.49034"><ele>1249.8</ele><time>2016-11-01T13:01:00Z</time></trkpt>
<trkpt lat="46.78378" lon="6.49036"><ele>1247.4</ele><time>2016-11-01T13:01:20Z</time></trkpt>
<trkpt lat="46.78376" lon="6.49039"><ele>1247.2</ele><time>2016-11-01T13:01:22Z</time></trkpt>
<trkpt lat="46.78375" lon="6.49039"><ele>1247</ele><time>2016-11-01T13:01:23Z</time></trkpt>
<trkpt lat="46.78376" lon="6.49038"><ele>1245.8</ele><time>2016-11-01T13:02:00Z</time></trkpt>
<trkpt lat="46.78375" lon="6.49035"><ele>1242.2</ele><time>2016-11-01T13:02:36Z</time></trkpt>
<trkpt lat="46.78375" lon="6.49035"><ele>1242</ele><time>2016-11-01T13:02:44Z</time></trkpt>
<trkpt lat="46.78376" lon="6.49037"><ele>1242.4</ele><time>2016-11-01T13:03:11Z</time></trkpt>
<trkpt lat="46.78377" lon="6.49039"><ele>1242.8</ele><time>2016-11-01T13:03:39Z</time></trkpt>
<trkpt lat="46.78382" lon="6.49019"><ele>1242</ele><time>2016-11-01T13:04:00Z</time></trkpt>
<trkpt lat="46.78378" lon="6.48984"><ele>1239.6</ele><time>2016-11-01T13:04:07Z</time></trkpt>
<trkpt lat="46.78373" lon="6.48953"><ele>1237.2</ele><time>2016-11-01T13:04:11Z</time></trkpt>
<trkpt lat="46.7837" lon="6.48925"><ele>1235</ele><time>2016-11-01T13:04:14Z</time></trkpt>
<trkpt lat="46.78367" lon="6.48897"><ele>1232.8</ele><time>2016-11-01T13:04:17Z</time></trkpt>
<trkpt lat="46.78365" lon="6.48877"><ele>1230.6</ele><time>2016-11-01T13:04:19Z</time></trkpt>
<trkpt lat="46.78361" lon="6.48847"><ele>1227.8</ele><time>2016-11-01T13:04:22Z</time></trkpt>
<trkpt lat="46.78355" lon="6.48815"><ele>1225</ele><time>2016-11-01T13:04:25Z</time></trkpt>
<trkpt lat="46.78353" lon="6.48782"><ele>1222.2</ele><time>2016-11-01T13:04:28Z</time></trkpt>
<trkpt lat="46.78351" lon="6.48754"><ele>1219.2</ele><time>2016-11-01T13:04:31Z</time></trkpt>
<trkpt lat="46.78352" lon="6.4872"><ele>1216</ele><time>2016-11-01T13:04:35Z</time></trkpt>
<trkpt lat="46.78351" lon="6.48676"><ele>1210</ele><time>2016-11-01T13:04:40Z</time></trkpt>
<trkpt lat="46.7835" lon="6.48648"><ele>1206.2</ele><time>2016-11-01T13:04:43Z</time></trkpt>
<trkpt lat="46.78349" lon="6.48627"><ele>1203.8</ele><time>2016-11-01T13:04:45Z</time></trkpt>
<trkpt lat="46.7835" lon="6.48597"><ele>1200.4</ele><time>2016-11-01T13:04:48Z</time></trkpt>
<trkpt lat="46.78352" lon="6.48567"><ele>1196.8</ele><time>2016-11-01T13:04:51Z</time></trkpt>
<trkpt lat="46.78351" lon="6.48539"><ele>1192.6</ele><time>2016-11-01T13:04:54Z</time></trkpt>
<trkpt lat="46.78351" lon="6.48525"><ele>1190.4</ele><time>2016-11-01T13:04:56Z</time></trkpt>
<trkpt lat="46.78353" lon="6.4852"><ele>1189.2</ele><time>2016-11-01T13:04:57Z</time></trkpt>
<trkpt lat="46.78359" lon="6.48517"><ele>1187</ele><time>2016-11-01T13:05:00Z</time></trkpt>
<trkpt lat="46.78367" lon="6.48541"><ele>1182.6</ele><time>2016-11-01T13:05:05Z</time></trkpt>
<trkpt lat="46.78372" lon="6.48562"><ele>1180.4</ele><time>2016-11-01T13:05:08Z</time></trkpt>
<trkpt lat="46.78382" lon="6.48592"><ele>1178.2</ele><time>2016-11-01T13:05:12Z</time></trkpt>
<trkpt lat="46.78389" lon="6.4862"><ele>1176.4</ele><time>2016-11-01T13:05:15Z</time></trkpt>
<trkpt lat="46.78396" lon="6.48651"><ele>1174.2</ele><time>2016-11-01T13:05:18Z</time></trkpt>
<trkpt lat="46.78405" lon="6.48685"><ele>1172.6</ele><time>2016-11-01T13:05:21Z</time></trkpt>
<trkpt lat="46.78413" lon="6.48717"><ele>1169.6</ele><time>2016-11-01T13:05:24Z</time></trkpt>
<trkpt lat="46.78419" lon="6.48738"><ele>1167.6</ele><time>2016-11-01T13:05:26Z</time></trkpt>
<trkpt lat="46.78432" lon="6.48768"><ele>1164.6</ele><time>2016-11-01T13:05:29Z</time></trkpt>
<trkpt lat="46.78447" lon="6.48796"><ele>1162.2</ele><time>2016-11-01T13:05:32Z</time></trkpt>
<trkpt lat="46.78464" lon="6.4882"><ele>1158.4</ele><time>2016-11-01T13:05:35Z</time></trkpt>
<trkpt lat="46.78482" lon="6.48842"><ele>1155</ele><time>2016-11-01T13:05:38Z</time></trkpt>
<trkpt lat="46.78487" lon="6.4885"><ele>1153.8</ele><time>2016-11-01T13:05:39Z</time></trkpt>
<trkpt lat="46.78498" lon="6.48872"><ele>1150.2</ele><time>2016-11-01T13:05:42Z</time></trkpt>
<trkpt lat="46.78501" lon="6.4888"><ele>1148.2</ele><time>2016-11-01T13:05:44Z</time></trkpt>
<trkpt lat="46.785" lon="6.48886"><ele>1148.4</ele><time>2016-11-01T13:05:48Z</time></trkpt>
<trkpt lat="46.785" lon="6.48885"><ele>1149.4</ele><time>2016-11-01T13:05:55Z</time></trkpt>
<trkpt lat="46.78501" lon="6.48883"><ele>1150.8</ele><time>2016-11-01T13:06:30Z</time></trkpt>
<trkpt lat="46.785" lon="6.48883"><ele>1150.8</ele><time>2016-11-01T13:06:36Z</time></trkpt>
<trkpt lat="46.785" lon="6.48882"><ele>1150.8</ele><time>2016-11-01T13:06:37Z</time></trkpt>
<trkpt lat="46.785" lon="6.48881"><ele>1151</ele><time>2016-11-01T13:06:40Z</time></trkpt>
<trkpt lat="46.78499" lon="6.48883"><ele>1150.8</ele><time>2016-11-01T13:06:49Z</time></trkpt>
<trkpt lat="46.78499" lon="6.48884"><ele>1150.8</ele><time>2016-11-01T13:06:51Z</time></trkpt>
<trkpt lat="46.78499" lon="6.48884"><ele>1151.2</ele><time>2016-11-01T13:06:56Z</time></trkpt>
<trkpt lat="46.78499" lon="6.48883"><ele>1151.4</ele><time>2016-11-01T13:07:03Z</time></trkpt>
<trkpt lat="46.78501" lon="6.48882"><ele>1151.4</ele><time>2016-11-01T13:07:25Z</time></trkpt>
<trkpt lat="46.78502" lon="6.48881"><ele>1151.8</ele><time>2016-11-01T13:07:39Z</time></trkpt>
<trkpt lat="46.78502" lon="6.48882"><ele>1151.8</ele><time>2016-11-01T13:07:40Z</time></trkpt>
<trkpt lat="46.78502" lon="6.48885"><ele>1152</ele><time>2016-11-01T13:07:50Z</time></trkpt>
<trkpt lat="46.78502" lon="6.48885"><ele>1152</ele><time>2016-11-01T13:07:52Z</time></trkpt>
<trkpt lat="46.78501" lon="6.48886"><ele>1152.4</ele><time>2016-11-01T13:08:00Z</time></trkpt>
<trkpt lat="46.78501" lon="6.48886"><ele>1152.6</ele><time>2016-11-01T13:08:04Z</time></trkpt>
<trkpt lat="46.78501" lon="6.48886"><ele>1152.8</ele><time>2016-11-01T13:08:07Z</time></trkpt>
<trkpt lat="46.78499" lon="6.48883"><ele>1153.6</ele><time>2016-11-01T13:08:43Z</time></trkpt>
<trkpt lat="46.78499" lon="6.48885"><ele>1153.8</ele><time>2016-11-01T13:08:53Z</time></trkpt>
<trkpt lat="46.78499" lon="6.48885"><ele>1153.8</ele><time>2016-11-01T13:09:01Z</time></trkpt>
<trkpt lat="46.785" lon="6.48883"><ele>1154.2</ele><time>2016-11-01T13:09:28Z</time></trkpt>
<trkpt lat="46.785" lon="6.48884"><ele>1154.8</ele><time>2016-11-01T13:09:45Z</time></trkpt>
<trkpt lat="46.78502" lon="6.48882"><ele>1154.8</ele><time>2016-11-01T13:10:32Z</time></trkpt>
<trkpt lat="46.78504" lon="6.48882"><ele>1155.4</ele><time>2016-11-01T13:10:49Z</time></trkpt>
<trkpt lat="46.78504" lon="6.48882"><ele>1155.6</ele><time>2016-11-01T13:10:56Z</time></trkpt>
<trkpt lat="46.78502" lon="6.48883"><ele>1154.8</ele><time>2016-11-01T13:11:39Z</time></trkpt>
<trkpt lat="46.78506" lon="6.48895"><ele>1153.8</ele><time>2016-11-01T13:11:56Z</time></trkpt>
<trkpt lat="46.78515" lon="6.48918"><ele>1151.2</ele><time>2016-11-01T13:12:01Z</time></trkpt>
<trkpt lat="46.78526" lon="6.48947"><ele>1148</ele><time>2016-11-01T13:12:06Z</time></trkpt>
<trkpt lat="46.78537" lon="6.48975"><ele>1144.2</ele><time>2016-11-01T13:12:10Z</time></trkpt>
<trkpt lat="46.78549" lon="6.49003"><ele>1141</ele><time>2016-11-01T13:12:14Z</time></trkpt>
<trkpt lat="46.78562" lon="6.49033"><ele>1138.2</ele><time>2016-11-01T13:12:18Z</time></trkpt>
<trkpt lat="46.7857" lon="6.49051"><ele>1136.8</ele><time>2016-11-01T13:12:20Z</time></trkpt>
<trkpt lat="46.78582" lon="6.49079"><ele>1134.4</ele><time>2016-11-01T13:12:23Z</time></trkpt>
<trkpt lat="46.78594" lon="6.4911"><ele>1131</ele><time>2016-11-01T13:12:26Z</time></trkpt>
<trkpt lat="46.78607" lon="6.4914"><ele>1127.8</ele><time>2016-11-01T13:12:29Z</time></trkpt>
<trkpt lat="46.78619" lon="6.49169"><ele>1124</ele><time>2016-11-01T13:12:32Z</time></trkpt>
<trkpt lat="46.78633" lon="6.49197"><ele>1120.4</ele><time>2016-11-01T13:12:35Z</time></trkpt>
<trkpt lat="46.78646" lon="6.49224"><ele>1116.8</ele><time>2016-11-01T13:12:38Z</time></trkpt>
<trkpt lat="46.7866" lon="6.49252"><ele>1113.6</ele><time>2016-11-01T13:12:41Z</time></trkpt>
<trkpt lat="46.78674" lon="6.49282"><ele>1110.4</ele><time>2016-11-01T13:12:44Z</time></trkpt>
<trkpt lat="46.78684" lon="6.49314"><ele>1106.4</ele><time>2016-11-01T13:12:47Z</time></trkpt>
<trkpt lat="46.78694" lon="6.49346"><ele>1102.6</ele><time>2016-11-01T13:12:50Z</time></trkpt>
<trkpt lat="46.787" lon="6.49366"><ele>1100.2</ele><time>2016-11-01T13:12:52Z</time></trkpt>
<trkpt lat="46.78707" lon="6.49397"><ele>1097.4</ele><time>2016-11-01T13:12:55Z</time></trkpt>
<trkpt lat="46.7871" lon="6.49417"><ele>1094.8</ele><time>2016-11-01T13:12:57Z</time></trkpt>
<trkpt lat="46.78716" lon="6.49448"><ele>1091</ele><time>2016-11-01T13:13:00Z</time></trkpt>
<trkpt lat="46.78722" lon="6.4948"><ele>1087.8</ele><time>2016-11-01T13:13:03Z</time></trkpt>
<trkpt lat="46.78727" lon="6.49512"><ele>1084.2</ele><time>2016-11-01T13:13:06Z</time></trkpt>
<trkpt lat="46.7873" lon="6.49546"><ele>1080.4</ele><time>2016-11-01T13:13:09Z</time></trkpt>
<trkpt lat="46.78736" lon="6.4958"><ele>1076</ele><time>2016-11-01T13:13:12Z</time></trkpt>
<trkpt lat="46.78745" lon="6.49614"><ele>1071.2</ele><time>2016-11-01T13:13:15Z</time></trkpt>
<trkpt lat="46.78751" lon="6.49637"><ele>1068.4</ele><time>2016-11-01T13:13:17Z</time></trkpt>
<trkpt lat="46.78759" lon="6.49672"><ele>1064.4</ele><time>2016-11-01T13:13:20Z</time></trkpt>
<trkpt lat="46.78768" lon="6.49705"><ele>1061.4</ele><time>2016-11-01T13:13:23Z</time></trkpt>
<trkpt lat="46.78776" lon="6.49735"><ele>1057.6</ele><time>2016-11-01T13:13:26Z</time></trkpt>
<trkpt lat="46.78781" lon="6.49751"><ele>1055.6</ele><time>2016-11-01T13:13:28Z</time></trkpt>
<trkpt lat="46.78785" lon="6.49779"><ele>1053.8</ele><time>2016-11-01T13:13:32Z</time></trkpt>
<trkpt lat="46.7878" lon="6.49796"><ele>1051.8</ele><time>2016-11-01T13:13:35Z</time></trkpt>
<trkpt lat="46.78774" lon="6.4981"><ele>1049.4</ele><time>2016-11-01T13:13:38Z</time></trkpt>
<trkpt lat="46.78785" lon="6.49828"><ele>1048.4</ele><time>2016-11-01T13:13:45Z</time></trkpt>
<trkpt lat="46.78803" lon="6.49819"><ele>1047</ele><time>2016-11-01T13:13:50Z</time></trkpt>
<trkpt lat="46.78818" lon="6.49803"><ele>1044.4</ele><time>2016-11-01T13:13:53Z</time></trkpt>
<trkpt lat="46.78828" lon="6.49781"><ele>1042</ele><time>2016-11-01T13:13:56Z</time></trkpt>
<trkpt lat="46.78832" lon="6.49765"><ele>1040.6</ele><time>2016-11-01T13:13:58Z</time></trkpt>
<trkpt lat="46.78838" lon="6.49753"><ele>1040.2</ele><time>2016-11-01T13:14:04Z</time></trkpt>
<trkpt lat="46.78855" lon="6.49744"><ele>1040.4</ele><time>2016-11-01T13:14:18Z</time></trkpt>
<trkpt lat="46.78875" lon="6.49746"><ele>1038.6</ele><time>2016-11-01T13:14:21Z</time></trkpt>
<trkpt lat="46.78883" lon="6.49746"><ele>1037.8</ele><time>2016-11-01T13:14:22Z</time></trkpt>
<trkpt lat="46.78902" lon="6.49733"><ele>1035.8</ele><time>2016-11-01T13:14:25Z</time></trkpt>
<trkpt lat="46.78918" lon="6.49708"><ele>1033.2</ele><time>2016-11-01T13:14:28Z</time></trkpt>
<trkpt lat="46.78933" lon="6.49686"><ele>1031.2</ele><time>2016-11-01T13:14:31Z</time></trkpt>
<trkpt lat="46.78938" lon="6.49679"><ele>1030.6</ele><time>2016-11-01T13:14:32Z</time></trkpt>
<trkpt lat="46.78944" lon="6.49673"><ele>1030.2</ele><time>2016-11-01T13:14:33Z</time></trkpt>
<trkpt lat="46.78964" lon="6.49674"><ele>1028</ele><time>2016-11-01T13:14:36Z</time></trkpt>
<trkpt lat="46.78982" lon="6.49694"><ele>1024.6</ele><time>2016-11-01T13:14:39Z</time></trkpt>
<trkpt lat="46.78992" lon="6.49712"><ele>1022.2</ele><time>2016-11-01T13:14:41Z</time></trkpt>
<trkpt lat="46.79007" lon="6.4974"><ele>1019.6</ele><time>2016-11-01T13:14:44Z</time></trkpt>
<trkpt lat="46.79011" lon="6.4975"><ele>1019.2</ele><time>2016-11-01T13:14:45Z</time></trkpt>
<trkpt lat="46.79022" lon="6.49784"><ele>1017.4</ele><time>2016-11-01T13:14:48Z</time></trkpt>
<trkpt lat="46.79032" lon="6.4982"><ele>1014.4</ele><time>2016-11-01T13:14:51Z</time></trkpt>
<trkpt lat="46.79036" lon="6.49831"><ele>1013.4</ele><time>2016-11-01T13:14:52Z</time></trkpt>
<trkpt lat="46.79045" lon="6.49851"><ele>1012.2</ele><time>2016-11-01T13:14:54Z</time></trkpt>
<trkpt lat="46.79063" lon="6.49877"><ele>1010.4</ele><time>2016-11-01T13:14:57Z</time></trkpt>
<trkpt lat="46.79079" lon="6.499"><ele>1008.4</ele><time>2016-11-01T13:15:00Z</time></trkpt>
<trkpt lat="46.79096" lon="6.49904"><ele>1006.4</ele><time>2016-11-01T13:15:03Z</time></trkpt>
<trkpt lat="46.79102" lon="6.49902"><ele>1006</ele><time>2016-11-01T13:15:04Z</time></trkpt>
<trkpt lat="46.79108" lon="6.499"><ele>1005.8</ele><time>2016-11-01T13:15:05Z</time></trkpt>
<trkpt lat="46.7913" lon="6.49908"><ele>1006.2</ele><time>2016-11-01T13:15:09Z</time></trkpt>
<trkpt lat="46.79135" lon="6.49916"><ele>1005.4</ele><time>2016-11-01T13:15:11Z</time></trkpt>
<trkpt lat="46.79137" lon="6.49919"><ele>1005.6</ele><time>2016-11-01T13:15:12Z</time></trkpt>
<trkpt lat="46.79151" lon="6.4994"><ele>1002.8</ele><time>2016-11-01T13:15:23Z</time></trkpt>
<trkpt lat="46.79153" lon="6.49953"><ele>1001.8</ele><time>2016-11-01T13:15:25Z</time></trkpt>
<trkpt lat="46.79138" lon="6.49985"><ele>998.8</ele><time>2016-11-01T13:15:29Z</time></trkpt>
<trkpt lat="46.79135" lon="6.49995"><ele>998.4</ele><time>2016-11-01T13:15:30Z</time></trkpt>
<trkpt lat="46.79142" lon="6.50032"><ele>995</ele><time>2016-11-01T13:15:33Z</time></trkpt>
<trkpt lat="46.79161" lon="6.5006"><ele>992.6</ele><time>2016-11-01T13:15:36Z</time></trkpt>
<trkpt lat="46.79178" lon="6.5007"><ele>991.2</ele><time>2016-11-01T13:15:38Z</time></trkpt>
<trkpt lat="46.79197" lon="6.50073"><ele>989.2</ele><time>2016-11-01T13:15:40Z</time></trkpt>
<trkpt lat="46.79208" lon="6.50074"><ele>987.8</ele><time>2016-11-01T13:15:41Z</time></trkpt>
<trkpt lat="46.79218" lon="6.50077"><ele>986.8</ele><time>2016-11-01T13:15:42Z</time></trkpt>
<trkpt lat="46.79238" lon="6.50091"><ele>984</ele><time>2016-11-01T13:15:44Z</time></trkpt>
<trkpt lat="46.79258" lon="6.50109"><ele>981.8</ele><time>2016-11-01T13:15:46Z</time></trkpt>
<trkpt lat="46.79278" lon="6.50129"><ele>979</ele><time>2016-11-01T13:15:48Z</time></trkpt>
<trkpt lat="46.79297" lon="6.50153"><ele>976.6</ele><time>2016-11-01T13:15:50Z</time></trkpt>
<trkpt lat="46.79317" lon="6.50175"><ele>973.8</ele><time>2016-11-01T13:15:52Z</time></trkpt>
<trkpt lat="46.79336" lon="6.50195"><ele>971</ele><time>2016-11-01T13:15:54Z</time></trkpt>
<trkpt lat="46.79343" lon="6.50205"><ele>969.4</ele><time>2016-11-01T13:15:55Z</time></trkpt>
<trkpt lat="46.79356" lon="6.50227"><ele>967</ele><time>2016-11-01T13:15:57Z</time></trkpt>
<trkpt lat="46.79355" lon="6.50255"><ele>963.8</ele><time>2016-11-01T13:15:59Z</time></trkpt>
<trkpt lat="46.79354" lon="6.5027"><ele>962.4</ele><time>2016-11-01T13:16:00Z</time></trkpt>
<trkpt lat="46.79355" lon="6.50299"><ele>960.2</ele><time>2016-11-01T13:16:02Z</time></trkpt>
<trkpt lat="46.79359" lon="6.50327"><ele>957.4</ele><time>2016-11-01T13:16:04Z</time></trkpt>
<trkpt lat="46.79367" lon="6.50351"><ele>955.2</ele><time>2016-11-01T13:16:06Z</time></trkpt>
<trkpt lat="46.79379" lon="6.50375"><ele>953.6</ele><time>2016-11-01T13:16:08Z</time></trkpt>
<trkpt lat="46.79391" lon="6.50401"><ele>951.8</ele><time>2016-11-01T13:16:10Z</time></trkpt>
<trkpt lat="46.79404" lon="6.50429"><ele>949.2</ele><time>2016-11-01T13:16:12Z</time></trkpt>
<trkpt lat="46.79417" lon="6.50457"><ele>946.6</ele><time>2016-11-01T13:16:14Z</time></trkpt>
<trkpt lat="46.7943" lon="6.50488"><ele>944.6</ele><time>2016-11-01T13:16:16Z</time></trkpt>
<trkpt lat="46.79443" lon="6.50518"><ele>942.4</ele><time>2016-11-01T13:16:18Z</time></trkpt>
<trkpt lat="46.79457" lon="6.50548"><ele>940.2</ele><time>2016-11-01T13:16:20Z</time></trkpt>
<trkpt lat="46.79469" lon="6.50574"><ele>938.2</ele><time>2016-11-01T13:16:22Z</time></trkpt>
<trkpt lat="46.79491" lon="6.50594"><ele>935.6</ele><time>2016-11-01T13:16:25Z</time></trkpt>
<trkpt lat="46.79486" lon="6.50615"><ele>931.6</ele><time>2016-11-01T13:16:29Z</time></trkpt>
<trkpt lat="46.79464" lon="6.50603"><ele>926.6</ele><time>2016-11-01T13:16:33Z</time></trkpt>
<trkpt lat="46.79443" lon="6.50587"><ele>923</ele><time>2016-11-01T13:16:36Z</time></trkpt>
<trkpt lat="46.79427" lon="6.50574"><ele>920.8</ele><time>2016-11-01T13:16:38Z</time></trkpt>
<trkpt lat="46.7941" lon="6.50559"><ele>918.4</ele><time>2016-11-01T13:16:40Z</time></trkpt>
<trkpt lat="46.79393" lon="6.50541"><ele>916</ele><time>2016-11-01T13:16:42Z</time></trkpt>
<trkpt lat="46.79378" lon="6.50523"><ele>913.6</ele><time>2016-11-01T13:16:44Z</time></trkpt>
<trkpt lat="46.79371" lon="6.50515"><ele>912.4</ele><time>2016-11-01T13:16:45Z</time></trkpt>
<trkpt lat="46.79357" lon="6.50501"><ele>910.2</ele><time>2016-11-01T13:16:47Z</time></trkpt>
<trkpt lat="46.7935" lon="6.50498"><ele>909</ele><time>2016-11-01T13:16:48Z</time></trkpt>
<trkpt lat="46.79338" lon="6.50508"><ele>905.6</ele><time>2016-11-01T13:16:51Z</time></trkpt>
<trkpt lat="46.79343" lon="6.50536"><ele>903</ele><time>2016-11-01T13:16:54Z</time></trkpt>
<trkpt lat="46.79347" lon="6.50548"><ele>901.4</ele><time>2016-11-01T13:16:55Z</time></trkpt>
<trkpt lat="46.79355" lon="6.50571"><ele>899.4</ele><time>2016-11-01T13:16:57Z</time></trkpt>
<trkpt lat="46.79366" lon="6.50597"><ele>896.6</ele><time>2016-11-01T13:16:59Z</time></trkpt>
<trkpt lat="46.7938" lon="6.50625"><ele>894.8</ele><time>2016-11-01T13:17:01Z</time></trkpt>
<trkpt lat="46.79396" lon="6.50656"><ele>894</ele><time>2016-11-01T13:17:03Z</time></trkpt>
<trkpt lat="46.79412" lon="6.50685"><ele>892</ele><time>2016-11-01T13:17:05Z</time></trkpt>
<trkpt lat="46.79429" lon="6.50714"><ele>889.8</ele><time>2016-11-01T13:17:07Z</time></trkpt>
<trkpt lat="46.79446" lon="6.50743"><ele>887.2</ele><time>2016-11-01T13:17:09Z</time></trkpt>
<trkpt lat="46.79463" lon="6.50773"><ele>884.6</ele><time>2016-11-01T13:17:11Z</time></trkpt>
<trkpt lat="46.79479" lon="6.50803"><ele>882.2</ele><time>2016-11-01T13:17:13Z</time></trkpt>
<trkpt lat="46.79496" lon="6.50835"><ele>879.4</ele><time>2016-11-01T13:17:15Z</time></trkpt>
<trkpt lat="46.79512" lon="6.50867"><ele>876.8</ele><time>2016-11-01T13:17:17Z</time></trkpt>
<trkpt lat="46.79524" lon="6.50903"><ele>874.2</ele><time>2016-11-01T13:17:19Z</time></trkpt>
<trkpt lat="46.79535" lon="6.50941"><ele>871</ele><time>2016-11-01T13:17:21Z</time></trkpt>
<trkpt lat="46.79545" lon="6.50977"><ele>868</ele><time>2016-11-01T13:17:23Z</time></trkpt>
<trkpt lat="46.79552" lon="6.51009"><ele>865.2</ele><time>2016-11-01T13:17:25Z</time></trkpt>
<trkpt lat="46.79548" lon="6.51041"><ele>862.6</ele><time>2016-11-01T13:17:27Z</time></trkpt>
<trkpt lat="46.79537" lon="6.5107"><ele>860.2</ele><time>2016-11-01T13:17:29Z</time></trkpt>
<trkpt lat="46.79527" lon="6.51099"><ele>857.6</ele><time>2016-11-01T13:17:31Z</time></trkpt>
<trkpt lat="46.7952" lon="6.51132"><ele>854.8</ele><time>2016-11-01T13:17:33Z</time></trkpt>
<trkpt lat="46.79517" lon="6.51166"><ele>852.8</ele><time>2016-11-01T13:17:35Z</time></trkpt>
<trkpt lat="46.7952" lon="6.51203"><ele>849.2</ele><time>2016-11-01T13:17:37Z</time></trkpt>
<trkpt lat="46.79523" lon="6.51221"><ele>847.2</ele><time>2016-11-01T13:17:38Z</time></trkpt>
<trkpt lat="46.79529" lon="6.51257"><ele>843</ele><time>2016-11-01T13:17:40Z</time></trkpt>
<trkpt lat="46.79533" lon="6.51274"><ele>841.2</ele><time>2016-11-01T13:17:41Z</time></trkpt>
<trkpt lat="46.79544" lon="6.51306"><ele>838</ele><time>2016-11-01T13:17:43Z</time></trkpt>
<trkpt lat="46.79559" lon="6.51327"><ele>835.2</ele><time>2016-11-01T13:17:45Z</time></trkpt>
<trkpt lat="46.79577" lon="6.51338"><ele>832.8</ele><time>2016-11-01T13:17:47Z</time></trkpt>
<trkpt lat="46.79599" lon="6.5134"><ele>830.4</ele><time>2016-11-01T13:17:49Z</time></trkpt>
<trkpt lat="46.7961" lon="6.51339"><ele>829.2</ele><time>2016-11-01T13:17:50Z</time></trkpt>
<trkpt lat="46.79629" lon="6.51342"><ele>826.2</ele><time>2016-11-01T13:17:52Z</time></trkpt>
<trkpt lat="46.79648" lon="6.5136"><ele>822.8</ele><time>2016-11-01T13:17:55Z</time></trkpt>
<trkpt lat="46.79664" lon="6.51382"><ele>819.4</ele><time>2016-11-01T13:17:58Z</time></trkpt>
<trkpt lat="46.79689" lon="6.51384"><ele>815.4</ele><time>2016-11-01T13:18:01Z</time></trkpt>
<trkpt lat="46.79698" lon="6.51383"><ele>814.4</ele><time>2016-11-01T13:18:02Z</time></trkpt>
<trkpt lat="46.79707" lon="6.51384"><ele>813.2</ele><time>2016-11-01T13:18:03Z</time></trkpt>
<trkpt lat="46.79722" lon="6.51393"><ele>810.8</ele><time>2016-11-01T13:18:05Z</time></trkpt>
<trkpt lat="46.79723" lon="6.51427"><ele>807</ele><time>2016-11-01T13:18:08Z</time></trkpt>
<trkpt lat="46.7971" lon="6.51451"><ele>803.8</ele><time>2016-11-01T13:18:10Z</time></trkpt>
<trkpt lat="46.79692" lon="6.51471"><ele>801</ele><time>2016-11-01T13:18:12Z</time></trkpt>
<trkpt lat="46.79682" lon="6.5148"><ele>799.4</ele><time>2016-11-01T13:18:13Z</time></trkpt>
<trkpt lat="46.79672" lon="6.5149"><ele>798.8</ele><time>2016-11-01T13:18:14Z</time></trkpt>
<trkpt lat="46.79658" lon="6.51518"><ele>798</ele><time>2016-11-01T13:18:16Z</time></trkpt>
<trkpt lat="46.79648" lon="6.51551"><ele>796.4</ele><time>2016-11-01T13:18:18Z</time></trkpt>
<trkpt lat="46.79643" lon="6.5159"><ele>794.8</ele><time>2016-11-01T13:18:20Z</time></trkpt>
<trkpt lat="46.79636" lon="6.5163"><ele>792.4</ele><time>2016-11-01T13:18:22Z</time></trkpt>
<trkpt lat="46.7963" lon="6.5167"><ele>789.8</ele><time>2016-11-01T13:18:24Z</time></trkpt>
<trkpt lat="46.79626" lon="6.5171"><ele>787.2</ele><time>2016-11-01T13:18:26Z</time></trkpt>
<trkpt lat="46.79624" lon="6.5175"><ele>784.8</ele><time>2016-11-01T13:18:28Z</time></trkpt>
<trkpt lat="46.79623" lon="6.51769"><ele>783.2</ele><time>2016-11-01T13:18:29Z</time></trkpt>
<trkpt lat="46.79615" lon="6.51806"><ele>780.4</ele><time>2016-11-01T13:18:31Z</time></trkpt>
<trkpt lat="46.79601" lon="6.51839"><ele>777</ele><time>2016-11-01T13:18:33Z</time></trkpt>
<trkpt lat="46.79586" lon="6.51868"><ele>773.6</ele><time>2016-11-01T13:18:35Z</time></trkpt>
<trkpt lat="46.79575" lon="6.51894"><ele>771</ele><time>2016-11-01T13:18:37Z</time></trkpt>
<trkpt lat="46.79567" lon="6.51922"><ele>768.2</ele><time>2016-11-01T13:18:39Z</time></trkpt>
<trkpt lat="46.79562" lon="6.51951"><ele>765.6</ele><time>2016-11-01T13:18:41Z</time></trkpt>
<trkpt lat="46.79558" lon="6.51961"><ele>764.4</ele><time>2016-11-01T13:18:42Z</time></trkpt>
<trkpt lat="46.79537" lon="6.51967"><ele>763</ele><time>2016-11-01T13:18:45Z</time></trkpt>
<trkpt lat="46.7953" lon="6.51939"><ele>761.8</ele><time>2016-11-01T13:18:48Z</time></trkpt>
<trkpt lat="46.79542" lon="6.51903"><ele>760.8</ele><time>2016-11-01T13:18:51Z</time></trkpt>
<trkpt lat="46.79546" lon="6.51872"><ele>759.8</ele><time>2016-11-01T13:18:53Z</time></trkpt>
<trkpt lat="46.79546" lon="6.51839"><ele>758.2</ele><time>2016-11-01T13:18:55Z</time></trkpt>
<trkpt lat="46.79539" lon="6.51804"><ele>756.6</ele><time>2016-11-01T13:18:57Z</time></trkpt>
<trkpt lat="46.79525" lon="6.51769"><ele>755.4</ele><time>2016-11-01T13:18:59Z</time></trkpt>
<trkpt lat="46.7952" lon="6.51752"><ele>754.8</ele><time>2016-11-01T13:19:00Z</time></trkpt>
<trkpt lat="46.79514" lon="6.51721"><ele>753.2</ele><time>2016-11-01T13:19:02Z</time></trkpt>
<trkpt lat="46.79506" lon="6.51698"><ele>751.8</ele><time>2016-11-01T13:19:04Z</time></trkpt>
<trkpt lat="46.79485" lon="6.51693"><ele>746.8</ele><time>2016-11-01T13:19:07Z</time></trkpt>
<trkpt lat="46.79475" lon="6.51711"><ele>744.8</ele><time>2016-11-01T13:19:09Z</time></trkpt>
<trkpt lat="46.79468" lon="6.51749"><ele>741.2</ele><time>2016-11-01T13:19:12Z</time></trkpt>
<trkpt lat="46.79471" lon="6.51778"><ele>739</ele><time>2016-11-01T13:19:14Z</time></trkpt>
<trkpt lat="46.7948" lon="6.51804"><ele>737.4</ele><time>2016-11-01T13:19:16Z</time></trkpt>
<trkpt lat="46.79482" lon="6.51832"><ele>735</ele><time>2016-11-01T13:19:18Z</time></trkpt>
<trkpt lat="46.79472" lon="6.5186"><ele>733</ele><time>2016-11-01T13:19:20Z</time></trkpt>
<trkpt lat="46.79461" lon="6.51886"><ele>730.2</ele><time>2016-11-01T13:19:22Z</time></trkpt>
<trkpt lat="46.79454" lon="6.51898"><ele>729.2</ele><time>2016-11-01T13:19:23Z</time></trkpt>
<trkpt lat="46.79436" lon="6.51919"><ele>727.4</ele><time>2016-11-01T13:19:25Z</time></trkpt>
<trkpt lat="46.79414" lon="6.51933"><ele>724.8</ele><time>2016-11-01T13:19:27Z</time></trkpt>
<trkpt lat="46.79402" lon="6.51938"><ele>723.6</ele><time>2016-11-01T13:19:28Z</time></trkpt>
<trkpt lat="46.79379" lon="6.51944"><ele>721.4</ele><time>2016-11-01T13:19:30Z</time></trkpt>
<trkpt lat="46.79358" lon="6.51943"><ele>718.6</ele><time>2016-11-01T13:19:32Z</time></trkpt>
<trkpt lat="46.79348" lon="6.51943"><ele>717.2</ele><time>2016-11-01T13:19:33Z</time></trkpt>
<trkpt lat="46.79331" lon="6.51953"><ele>714.2</ele><time>2016-11-01T13:19:35Z</time></trkpt>
<trkpt lat="46.79319" lon="6.51975"><ele>711.2</ele><time>2016-11-01T13:19:37Z</time></trkpt>
<trkpt lat="46.79314" lon="6.51988"><ele>709.6</ele><time>2016-11-01T13:19:38Z</time></trkpt>
<trkpt lat="46.7931" lon="6.52002"><ele>708.8</ele><time>2016-11-01T13:19:39Z</time></trkpt>
<trkpt lat="46.79307" lon="6.52016"><ele>707.4</ele><time>2016-11-01T13:19:40Z</time></trkpt>
<trkpt lat="46.79302" lon="6.52041"><ele>704.2</ele><time>2016-11-01T13:19:42Z</time></trkpt>
<trkpt lat="46.79284" lon="6.52042"><ele>701.2</ele><time>2016-11-01T13:19:45Z</time></trkpt>
<trkpt lat="46.79289" lon="6.52017"><ele>696</ele><time>2016-11-01T13:19:48Z</time></trkpt>
<trkpt lat="46.79299" lon="6.51999"><ele>694.4</ele><time>2016-11-01T13:19:50Z</time></trkpt>
<trkpt lat="46.79305" lon="6.51988"><ele>693.4</ele><time>2016-11-01T13:19:51Z</time></trkpt>
<trkpt lat="46.79312" lon="6.51962"><ele>691.6</ele><time>2016-11-01T13:19:53Z</time></trkpt>
<trkpt lat="46.79311" lon="6.51935"><ele>689.8</ele><time>2016-11-01T13:19:55Z</time></trkpt>
<trkpt lat="46.793" lon="6.51902"><ele>687.2</ele><time>2016-11-01T13:19:58Z</time></trkpt>
<trkpt lat="46.79276" lon="6.51894"><ele>684</ele><time>2016-11-01T13:20:01Z</time></trkpt>
<trkpt lat="46.79266" lon="6.51894"><ele>683.4</ele><time>2016-11-01T13:20:02Z</time></trkpt>
<trkpt lat="46.79246" lon="6.51896"><ele>680</ele><time>2016-11-01T13:20:04Z</time></trkpt>
<trkpt lat="46.79225" lon="6.51893"><ele>677.2</ele><time>2016-11-01T13:20:06Z</time></trkpt>
<trkpt lat="46.79205" lon="6.51887"><ele>675</ele><time>2016-11-01T13:20:08Z</time></trkpt>
<trkpt lat="46.79195" lon="6.51882"><ele>673.8</ele><time>2016-11-01T13:20:09Z</time></trkpt>
<trkpt lat="46.79178" lon="6.51869"><ele>670.2</ele><time>2016-11-01T13:20:11Z</time></trkpt>
<trkpt lat="46.79154" lon="6.51859"><ele>667.4</ele><time>2016-11-01T13:20:14Z</time></trkpt>
<trkpt lat="46.79139" lon="6.51868"><ele>666.6</ele><time>2016-11-01T13:20:16Z</time></trkpt>
<trkpt lat="46.79131" lon="6.51875"><ele>665.8</ele><time>2016-11-01T13:20:17Z</time></trkpt>
<trkpt lat="46.79117" lon="6.51908"><ele>663.4</ele><time>2016-11-01T13:20:20Z</time></trkpt>
<trkpt lat="46.79116" lon="6.51938"><ele>661.2</ele><time>2016-11-01T13:20:22Z</time></trkpt>
<trkpt lat="46.79115" lon="6.5197"><ele>658.2</ele><time>2016-11-01T13:20:24Z</time></trkpt>
<trkpt lat="46.79113" lon="6.52004"><ele>655.8</ele><time>2016-11-01T13:20:26Z</time></trkpt>
<trkpt lat="46.79111" lon="6.52038"><ele>653.6</ele><time>2016-11-01T13:20:28Z</time></trkpt>
<trkpt lat="46.79109" lon="6.52071"><ele>650.8</ele><time>2016-11-01T13:20:30Z</time></trkpt>
<trkpt lat="46.79106" lon="6.52101"><ele>648.4</ele><time>2016-11-01T13:20:32Z</time></trkpt>
<trkpt lat="46.79102" lon="6.52115"><ele>647.6</ele><time>2016-11-01T13:20:33Z</time></trkpt>
<trkpt lat="46.7909" lon="6.52147"><ele>644.8</ele><time>2016-11-01T13:20:36Z</time></trkpt>
<trkpt lat="46.79082" lon="6.52165"><ele>643.2</ele><time>2016-11-01T13:20:38Z</time></trkpt>
<trkpt lat="46.7907" lon="6.52195"><ele>641</ele><time>2016-11-01T13:20:41Z</time></trkpt>
<trkpt lat="46.79056" lon="6.52229"><ele>639.2</ele><time>2016-11-01T13:20:44Z</time></trkpt>
<trkpt lat="46.79043" lon="6.5225"><ele>637.8</ele><time>2016-11-01T13:20:46Z</time></trkpt>
<trkpt lat="46.79025" lon="6.52273"><ele>636.6</ele><time>2016-11-01T13:20:49Z</time></trkpt>
<trkpt lat="46.79021" lon="6.52278"><ele>636.4</ele><time>2016-11-01T13:20:50Z</time></trkpt>
<trkpt lat="46.79005" lon="6.52299"><ele>635.4</ele><time>2016-11-01T13:20:54Z</time></trkpt>
<trkpt lat="46.78996" lon="6.52331"><ele>635.2</ele><time>2016-11-01T13:20:57Z</time></trkpt>
<trkpt lat="46.78994" lon="6.52356"><ele>634</ele><time>2016-11-01T13:20:59Z</time></trkpt>
<trkpt lat="46.78994" lon="6.52368"><ele>632.6</ele><time>2016-11-01T13:21:00Z</time></trkpt>
<trkpt lat="46.78997" lon="6.52405"><ele>630.2</ele><time>2016-11-01T13:21:03Z</time></trkpt>
<trkpt lat="46.78997" lon="6.52417"><ele>629.6</ele><time>2016-11-01T13:21:04Z</time></trkpt>
<trkpt lat="46.78991" lon="6.5244"><ele>628.4</ele><time>2016-11-01T13:21:06Z</time></trkpt>
<trkpt lat="46.78981" lon="6.52473"><ele>627.6</ele><time>2016-11-01T13:21:09Z</time></trkpt>
<trkpt lat="46.78978" lon="6.52488"><ele>627.2</ele><time>2016-11-01T13:21:11Z</time></trkpt>
<trkpt lat="46.78972" lon="6.525"><ele>625.6</ele><time>2016-11-01T13:21:15Z</time></trkpt>
<trkpt lat="46.78968" lon="6.52507"><ele>625.2</ele><time>2016-11-01T13:21:18Z</time></trkpt>
<trkpt lat="46.78957" lon="6.52528"><ele>624.2</ele><time>2016-11-01T13:21:25Z</time></trkpt>
<trkpt lat="46.78955" lon="6.52532"><ele>624.4</ele><time>2016-11-01T13:21:39Z</time></trkpt>
<trkpt lat="46.78953" lon="6.52537"><ele>624.4</ele><time>2016-11-01T13:21:41Z</time></trkpt>
<trkpt lat="46.78941" lon="6.52562"><ele>623</ele><time>2016-11-01T13:21:47Z</time></trkpt>
<trkpt lat="46.78929" lon="6.52589"><ele>621.6</ele><time>2016-11-01T13:21:51Z</time></trkpt>
<trkpt lat="46.78919" lon="6.52609"><ele>620.6</ele><time>2016-11-01T13:21:54Z</time></trkpt>
<trkpt lat="46.78903" lon="6.52601"><ele>620.4</ele><time>2016-11-01T13:21:59Z</time></trkpt>
<trkpt lat="46.78911" lon="6.5259"><ele>620.4</ele><time>2016-11-01T13:22:17Z</time></trkpt>
<trkpt lat="46.78911" lon="6.52583"><ele>622</ele><time>2016-11-01T13:22:57Z</time></trkpt>
<trkpt lat="46.78911" lon="6.52583"><ele>622</ele><time>2016-11-01T13:23:10Z</time></trkpt>
<trkpt lat="46.78911" lon="6.52585"><ele>622.6</ele><time>2016-11-01T13:23:23Z</time></trkpt>
<trkpt lat="46.78912" lon="6.52584"><ele>622.2</ele><time>2016-11-01T13:23:37Z</time></trkpt>
<trkpt lat="46.78912" lon="6.52583"><ele>621.6</ele><time>2016-11-01T13:23:45Z</time></trkpt>
<trkpt lat="46.78912" lon="6.52583"><ele>621.4</ele><time>2016-11-01T13:23:48Z</time></trkpt>
<trkpt lat="46.78913" lon="6.52583"><ele>621.4</ele><time>2016-11-01T13:23:52Z</time></trkpt>
<trkpt lat="46.78913" lon="6.52582"><ele>621.2</ele><time>2016-11-01T13:23:54Z</time></trkpt>
</trkseg></trk></gpx>